<?xml version="1.0" encoding="UTF-8" standalone="no" ?>
<gpx xmlns="http://www.topografix.com/GPX/1/1" xmlns:xsi="http://www.w3.org/2001/XMLSchema-instance" xsi:schemaLocation="http://www.topografix.com/GPX/1/1 http://www.topografix.com/GPX/1/1/gpx.xsd" version="1.1" creator="VisuGPX - https://www.visugpx.com">
  <metadata>
    <name>ST_RAD_COMB 16km</name>
    <desc><![CDATA[sortie vers flavin retour par combelle]]></desc>
  </metadata>
  <trk>
    <name><![CDATA[sT RA 15km --]]></name>
    <trkseg>
      <trkpt lat="44.33563" lon="2.62934">
        <ele>648.5463867</ele>
        <time>2014-07-25T05:48:04Z</time>
      </trkpt>
      <trkpt lat="44.33561" lon="2.6295">
        <ele>649.0270996</ele>
        <time>2014-07-25T05:48:09Z</time>
      </trkpt>
      <trkpt lat="44.33566" lon="2.62972">
        <ele>648.5463867</ele>
        <time>2014-07-25T05:48:15Z</time>
      </trkpt>
      <trkpt lat="44.33568" lon="2.62986">
        <ele>647.1044922</ele>
        <time>2014-07-25T05:48:19Z</time>
      </trkpt>
      <trkpt lat="44.33568" lon="2.63003">
        <ele>646.1433105</ele>
        <time>2014-07-25T05:48:24Z</time>
      </trkpt>
      <trkpt lat="44.3357" lon="2.63022">
        <ele>644.7011719</ele>
        <time>2014-07-25T05:48:30Z</time>
      </trkpt>
      <trkpt lat="44.33571" lon="2.63028">
        <ele>644.7011719</ele>
        <time>2014-07-25T05:48:32Z</time>
      </trkpt>
      <trkpt lat="44.33567" lon="2.63038">
        <ele>642.2980957</ele>
        <time>2014-07-25T05:48:37Z</time>
      </trkpt>
      <trkpt lat="44.33565" lon="2.63039">
        <ele>641.8173828</ele>
        <time>2014-07-25T05:48:38Z</time>
      </trkpt>
      <trkpt lat="44.33562" lon="2.63057">
        <ele>641.3366699</ele>
        <time>2014-07-25T05:48:44Z</time>
      </trkpt>
      <trkpt lat="44.33561" lon="2.63077">
        <ele>639.8947754</ele>
        <time>2014-07-25T05:48:50Z</time>
      </trkpt>
      <trkpt lat="44.33556" lon="2.63093">
        <ele>639.4140625</ele>
        <time>2014-07-25T05:48:55Z</time>
      </trkpt>
      <trkpt lat="44.33552" lon="2.63112">
        <ele>637.972168</ele>
        <time>2014-07-25T05:49:01Z</time>
      </trkpt>
      <trkpt lat="44.33546" lon="2.63125">
        <ele>637.0107422</ele>
        <time>2014-07-25T05:49:06Z</time>
      </trkpt>
      <trkpt lat="44.3354" lon="2.6314">
        <ele>636.5302734</ele>
        <time>2014-07-25T05:49:11Z</time>
      </trkpt>
      <trkpt lat="44.33533" lon="2.63158">
        <ele>637.4914551</ele>
        <time>2014-07-25T05:49:17Z</time>
      </trkpt>
      <trkpt lat="44.33529" lon="2.6317">
        <ele>637.972168</ele>
        <time>2014-07-25T05:49:21Z</time>
      </trkpt>
      <trkpt lat="44.33525" lon="2.6319">
        <ele>637.4914551</ele>
        <time>2014-07-25T05:49:27Z</time>
      </trkpt>
      <trkpt lat="44.33523" lon="2.63205">
        <ele>634.6074219</ele>
        <time>2014-07-25T05:49:32Z</time>
      </trkpt>
      <trkpt lat="44.33518" lon="2.63221">
        <ele>635.5686035</ele>
        <time>2014-07-25T05:49:37Z</time>
      </trkpt>
      <trkpt lat="44.33514" lon="2.63238">
        <ele>635.0881348</ele>
        <time>2014-07-25T05:49:42Z</time>
      </trkpt>
      <trkpt lat="44.3351" lon="2.63251">
        <ele>633.6459961</ele>
        <time>2014-07-25T05:49:46Z</time>
      </trkpt>
      <trkpt lat="44.33505" lon="2.63266">
        <ele>632.6848145</ele>
        <time>2014-07-25T05:49:51Z</time>
      </trkpt>
      <trkpt lat="44.33501" lon="2.63284">
        <ele>631.2429199</ele>
        <time>2014-07-25T05:49:57Z</time>
      </trkpt>
      <trkpt lat="44.33497" lon="2.63299">
        <ele>630.762207</ele>
        <time>2014-07-25T05:50:02Z</time>
      </trkpt>
      <trkpt lat="44.33492" lon="2.63316">
        <ele>631.7233887</ele>
        <time>2014-07-25T05:50:07Z</time>
      </trkpt>
      <trkpt lat="44.33487" lon="2.63333">
        <ele>632.2041016</ele>
        <time>2014-07-25T05:50:12Z</time>
      </trkpt>
      <trkpt lat="44.33484" lon="2.6335">
        <ele>632.6848145</ele>
        <time>2014-07-25T05:50:17Z</time>
      </trkpt>
      <trkpt lat="44.33483" lon="2.63366">
        <ele>632.2041016</ele>
        <time>2014-07-25T05:50:22Z</time>
      </trkpt>
      <trkpt lat="44.33481" lon="2.63383">
        <ele>633.1652832</ele>
        <time>2014-07-25T05:50:27Z</time>
      </trkpt>
      <trkpt lat="44.3348" lon="2.63396">
        <ele>632.6848145</ele>
        <time>2014-07-25T05:50:31Z</time>
      </trkpt>
      <trkpt lat="44.33479" lon="2.63413">
        <ele>632.2041016</ele>
        <time>2014-07-25T05:50:36Z</time>
      </trkpt>
      <trkpt lat="44.33478" lon="2.63427">
        <ele>631.7233887</ele>
        <time>2014-07-25T05:50:40Z</time>
      </trkpt>
      <trkpt lat="44.33475" lon="2.63439">
        <ele>632.2041016</ele>
        <time>2014-07-25T05:50:44Z</time>
      </trkpt>
      <trkpt lat="44.33468" lon="2.63457">
        <ele>632.2041016</ele>
        <time>2014-07-25T05:50:50Z</time>
      </trkpt>
      <trkpt lat="44.33462" lon="2.63476">
        <ele>632.2041016</ele>
        <time>2014-07-25T05:50:56Z</time>
      </trkpt>
      <trkpt lat="44.33455" lon="2.63494">
        <ele>633.1652832</ele>
        <time>2014-07-25T05:51:02Z</time>
      </trkpt>
      <trkpt lat="44.33449" lon="2.63513">
        <ele>634.126709</ele>
        <time>2014-07-25T05:51:08Z</time>
      </trkpt>
      <trkpt lat="44.33445" lon="2.63535">
        <ele>634.6074219</ele>
        <time>2014-07-25T05:51:14Z</time>
      </trkpt>
      <trkpt lat="44.33446" lon="2.63548">
        <ele>633.6459961</ele>
        <time>2014-07-25T05:51:18Z</time>
      </trkpt>
      <trkpt lat="44.33443" lon="2.63567">
        <ele>632.6848145</ele>
        <time>2014-07-25T05:51:24Z</time>
      </trkpt>
      <trkpt lat="44.3344" lon="2.63574">
        <ele>632.6848145</ele>
        <time>2014-07-25T05:51:27Z</time>
      </trkpt>
      <trkpt lat="44.33433" lon="2.63584">
        <ele>631.7233887</ele>
        <time>2014-07-25T05:51:32Z</time>
      </trkpt>
      <trkpt lat="44.33424" lon="2.63597">
        <ele>630.2814941</ele>
        <time>2014-07-25T05:51:38Z</time>
      </trkpt>
      <trkpt lat="44.33416" lon="2.63606">
        <ele>629.3200684</ele>
        <time>2014-07-25T05:51:43Z</time>
      </trkpt>
      <trkpt lat="44.33409" lon="2.63617">
        <ele>629.3200684</ele>
        <time>2014-07-25T05:51:49Z</time>
      </trkpt>
      <trkpt lat="44.33401" lon="2.63627">
        <ele>628.8395996</ele>
        <time>2014-07-25T05:51:55Z</time>
      </trkpt>
      <trkpt lat="44.33394" lon="2.63637">
        <ele>631.7233887</ele>
        <time>2014-07-25T05:52:01Z</time>
      </trkpt>
      <trkpt lat="44.33388" lon="2.63649">
        <ele>634.126709</ele>
        <time>2014-07-25T05:52:08Z</time>
      </trkpt>
      <trkpt lat="44.3338" lon="2.63659">
        <ele>636.0495605</ele>
        <time>2014-07-25T05:52:14Z</time>
      </trkpt>
      <trkpt lat="44.3338" lon="2.63661">
        <ele>636.0495605</ele>
        <time>2014-07-25T05:52:15Z</time>
      </trkpt>
      <trkpt lat="44.33375" lon="2.63669">
        <ele>637.0107422</ele>
        <time>2014-07-25T05:52:19Z</time>
      </trkpt>
      <trkpt lat="44.33367" lon="2.63682">
        <ele>637.4914551</ele>
        <time>2014-07-25T05:52:26Z</time>
      </trkpt>
      <trkpt lat="44.33362" lon="2.63695">
        <ele>638.4528809</ele>
        <time>2014-07-25T05:52:32Z</time>
      </trkpt>
      <trkpt lat="44.33356" lon="2.63711">
        <ele>641.3366699</ele>
        <time>2014-07-25T05:52:39Z</time>
      </trkpt>
      <trkpt lat="44.33352" lon="2.63731">
        <ele>644.2207031</ele>
        <time>2014-07-25T05:52:47Z</time>
      </trkpt>
      <trkpt lat="44.33348" lon="2.63744">
        <ele>645.6625977</ele>
        <time>2014-07-25T05:52:52Z</time>
      </trkpt>
      <trkpt lat="44.33344" lon="2.63756">
        <ele>647.5852051</ele>
        <time>2014-07-25T05:52:58Z</time>
      </trkpt>
      <trkpt lat="44.33339" lon="2.63773">
        <ele>649.0270996</ele>
        <time>2014-07-25T05:53:05Z</time>
      </trkpt>
      <trkpt lat="44.33334" lon="2.63792">
        <ele>650.4692383</ele>
        <time>2014-07-25T05:53:13Z</time>
      </trkpt>
      <trkpt lat="44.3333" lon="2.63807">
        <ele>651.9111328</ele>
        <time>2014-07-25T05:53:20Z</time>
      </trkpt>
      <trkpt lat="44.33326" lon="2.63819">
        <ele>652.3918457</ele>
        <time>2014-07-25T05:53:25Z</time>
      </trkpt>
      <trkpt lat="44.33324" lon="2.6383">
        <ele>652.8725586</ele>
        <time>2014-07-25T05:53:30Z</time>
      </trkpt>
      <trkpt lat="44.33321" lon="2.63846">
        <ele>654.3146973</ele>
        <time>2014-07-25T05:53:37Z</time>
      </trkpt>
      <trkpt lat="44.33317" lon="2.63862">
        <ele>656.2370605</ele>
        <time>2014-07-25T05:53:44Z</time>
      </trkpt>
      <trkpt lat="44.33314" lon="2.63874">
        <ele>656.7177734</ele>
        <time>2014-07-25T05:53:49Z</time>
      </trkpt>
      <trkpt lat="44.3331" lon="2.63887">
        <ele>657.6791992</ele>
        <time>2014-07-25T05:53:54Z</time>
      </trkpt>
      <trkpt lat="44.33307" lon="2.639">
        <ele>659.1210938</ele>
        <time>2014-07-25T05:53:59Z</time>
      </trkpt>
      <trkpt lat="44.33302" lon="2.63916">
        <ele>660.5629883</ele>
        <time>2014-07-25T05:54:05Z</time>
      </trkpt>
      <trkpt lat="44.33299" lon="2.63925">
        <ele>661.5244141</ele>
        <time>2014-07-25T05:54:08Z</time>
      </trkpt>
      <trkpt lat="44.33296" lon="2.63937">
        <ele>662.4855957</ele>
        <time>2014-07-25T05:54:12Z</time>
      </trkpt>
      <trkpt lat="44.33294" lon="2.63956">
        <ele>662.4855957</ele>
        <time>2014-07-25T05:54:18Z</time>
      </trkpt>
      <trkpt lat="44.33292" lon="2.63967">
        <ele>662.4855957</ele>
        <time>2014-07-25T05:54:22Z</time>
      </trkpt>
      <trkpt lat="44.3329" lon="2.63981">
        <ele>662.9663086</ele>
        <time>2014-07-25T05:54:27Z</time>
      </trkpt>
      <trkpt lat="44.33284" lon="2.63999">
        <ele>665.3696289</ele>
        <time>2014-07-25T05:54:33Z</time>
      </trkpt>
      <trkpt lat="44.33281" lon="2.64009">
        <ele>666.3308105</ele>
        <time>2014-07-25T05:54:37Z</time>
      </trkpt>
      <trkpt lat="44.33277" lon="2.64028">
        <ele>666.3308105</ele>
        <time>2014-07-25T05:54:44Z</time>
      </trkpt>
      <trkpt lat="44.33274" lon="2.64046">
        <ele>666.3308105</ele>
        <time>2014-07-25T05:54:50Z</time>
      </trkpt>
      <trkpt lat="44.33273" lon="2.64061">
        <ele>667.2922363</ele>
        <time>2014-07-25T05:54:55Z</time>
      </trkpt>
      <trkpt lat="44.33273" lon="2.64075">
        <ele>665.8503418</ele>
        <time>2014-07-25T05:55:00Z</time>
      </trkpt>
      <trkpt lat="44.3327" lon="2.64094">
        <ele>664.4082031</ele>
        <time>2014-07-25T05:55:07Z</time>
      </trkpt>
      <trkpt lat="44.33268" lon="2.64108">
        <ele>664.888916</ele>
        <time>2014-07-25T05:55:12Z</time>
      </trkpt>
      <trkpt lat="44.33263" lon="2.64128">
        <ele>666.8115234</ele>
        <time>2014-07-25T05:55:19Z</time>
      </trkpt>
      <trkpt lat="44.33259" lon="2.64143">
        <ele>666.8115234</ele>
        <time>2014-07-25T05:55:24Z</time>
      </trkpt>
      <trkpt lat="44.33256" lon="2.64159">
        <ele>666.3308105</ele>
        <time>2014-07-25T05:55:30Z</time>
      </trkpt>
      <trkpt lat="44.33253" lon="2.64173">
        <ele>666.3308105</ele>
        <time>2014-07-25T05:55:35Z</time>
      </trkpt>
      <trkpt lat="44.33249" lon="2.64192">
        <ele>665.8503418</ele>
        <time>2014-07-25T05:55:42Z</time>
      </trkpt>
      <trkpt lat="44.33245" lon="2.64204">
        <ele>664.888916</ele>
        <time>2014-07-25T05:55:46Z</time>
      </trkpt>
      <trkpt lat="44.33241" lon="2.64217">
        <ele>664.4082031</ele>
        <time>2014-07-25T05:55:51Z</time>
      </trkpt>
      <trkpt lat="44.33237" lon="2.6423">
        <ele>663.9274902</ele>
        <time>2014-07-25T05:55:56Z</time>
      </trkpt>
      <trkpt lat="44.33234" lon="2.64239">
        <ele>663.4470215</ele>
        <time>2014-07-25T05:56:00Z</time>
      </trkpt>
      <trkpt lat="44.33229" lon="2.64255">
        <ele>662.9663086</ele>
        <time>2014-07-25T05:56:06Z</time>
      </trkpt>
      <trkpt lat="44.33224" lon="2.64268">
        <ele>662.9663086</ele>
        <time>2014-07-25T05:56:11Z</time>
      </trkpt>
      <trkpt lat="44.33218" lon="2.64283">
        <ele>663.4470215</ele>
        <time>2014-07-25T05:56:17Z</time>
      </trkpt>
      <trkpt lat="44.33214" lon="2.643">
        <ele>662.005127</ele>
        <time>2014-07-25T05:56:23Z</time>
      </trkpt>
      <trkpt lat="44.33209" lon="2.64312">
        <ele>662.9663086</ele>
        <time>2014-07-25T05:56:28Z</time>
      </trkpt>
      <trkpt lat="44.33202" lon="2.64326">
        <ele>662.9663086</ele>
        <time>2014-07-25T05:56:33Z</time>
      </trkpt>
      <trkpt lat="44.33195" lon="2.64343">
        <ele>663.4470215</ele>
        <time>2014-07-25T05:56:39Z</time>
      </trkpt>
      <trkpt lat="44.33191" lon="2.64358">
        <ele>662.4855957</ele>
        <time>2014-07-25T05:56:44Z</time>
      </trkpt>
      <trkpt lat="44.33188" lon="2.6437">
        <ele>661.5244141</ele>
        <time>2014-07-25T05:56:48Z</time>
      </trkpt>
      <trkpt lat="44.33182" lon="2.64388">
        <ele>661.0437012</ele>
        <time>2014-07-25T05:56:54Z</time>
      </trkpt>
      <trkpt lat="44.33177" lon="2.64403">
        <ele>662.005127</ele>
        <time>2014-07-25T05:56:59Z</time>
      </trkpt>
      <trkpt lat="44.33172" lon="2.64417">
        <ele>663.9274902</ele>
        <time>2014-07-25T05:57:04Z</time>
      </trkpt>
      <trkpt lat="44.33167" lon="2.64435">
        <ele>665.8503418</ele>
        <time>2014-07-25T05:57:09Z</time>
      </trkpt>
      <trkpt lat="44.33163" lon="2.64452">
        <ele>666.8115234</ele>
        <time>2014-07-25T05:57:14Z</time>
      </trkpt>
      <trkpt lat="44.33159" lon="2.64468">
        <ele>668.2536621</ele>
        <time>2014-07-25T05:57:19Z</time>
      </trkpt>
      <trkpt lat="44.33151" lon="2.64484">
        <ele>668.2536621</ele>
        <time>2014-07-25T05:57:25Z</time>
      </trkpt>
      <trkpt lat="44.33145" lon="2.64497">
        <ele>669.6958008</ele>
        <time>2014-07-25T05:57:30Z</time>
      </trkpt>
      <trkpt lat="44.33138" lon="2.64513">
        <ele>671.1376953</ele>
        <time>2014-07-25T05:57:36Z</time>
      </trkpt>
      <trkpt lat="44.33132" lon="2.6453">
        <ele>671.1376953</ele>
        <time>2014-07-25T05:57:42Z</time>
      </trkpt>
      <trkpt lat="44.33127" lon="2.64545">
        <ele>670.6569824</ele>
        <time>2014-07-25T05:57:47Z</time>
      </trkpt>
      <trkpt lat="44.33122" lon="2.64559">
        <ele>672.5795898</ele>
        <time>2014-07-25T05:57:52Z</time>
      </trkpt>
      <trkpt lat="44.33114" lon="2.64574">
        <ele>673.5410156</ele>
        <time>2014-07-25T05:57:58Z</time>
      </trkpt>
      <trkpt lat="44.33106" lon="2.64591">
        <ele>674.5021973</ele>
        <time>2014-07-25T05:58:04Z</time>
      </trkpt>
      <trkpt lat="44.33105" lon="2.64607">
        <ele>675.4633789</ele>
        <time>2014-07-25T05:58:09Z</time>
      </trkpt>
      <trkpt lat="44.33105" lon="2.64617">
        <ele>674.9829102</ele>
        <time>2014-07-25T05:58:12Z</time>
      </trkpt>
      <trkpt lat="44.33102" lon="2.64633">
        <ele>674.9829102</ele>
        <time>2014-07-25T05:58:17Z</time>
      </trkpt>
      <trkpt lat="44.33098" lon="2.64652">
        <ele>674.9829102</ele>
        <time>2014-07-25T05:58:23Z</time>
      </trkpt>
      <trkpt lat="44.33095" lon="2.64668">
        <ele>674.0214844</ele>
        <time>2014-07-25T05:58:27Z</time>
      </trkpt>
      <trkpt lat="44.33091" lon="2.6469">
        <ele>672.5795898</ele>
        <time>2014-07-25T05:58:33Z</time>
      </trkpt>
      <trkpt lat="44.33087" lon="2.64706">
        <ele>672.098877</ele>
        <time>2014-07-25T05:58:38Z</time>
      </trkpt>
      <trkpt lat="44.33082" lon="2.64721">
        <ele>672.098877</ele>
        <time>2014-07-25T05:58:43Z</time>
      </trkpt>
      <trkpt lat="44.33078" lon="2.64733">
        <ele>672.098877</ele>
        <time>2014-07-25T05:58:47Z</time>
      </trkpt>
      <trkpt lat="44.33074" lon="2.64747">
        <ele>672.098877</ele>
        <time>2014-07-25T05:58:52Z</time>
      </trkpt>
      <trkpt lat="44.33071" lon="2.64762">
        <ele>672.098877</ele>
        <time>2014-07-25T05:58:57Z</time>
      </trkpt>
      <trkpt lat="44.33071" lon="2.64777">
        <ele>670.1762695</ele>
        <time>2014-07-25T05:59:02Z</time>
      </trkpt>
      <trkpt lat="44.33071" lon="2.64793">
        <ele>669.2150879</ele>
        <time>2014-07-25T05:59:07Z</time>
      </trkpt>
      <trkpt lat="44.33067" lon="2.64812">
        <ele>669.2150879</ele>
        <time>2014-07-25T05:59:12Z</time>
      </trkpt>
      <trkpt lat="44.33066" lon="2.64825">
        <ele>668.734375</ele>
        <time>2014-07-25T05:59:16Z</time>
      </trkpt>
      <trkpt lat="44.3306" lon="2.64841">
        <ele>666.3308105</ele>
        <time>2014-07-25T05:59:21Z</time>
      </trkpt>
      <trkpt lat="44.33055" lon="2.64845">
        <ele>665.3696289</ele>
        <time>2014-07-25T05:59:24Z</time>
      </trkpt>
      <trkpt lat="44.33045" lon="2.64845">
        <ele>664.4082031</ele>
        <time>2014-07-25T05:59:28Z</time>
      </trkpt>
      <trkpt lat="44.33028" lon="2.64841">
        <ele>662.9663086</ele>
        <time>2014-07-25T05:59:35Z</time>
      </trkpt>
      <trkpt lat="44.33014" lon="2.64839">
        <ele>661.0437012</ele>
        <time>2014-07-25T05:59:41Z</time>
      </trkpt>
      <trkpt lat="44.33005" lon="2.64838">
        <ele>660.5629883</ele>
        <time>2014-07-25T05:59:45Z</time>
      </trkpt>
      <trkpt lat="44.3299" lon="2.64835">
        <ele>659.6018066</ele>
        <time>2014-07-25T05:59:51Z</time>
      </trkpt>
      <trkpt lat="44.32974" lon="2.64831">
        <ele>658.6403809</ele>
        <time>2014-07-25T05:59:58Z</time>
      </trkpt>
      <trkpt lat="44.32962" lon="2.64826">
        <ele>658.6403809</ele>
        <time>2014-07-25T06:00:04Z</time>
      </trkpt>
      <trkpt lat="44.32951" lon="2.64823">
        <ele>658.6403809</ele>
        <time>2014-07-25T06:00:09Z</time>
      </trkpt>
      <trkpt lat="44.32939" lon="2.64821">
        <ele>658.1599121</ele>
        <time>2014-07-25T06:00:14Z</time>
      </trkpt>
      <trkpt lat="44.32927" lon="2.64818">
        <ele>659.1210938</ele>
        <time>2014-07-25T06:00:20Z</time>
      </trkpt>
      <trkpt lat="44.32916" lon="2.64815">
        <ele>659.6018066</ele>
        <time>2014-07-25T06:00:25Z</time>
      </trkpt>
      <trkpt lat="44.32905" lon="2.64813">
        <ele>659.1210938</ele>
        <time>2014-07-25T06:00:30Z</time>
      </trkpt>
      <trkpt lat="44.32892" lon="2.64809">
        <ele>658.6403809</ele>
        <time>2014-07-25T06:00:36Z</time>
      </trkpt>
      <trkpt lat="44.32878" lon="2.64804">
        <ele>657.6791992</ele>
        <time>2014-07-25T06:00:42Z</time>
      </trkpt>
      <trkpt lat="44.32869" lon="2.64804">
        <ele>657.6791992</ele>
        <time>2014-07-25T06:00:46Z</time>
      </trkpt>
      <trkpt lat="44.3286" lon="2.64804">
        <ele>657.6791992</ele>
        <time>2014-07-25T06:00:50Z</time>
      </trkpt>
      <trkpt lat="44.32848" lon="2.64802">
        <ele>657.1984863</ele>
        <time>2014-07-25T06:00:55Z</time>
      </trkpt>
      <trkpt lat="44.32834" lon="2.64802">
        <ele>657.1984863</ele>
        <time>2014-07-25T06:01:01Z</time>
      </trkpt>
      <trkpt lat="44.32817" lon="2.64796">
        <ele>657.1984863</ele>
        <time>2014-07-25T06:01:09Z</time>
      </trkpt>
      <trkpt lat="44.32806" lon="2.64791">
        <ele>655.7565918</ele>
        <time>2014-07-25T06:01:13Z</time>
      </trkpt>
      <trkpt lat="44.32797" lon="2.64788">
        <ele>653.8339844</ele>
        <time>2014-07-25T06:01:17Z</time>
      </trkpt>
      <trkpt lat="44.32782" lon="2.64787">
        <ele>652.3918457</ele>
        <time>2014-07-25T06:01:22Z</time>
      </trkpt>
      <trkpt lat="44.32766" lon="2.64786">
        <ele>651.4304199</ele>
        <time>2014-07-25T06:01:28Z</time>
      </trkpt>
      <trkpt lat="44.32751" lon="2.64785">
        <ele>651.4304199</ele>
        <time>2014-07-25T06:01:33Z</time>
      </trkpt>
      <trkpt lat="44.32738" lon="2.64781">
        <ele>649.5078125</ele>
        <time>2014-07-25T06:01:38Z</time>
      </trkpt>
      <trkpt lat="44.32724" lon="2.64783">
        <ele>647.1044922</ele>
        <time>2014-07-25T06:01:44Z</time>
      </trkpt>
      <trkpt lat="44.32722" lon="2.64784">
        <ele>647.1044922</ele>
        <time>2014-07-25T06:01:45Z</time>
      </trkpt>
      <trkpt lat="44.32721" lon="2.64787">
        <ele>646.1433105</ele>
        <time>2014-07-25T06:01:47Z</time>
      </trkpt>
      <trkpt lat="44.32721" lon="2.64792">
        <ele>645.1818848</ele>
        <time>2014-07-25T06:01:51Z</time>
      </trkpt>
      <trkpt lat="44.32721" lon="2.64797">
        <ele>644.2207031</ele>
        <time>2014-07-25T06:01:58Z</time>
      </trkpt>
      <trkpt lat="44.32721" lon="2.64796">
        <ele>643.2592773</ele>
        <time>2014-07-25T06:02:03Z</time>
      </trkpt>
      <trkpt lat="44.32722" lon="2.64796">
        <ele>642.7788086</ele>
        <time>2014-07-25T06:02:09Z</time>
      </trkpt>
      <trkpt lat="44.32719" lon="2.64795">
        <ele>645.6625977</ele>
        <time>2014-07-25T06:02:29Z</time>
      </trkpt>
      <trkpt lat="44.3272" lon="2.64798">
        <ele>645.1818848</ele>
        <time>2014-07-25T06:02:43Z</time>
      </trkpt>
      <trkpt lat="44.3272" lon="2.648">
        <ele>646.1433105</ele>
        <time>2014-07-25T06:02:51Z</time>
      </trkpt>
      <trkpt lat="44.32721" lon="2.648">
        <ele>645.6625977</ele>
        <time>2014-07-25T06:03:02Z</time>
      </trkpt>
      <trkpt lat="44.32722" lon="2.64799">
        <ele>644.7011719</ele>
        <time>2014-07-25T06:03:07Z</time>
      </trkpt>
      <trkpt lat="44.32723" lon="2.64798">
        <ele>643.2592773</ele>
        <time>2014-07-25T06:03:15Z</time>
      </trkpt>
      <trkpt lat="44.32723" lon="2.64792">
        <ele>640.855957</ele>
        <time>2014-07-25T06:03:22Z</time>
      </trkpt>
      <trkpt lat="44.32722" lon="2.6479">
        <ele>640.3754883</ele>
        <time>2014-07-25T06:03:28Z</time>
      </trkpt>
      <trkpt lat="44.3272" lon="2.6479">
        <ele>640.3754883</ele>
        <time>2014-07-25T06:03:39Z</time>
      </trkpt>
      <trkpt lat="44.32718" lon="2.64789">
        <ele>639.8947754</ele>
        <time>2014-07-25T06:04:01Z</time>
      </trkpt>
      <trkpt lat="44.32718" lon="2.64787">
        <ele>639.8947754</ele>
        <time>2014-07-25T06:04:12Z</time>
      </trkpt>
      <trkpt lat="44.32715" lon="2.64784">
        <ele>641.3366699</ele>
        <time>2014-07-25T06:04:20Z</time>
      </trkpt>
      <trkpt lat="44.32714" lon="2.64783">
        <ele>641.3366699</ele>
        <time>2014-07-25T06:04:21Z</time>
      </trkpt>
      <trkpt lat="44.3271" lon="2.64779">
        <ele>640.855957</ele>
        <time>2014-07-25T06:04:24Z</time>
      </trkpt>
      <trkpt lat="44.32698" lon="2.64779">
        <ele>641.3366699</ele>
        <time>2014-07-25T06:04:29Z</time>
      </trkpt>
      <trkpt lat="44.3269" lon="2.64778">
        <ele>640.3754883</ele>
        <time>2014-07-25T06:04:32Z</time>
      </trkpt>
      <trkpt lat="44.32676" lon="2.6478">
        <ele>639.8947754</ele>
        <time>2014-07-25T06:04:38Z</time>
      </trkpt>
      <trkpt lat="44.32665" lon="2.64781">
        <ele>640.855957</ele>
        <time>2014-07-25T06:04:42Z</time>
      </trkpt>
      <trkpt lat="44.32652" lon="2.64782">
        <ele>641.3366699</ele>
        <time>2014-07-25T06:04:47Z</time>
      </trkpt>
      <trkpt lat="44.32639" lon="2.64786">
        <ele>642.7788086</ele>
        <time>2014-07-25T06:04:53Z</time>
      </trkpt>
      <trkpt lat="44.32628" lon="2.6479">
        <ele>644.2207031</ele>
        <time>2014-07-25T06:04:58Z</time>
      </trkpt>
      <trkpt lat="44.3262" lon="2.64795">
        <ele>645.1818848</ele>
        <time>2014-07-25T06:05:02Z</time>
      </trkpt>
      <trkpt lat="44.32612" lon="2.64798">
        <ele>645.6625977</ele>
        <time>2014-07-25T06:05:06Z</time>
      </trkpt>
      <trkpt lat="44.32599" lon="2.64799">
        <ele>646.6240234</ele>
        <time>2014-07-25T06:05:12Z</time>
      </trkpt>
      <trkpt lat="44.32589" lon="2.64797">
        <ele>647.5852051</ele>
        <time>2014-07-25T06:05:17Z</time>
      </trkpt>
      <trkpt lat="44.32578" lon="2.64798">
        <ele>649.9885254</ele>
        <time>2014-07-25T06:05:22Z</time>
      </trkpt>
      <trkpt lat="44.32564" lon="2.64796">
        <ele>651.9111328</ele>
        <time>2014-07-25T06:05:28Z</time>
      </trkpt>
      <trkpt lat="44.32553" lon="2.64797">
        <ele>652.3918457</ele>
        <time>2014-07-25T06:05:34Z</time>
      </trkpt>
      <trkpt lat="44.3254" lon="2.64798">
        <ele>653.3532715</ele>
        <time>2014-07-25T06:05:40Z</time>
      </trkpt>
      <trkpt lat="44.3253" lon="2.64798">
        <ele>653.3532715</ele>
        <time>2014-07-25T06:05:45Z</time>
      </trkpt>
      <trkpt lat="44.3252" lon="2.64797">
        <ele>653.8339844</ele>
        <time>2014-07-25T06:05:50Z</time>
      </trkpt>
      <trkpt lat="44.32505" lon="2.64796">
        <ele>654.795166</ele>
        <time>2014-07-25T06:05:57Z</time>
      </trkpt>
      <trkpt lat="44.32493" lon="2.64793">
        <ele>656.7177734</ele>
        <time>2014-07-25T06:06:03Z</time>
      </trkpt>
      <trkpt lat="44.32481" lon="2.64789">
        <ele>658.1599121</ele>
        <time>2014-07-25T06:06:09Z</time>
      </trkpt>
      <trkpt lat="44.32472" lon="2.64784">
        <ele>659.1210938</ele>
        <time>2014-07-25T06:06:14Z</time>
      </trkpt>
      <trkpt lat="44.32458" lon="2.64777">
        <ele>659.6018066</ele>
        <time>2014-07-25T06:06:21Z</time>
      </trkpt>
      <trkpt lat="44.32447" lon="2.64773">
        <ele>660.5629883</ele>
        <time>2014-07-25T06:06:26Z</time>
      </trkpt>
      <trkpt lat="44.32435" lon="2.64766">
        <ele>662.4855957</ele>
        <time>2014-07-25T06:06:33Z</time>
      </trkpt>
      <trkpt lat="44.32425" lon="2.64762">
        <ele>662.9663086</ele>
        <time>2014-07-25T06:06:38Z</time>
      </trkpt>
      <trkpt lat="44.32413" lon="2.64755">
        <ele>664.4082031</ele>
        <time>2014-07-25T06:06:44Z</time>
      </trkpt>
      <trkpt lat="44.32401" lon="2.64747">
        <ele>664.888916</ele>
        <time>2014-07-25T06:06:50Z</time>
      </trkpt>
      <trkpt lat="44.3239" lon="2.64743">
        <ele>665.3696289</ele>
        <time>2014-07-25T06:06:55Z</time>
      </trkpt>
      <trkpt lat="44.32376" lon="2.64742">
        <ele>665.8503418</ele>
        <time>2014-07-25T06:07:01Z</time>
      </trkpt>
      <trkpt lat="44.32363" lon="2.64742">
        <ele>666.8115234</ele>
        <time>2014-07-25T06:07:07Z</time>
      </trkpt>
      <trkpt lat="44.3235" lon="2.64747">
        <ele>666.8115234</ele>
        <time>2014-07-25T06:07:13Z</time>
      </trkpt>
      <trkpt lat="44.32337" lon="2.64759">
        <ele>665.8503418</ele>
        <time>2014-07-25T06:07:20Z</time>
      </trkpt>
      <trkpt lat="44.32328" lon="2.64773">
        <ele>665.8503418</ele>
        <time>2014-07-25T06:07:26Z</time>
      </trkpt>
      <trkpt lat="44.32318" lon="2.64791">
        <ele>667.2922363</ele>
        <time>2014-07-25T06:07:33Z</time>
      </trkpt>
      <trkpt lat="44.32312" lon="2.64804">
        <ele>667.7727051</ele>
        <time>2014-07-25T06:07:38Z</time>
      </trkpt>
      <trkpt lat="44.32304" lon="2.64815">
        <ele>669.6958008</ele>
        <time>2014-07-25T06:07:43Z</time>
      </trkpt>
      <trkpt lat="44.32295" lon="2.64812">
        <ele>670.1762695</ele>
        <time>2014-07-25T06:07:48Z</time>
      </trkpt>
      <trkpt lat="44.3229" lon="2.64803">
        <ele>670.1762695</ele>
        <time>2014-07-25T06:07:52Z</time>
      </trkpt>
      <trkpt lat="44.32283" lon="2.64786">
        <ele>670.1762695</ele>
        <time>2014-07-25T06:07:58Z</time>
      </trkpt>
      <trkpt lat="44.32277" lon="2.64772">
        <ele>671.1376953</ele>
        <time>2014-07-25T06:08:03Z</time>
      </trkpt>
      <trkpt lat="44.32273" lon="2.64756">
        <ele>672.5795898</ele>
        <time>2014-07-25T06:08:08Z</time>
      </trkpt>
      <trkpt lat="44.32271" lon="2.64738">
        <ele>672.5795898</ele>
        <time>2014-07-25T06:08:14Z</time>
      </trkpt>
      <trkpt lat="44.32268" lon="2.64725">
        <ele>674.0214844</ele>
        <time>2014-07-25T06:08:18Z</time>
      </trkpt>
      <trkpt lat="44.32262" lon="2.64707">
        <ele>674.5021973</ele>
        <time>2014-07-25T06:08:24Z</time>
      </trkpt>
      <trkpt lat="44.32258" lon="2.64699">
        <ele>674.5021973</ele>
        <time>2014-07-25T06:08:27Z</time>
      </trkpt>
      <trkpt lat="44.32251" lon="2.64689">
        <ele>675.4633789</ele>
        <time>2014-07-25T06:08:32Z</time>
      </trkpt>
      <trkpt lat="44.32243" lon="2.64682">
        <ele>675.9440918</ele>
        <time>2014-07-25T06:08:37Z</time>
      </trkpt>
      <trkpt lat="44.32234" lon="2.64676">
        <ele>676.4248047</ele>
        <time>2014-07-25T06:08:42Z</time>
      </trkpt>
      <trkpt lat="44.32223" lon="2.64668">
        <ele>676.4248047</ele>
        <time>2014-07-25T06:08:48Z</time>
      </trkpt>
      <trkpt lat="44.32212" lon="2.64662">
        <ele>677.3862305</ele>
        <time>2014-07-25T06:08:53Z</time>
      </trkpt>
      <trkpt lat="44.32201" lon="2.64658">
        <ele>677.8666992</ele>
        <time>2014-07-25T06:08:58Z</time>
      </trkpt>
      <trkpt lat="44.32184" lon="2.64655">
        <ele>677.8666992</ele>
        <time>2014-07-25T06:09:06Z</time>
      </trkpt>
      <trkpt lat="44.32174" lon="2.64652">
        <ele>679.7893066</ele>
        <time>2014-07-25T06:09:11Z</time>
      </trkpt>
      <trkpt lat="44.32162" lon="2.64649">
        <ele>681.7119141</ele>
        <time>2014-07-25T06:09:17Z</time>
      </trkpt>
      <trkpt lat="44.32149" lon="2.64645">
        <ele>683.1538086</ele>
        <time>2014-07-25T06:09:23Z</time>
      </trkpt>
      <trkpt lat="44.32139" lon="2.64643">
        <ele>684.1154785</ele>
        <time>2014-07-25T06:09:27Z</time>
      </trkpt>
      <trkpt lat="44.32124" lon="2.6464">
        <ele>683.1538086</ele>
        <time>2014-07-25T06:09:33Z</time>
      </trkpt>
      <trkpt lat="44.32111" lon="2.64636">
        <ele>683.1538086</ele>
        <time>2014-07-25T06:09:39Z</time>
      </trkpt>
      <trkpt lat="44.32098" lon="2.64632">
        <ele>682.6733398</ele>
        <time>2014-07-25T06:09:44Z</time>
      </trkpt>
      <trkpt lat="44.32085" lon="2.64629">
        <ele>682.192627</ele>
        <time>2014-07-25T06:09:49Z</time>
      </trkpt>
      <trkpt lat="44.32072" lon="2.64627">
        <ele>680.7507324</ele>
        <time>2014-07-25T06:09:54Z</time>
      </trkpt>
      <trkpt lat="44.32058" lon="2.64625">
        <ele>679.3085938</ele>
        <time>2014-07-25T06:09:59Z</time>
      </trkpt>
      <trkpt lat="44.32044" lon="2.64623">
        <ele>678.3474121</ele>
        <time>2014-07-25T06:10:04Z</time>
      </trkpt>
      <trkpt lat="44.3203" lon="2.6462">
        <ele>677.3862305</ele>
        <time>2014-07-25T06:10:09Z</time>
      </trkpt>
      <trkpt lat="44.32016" lon="2.64621">
        <ele>675.9440918</ele>
        <time>2014-07-25T06:10:14Z</time>
      </trkpt>
      <trkpt lat="44.32003" lon="2.64621">
        <ele>674.9829102</ele>
        <time>2014-07-25T06:10:19Z</time>
      </trkpt>
      <trkpt lat="44.31989" lon="2.64616">
        <ele>674.5021973</ele>
        <time>2014-07-25T06:10:24Z</time>
      </trkpt>
      <trkpt lat="44.31976" lon="2.64613">
        <ele>674.0214844</ele>
        <time>2014-07-25T06:10:29Z</time>
      </trkpt>
      <trkpt lat="44.31962" lon="2.64607">
        <ele>672.5795898</ele>
        <time>2014-07-25T06:10:34Z</time>
      </trkpt>
      <trkpt lat="44.31947" lon="2.64604">
        <ele>670.6569824</ele>
        <time>2014-07-25T06:10:40Z</time>
      </trkpt>
      <trkpt lat="44.31933" lon="2.64602">
        <ele>668.734375</ele>
        <time>2014-07-25T06:10:45Z</time>
      </trkpt>
      <trkpt lat="44.3192" lon="2.64602">
        <ele>666.3308105</ele>
        <time>2014-07-25T06:10:50Z</time>
      </trkpt>
      <trkpt lat="44.31903" lon="2.64604">
        <ele>665.8503418</ele>
        <time>2014-07-25T06:10:56Z</time>
      </trkpt>
      <trkpt lat="44.31888" lon="2.64607">
        <ele>664.888916</ele>
        <time>2014-07-25T06:11:02Z</time>
      </trkpt>
      <trkpt lat="44.31877" lon="2.64606">
        <ele>664.4082031</ele>
        <time>2014-07-25T06:11:06Z</time>
      </trkpt>
      <trkpt lat="44.31867" lon="2.64605">
        <ele>663.9274902</ele>
        <time>2014-07-25T06:11:10Z</time>
      </trkpt>
      <trkpt lat="44.31859" lon="2.646">
        <ele>663.9274902</ele>
        <time>2014-07-25T06:11:14Z</time>
      </trkpt>
      <trkpt lat="44.31848" lon="2.64584">
        <ele>662.9663086</ele>
        <time>2014-07-25T06:11:21Z</time>
      </trkpt>
      <trkpt lat="44.31841" lon="2.64572">
        <ele>662.4855957</ele>
        <time>2014-07-25T06:11:26Z</time>
      </trkpt>
      <trkpt lat="44.31831" lon="2.6456">
        <ele>662.005127</ele>
        <time>2014-07-25T06:11:31Z</time>
      </trkpt>
      <trkpt lat="44.31822" lon="2.6455">
        <ele>660.5629883</ele>
        <time>2014-07-25T06:11:36Z</time>
      </trkpt>
      <trkpt lat="44.31814" lon="2.64542">
        <ele>661.0437012</ele>
        <time>2014-07-25T06:11:40Z</time>
      </trkpt>
      <trkpt lat="44.31802" lon="2.64533">
        <ele>661.0437012</ele>
        <time>2014-07-25T06:11:45Z</time>
      </trkpt>
      <trkpt lat="44.31793" lon="2.64526">
        <ele>661.0437012</ele>
        <time>2014-07-25T06:11:49Z</time>
      </trkpt>
      <trkpt lat="44.31779" lon="2.64518">
        <ele>661.0437012</ele>
        <time>2014-07-25T06:11:55Z</time>
      </trkpt>
      <trkpt lat="44.31774" lon="2.64517">
        <ele>661.5244141</ele>
        <time>2014-07-25T06:11:57Z</time>
      </trkpt>
      <trkpt lat="44.31759" lon="2.64515">
        <ele>661.5244141</ele>
        <time>2014-07-25T06:12:03Z</time>
      </trkpt>
      <trkpt lat="44.31748" lon="2.64515">
        <ele>661.5244141</ele>
        <time>2014-07-25T06:12:07Z</time>
      </trkpt>
      <trkpt lat="44.31735" lon="2.64513">
        <ele>660.5629883</ele>
        <time>2014-07-25T06:12:12Z</time>
      </trkpt>
      <trkpt lat="44.31719" lon="2.64511">
        <ele>659.1210938</ele>
        <time>2014-07-25T06:12:18Z</time>
      </trkpt>
      <trkpt lat="44.31705" lon="2.64508">
        <ele>657.1984863</ele>
        <time>2014-07-25T06:12:23Z</time>
      </trkpt>
      <trkpt lat="44.31688" lon="2.64506">
        <ele>653.8339844</ele>
        <time>2014-07-25T06:12:29Z</time>
      </trkpt>
      <trkpt lat="44.31677" lon="2.64504">
        <ele>650.949707</ele>
        <time>2014-07-25T06:12:33Z</time>
      </trkpt>
      <trkpt lat="44.31665" lon="2.64498">
        <ele>649.9885254</ele>
        <time>2014-07-25T06:12:38Z</time>
      </trkpt>
      <trkpt lat="44.31654" lon="2.64487">
        <ele>649.0270996</ele>
        <time>2014-07-25T06:12:43Z</time>
      </trkpt>
      <trkpt lat="44.31642" lon="2.64477">
        <ele>647.5852051</ele>
        <time>2014-07-25T06:12:48Z</time>
      </trkpt>
      <trkpt lat="44.31629" lon="2.64483">
        <ele>645.1818848</ele>
        <time>2014-07-25T06:12:53Z</time>
      </trkpt>
      <trkpt lat="44.31621" lon="2.64498">
        <ele>644.2207031</ele>
        <time>2014-07-25T06:12:58Z</time>
      </trkpt>
      <trkpt lat="44.31613" lon="2.64512">
        <ele>644.2207031</ele>
        <time>2014-07-25T06:13:03Z</time>
      </trkpt>
      <trkpt lat="44.31605" lon="2.64507">
        <ele>643.2592773</ele>
        <time>2014-07-25T06:13:08Z</time>
      </trkpt>
      <trkpt lat="44.31606" lon="2.64504">
        <ele>643.2592773</ele>
        <time>2014-07-25T06:13:09Z</time>
      </trkpt>
      <trkpt lat="44.31609" lon="2.64487">
        <ele>642.7788086</ele>
        <time>2014-07-25T06:13:14Z</time>
      </trkpt>
      <trkpt lat="44.31608" lon="2.6447">
        <ele>641.8173828</ele>
        <time>2014-07-25T06:13:18Z</time>
      </trkpt>
      <trkpt lat="44.31607" lon="2.64453">
        <ele>641.8173828</ele>
        <time>2014-07-25T06:13:23Z</time>
      </trkpt>
      <trkpt lat="44.31606" lon="2.64436">
        <ele>639.8947754</ele>
        <time>2014-07-25T06:13:28Z</time>
      </trkpt>
      <trkpt lat="44.31606" lon="2.64432">
        <ele>639.8947754</ele>
        <time>2014-07-25T06:13:29Z</time>
      </trkpt>
      <trkpt lat="44.31609" lon="2.64413">
        <ele>637.4914551</ele>
        <time>2014-07-25T06:13:35Z</time>
      </trkpt>
      <trkpt lat="44.31612" lon="2.64403">
        <ele>636.5302734</ele>
        <time>2014-07-25T06:13:38Z</time>
      </trkpt>
      <trkpt lat="44.31613" lon="2.64386">
        <ele>637.0107422</ele>
        <time>2014-07-25T06:13:43Z</time>
      </trkpt>
      <trkpt lat="44.31614" lon="2.64376">
        <ele>636.5302734</ele>
        <time>2014-07-25T06:13:46Z</time>
      </trkpt>
      <trkpt lat="44.31622" lon="2.64356">
        <ele>636.5302734</ele>
        <time>2014-07-25T06:13:52Z</time>
      </trkpt>
      <trkpt lat="44.31627" lon="2.64342">
        <ele>635.5686035</ele>
        <time>2014-07-25T06:13:56Z</time>
      </trkpt>
      <trkpt lat="44.31626" lon="2.64327">
        <ele>635.5686035</ele>
        <time>2014-07-25T06:14:00Z</time>
      </trkpt>
      <trkpt lat="44.31619" lon="2.64312">
        <ele>635.5686035</ele>
        <time>2014-07-25T06:14:05Z</time>
      </trkpt>
      <trkpt lat="44.31616" lon="2.64307">
        <ele>635.5686035</ele>
        <time>2014-07-25T06:14:07Z</time>
      </trkpt>
      <trkpt lat="44.31611" lon="2.64294">
        <ele>635.0881348</ele>
        <time>2014-07-25T06:14:12Z</time>
      </trkpt>
      <trkpt lat="44.31609" lon="2.64282">
        <ele>637.0107422</ele>
        <time>2014-07-25T06:14:16Z</time>
      </trkpt>
      <trkpt lat="44.31606" lon="2.6427">
        <ele>637.0107422</ele>
        <time>2014-07-25T06:14:19Z</time>
      </trkpt>
      <trkpt lat="44.31606" lon="2.64266">
        <ele>636.5302734</ele>
        <time>2014-07-25T06:14:20Z</time>
      </trkpt>
      <trkpt lat="44.31599" lon="2.64243">
        <ele>635.0881348</ele>
        <time>2014-07-25T06:14:26Z</time>
      </trkpt>
      <trkpt lat="44.31598" lon="2.64236">
        <ele>634.126709</ele>
        <time>2014-07-25T06:14:28Z</time>
      </trkpt>
      <trkpt lat="44.31595" lon="2.64221">
        <ele>633.1652832</ele>
        <time>2014-07-25T06:14:33Z</time>
      </trkpt>
      <trkpt lat="44.31592" lon="2.64216">
        <ele>632.6848145</ele>
        <time>2014-07-25T06:14:35Z</time>
      </trkpt>
      <trkpt lat="44.31583" lon="2.64205">
        <ele>632.2041016</ele>
        <time>2014-07-25T06:14:40Z</time>
      </trkpt>
      <trkpt lat="44.31575" lon="2.64195">
        <ele>631.7233887</ele>
        <time>2014-07-25T06:14:45Z</time>
      </trkpt>
      <trkpt lat="44.31566" lon="2.64181">
        <ele>633.1652832</ele>
        <time>2014-07-25T06:14:50Z</time>
      </trkpt>
      <trkpt lat="44.31565" lon="2.6418">
        <ele>633.6459961</ele>
        <time>2014-07-25T06:14:51Z</time>
      </trkpt>
      <trkpt lat="44.31554" lon="2.64164">
        <ele>634.6074219</ele>
        <time>2014-07-25T06:14:57Z</time>
      </trkpt>
      <trkpt lat="44.31548" lon="2.64152">
        <ele>633.6459961</ele>
        <time>2014-07-25T06:15:01Z</time>
      </trkpt>
      <trkpt lat="44.3154" lon="2.64137">
        <ele>632.2041016</ele>
        <time>2014-07-25T06:15:06Z</time>
      </trkpt>
      <trkpt lat="44.31533" lon="2.6412">
        <ele>631.7233887</ele>
        <time>2014-07-25T06:15:11Z</time>
      </trkpt>
      <trkpt lat="44.31531" lon="2.64106">
        <ele>631.2429199</ele>
        <time>2014-07-25T06:15:15Z</time>
      </trkpt>
      <trkpt lat="44.31531" lon="2.64093">
        <ele>630.2814941</ele>
        <time>2014-07-25T06:15:19Z</time>
      </trkpt>
      <trkpt lat="44.3153" lon="2.64089">
        <ele>629.8007813</ele>
        <time>2014-07-25T06:15:20Z</time>
      </trkpt>
      <trkpt lat="44.31529" lon="2.6407">
        <ele>630.762207</ele>
        <time>2014-07-25T06:15:26Z</time>
      </trkpt>
      <trkpt lat="44.31526" lon="2.64059">
        <ele>629.8007813</ele>
        <time>2014-07-25T06:15:30Z</time>
      </trkpt>
      <trkpt lat="44.31524" lon="2.64046">
        <ele>628.3588867</ele>
        <time>2014-07-25T06:15:34Z</time>
      </trkpt>
      <trkpt lat="44.31517" lon="2.64032">
        <ele>625.9555664</ele>
        <time>2014-07-25T06:15:39Z</time>
      </trkpt>
      <trkpt lat="44.3151" lon="2.64023">
        <ele>624.032959</ele>
        <time>2014-07-25T06:15:43Z</time>
      </trkpt>
      <trkpt lat="44.315" lon="2.6401">
        <ele>623.0717773</ele>
        <time>2014-07-25T06:15:49Z</time>
      </trkpt>
      <trkpt lat="44.31491" lon="2.64004">
        <ele>623.0717773</ele>
        <time>2014-07-25T06:15:53Z</time>
      </trkpt>
      <trkpt lat="44.31482" lon="2.63997">
        <ele>623.5524902</ele>
        <time>2014-07-25T06:15:57Z</time>
      </trkpt>
      <trkpt lat="44.31471" lon="2.63985">
        <ele>626.4362793</ele>
        <time>2014-07-25T06:16:03Z</time>
      </trkpt>
      <trkpt lat="44.31461" lon="2.63974">
        <ele>627.3977051</ele>
        <time>2014-07-25T06:16:08Z</time>
      </trkpt>
      <trkpt lat="44.31458" lon="2.63969">
        <ele>628.3588867</ele>
        <time>2014-07-25T06:16:10Z</time>
      </trkpt>
      <trkpt lat="44.31448" lon="2.6395">
        <ele>630.762207</ele>
        <time>2014-07-25T06:16:17Z</time>
      </trkpt>
      <trkpt lat="44.31438" lon="2.63932">
        <ele>632.6848145</ele>
        <time>2014-07-25T06:16:23Z</time>
      </trkpt>
      <trkpt lat="44.31435" lon="2.63919">
        <ele>631.7233887</ele>
        <time>2014-07-25T06:16:28Z</time>
      </trkpt>
      <trkpt lat="44.31428" lon="2.63904">
        <ele>629.8007813</ele>
        <time>2014-07-25T06:16:34Z</time>
      </trkpt>
      <trkpt lat="44.31422" lon="2.63893">
        <ele>628.8395996</ele>
        <time>2014-07-25T06:16:39Z</time>
      </trkpt>
      <trkpt lat="44.31414" lon="2.63876">
        <ele>628.3588867</ele>
        <time>2014-07-25T06:16:45Z</time>
      </trkpt>
      <trkpt lat="44.31409" lon="2.63866">
        <ele>628.3588867</ele>
        <time>2014-07-25T06:16:49Z</time>
      </trkpt>
      <trkpt lat="44.31406" lon="2.63854">
        <ele>628.3588867</ele>
        <time>2014-07-25T06:16:55Z</time>
      </trkpt>
      <trkpt lat="44.31406" lon="2.63852">
        <ele>627.8781738</ele>
        <time>2014-07-25T06:16:56Z</time>
      </trkpt>
      <trkpt lat="44.31402" lon="2.63845">
        <ele>628.8395996</ele>
        <time>2014-07-25T06:16:59Z</time>
      </trkpt>
      <trkpt lat="44.31398" lon="2.63832">
        <ele>630.762207</ele>
        <time>2014-07-25T06:17:04Z</time>
      </trkpt>
      <trkpt lat="44.31394" lon="2.63823">
        <ele>631.2429199</ele>
        <time>2014-07-25T06:17:08Z</time>
      </trkpt>
      <trkpt lat="44.31393" lon="2.63813">
        <ele>630.762207</ele>
        <time>2014-07-25T06:17:12Z</time>
      </trkpt>
      <trkpt lat="44.31393" lon="2.63796">
        <ele>631.2429199</ele>
        <time>2014-07-25T06:17:18Z</time>
      </trkpt>
      <trkpt lat="44.31393" lon="2.6378">
        <ele>631.7233887</ele>
        <time>2014-07-25T06:17:23Z</time>
      </trkpt>
      <trkpt lat="44.31394" lon="2.63777">
        <ele>631.7233887</ele>
        <time>2014-07-25T06:17:24Z</time>
      </trkpt>
      <trkpt lat="44.31395" lon="2.63764">
        <ele>632.6848145</ele>
        <time>2014-07-25T06:17:29Z</time>
      </trkpt>
      <trkpt lat="44.31398" lon="2.6375">
        <ele>633.6459961</ele>
        <time>2014-07-25T06:17:35Z</time>
      </trkpt>
      <trkpt lat="44.314" lon="2.6374">
        <ele>633.6459961</ele>
        <time>2014-07-25T06:17:39Z</time>
      </trkpt>
      <trkpt lat="44.31403" lon="2.63727">
        <ele>633.6459961</ele>
        <time>2014-07-25T06:17:44Z</time>
      </trkpt>
      <trkpt lat="44.31405" lon="2.6372">
        <ele>632.6848145</ele>
        <time>2014-07-25T06:17:47Z</time>
      </trkpt>
      <trkpt lat="44.31408" lon="2.63713">
        <ele>632.2041016</ele>
        <time>2014-07-25T06:17:50Z</time>
      </trkpt>
      <trkpt lat="44.31412" lon="2.63702">
        <ele>631.7233887</ele>
        <time>2014-07-25T06:17:55Z</time>
      </trkpt>
      <trkpt lat="44.31415" lon="2.63695">
        <ele>631.7233887</ele>
        <time>2014-07-25T06:17:58Z</time>
      </trkpt>
      <trkpt lat="44.31419" lon="2.63686">
        <ele>631.7233887</ele>
        <time>2014-07-25T06:18:02Z</time>
      </trkpt>
      <trkpt lat="44.3142" lon="2.63681">
        <ele>631.7233887</ele>
        <time>2014-07-25T06:18:04Z</time>
      </trkpt>
      <trkpt lat="44.31418" lon="2.63669">
        <ele>633.6459961</ele>
        <time>2014-07-25T06:18:09Z</time>
      </trkpt>
      <trkpt lat="44.31413" lon="2.63661">
        <ele>635.5686035</ele>
        <time>2014-07-25T06:18:14Z</time>
      </trkpt>
      <trkpt lat="44.31406" lon="2.63648">
        <ele>637.972168</ele>
        <time>2014-07-25T06:18:20Z</time>
      </trkpt>
      <trkpt lat="44.31402" lon="2.63642">
        <ele>638.4528809</ele>
        <time>2014-07-25T06:18:23Z</time>
      </trkpt>
      <trkpt lat="44.314" lon="2.63629">
        <ele>639.4140625</ele>
        <time>2014-07-25T06:18:28Z</time>
      </trkpt>
      <trkpt lat="44.31403" lon="2.63613">
        <ele>642.2980957</ele>
        <time>2014-07-25T06:18:34Z</time>
      </trkpt>
      <trkpt lat="44.31404" lon="2.63604">
        <ele>643.2592773</ele>
        <time>2014-07-25T06:18:37Z</time>
      </trkpt>
      <trkpt lat="44.31403" lon="2.63588">
        <ele>645.1818848</ele>
        <time>2014-07-25T06:18:42Z</time>
      </trkpt>
      <trkpt lat="44.31402" lon="2.63567">
        <ele>647.5852051</ele>
        <time>2014-07-25T06:18:49Z</time>
      </trkpt>
      <trkpt lat="44.31402" lon="2.63564">
        <ele>648.065918</ele>
        <time>2014-07-25T06:18:50Z</time>
      </trkpt>
      <trkpt lat="44.31402" lon="2.63547">
        <ele>648.065918</ele>
        <time>2014-07-25T06:18:55Z</time>
      </trkpt>
      <trkpt lat="44.31401" lon="2.63538">
        <ele>649.0270996</ele>
        <time>2014-07-25T06:18:58Z</time>
      </trkpt>
      <trkpt lat="44.314" lon="2.63516">
        <ele>650.949707</ele>
        <time>2014-07-25T06:19:06Z</time>
      </trkpt>
      <trkpt lat="44.31401" lon="2.63507">
        <ele>652.3918457</ele>
        <time>2014-07-25T06:19:09Z</time>
      </trkpt>
      <trkpt lat="44.31403" lon="2.63497">
        <ele>652.8725586</ele>
        <time>2014-07-25T06:19:15Z</time>
      </trkpt>
      <trkpt lat="44.31403" lon="2.63494">
        <ele>652.8725586</ele>
        <time>2014-07-25T06:19:18Z</time>
      </trkpt>
      <trkpt lat="44.31399" lon="2.63482">
        <ele>651.9111328</ele>
        <time>2014-07-25T06:19:27Z</time>
      </trkpt>
      <trkpt lat="44.31397" lon="2.63476">
        <ele>650.949707</ele>
        <time>2014-07-25T06:19:31Z</time>
      </trkpt>
      <trkpt lat="44.31391" lon="2.63466">
        <ele>653.3532715</ele>
        <time>2014-07-25T06:19:36Z</time>
      </trkpt>
      <trkpt lat="44.31386" lon="2.63454">
        <ele>654.3146973</ele>
        <time>2014-07-25T06:19:40Z</time>
      </trkpt>
      <trkpt lat="44.31381" lon="2.63446">
        <ele>654.3146973</ele>
        <time>2014-07-25T06:19:43Z</time>
      </trkpt>
      <trkpt lat="44.31372" lon="2.63434">
        <ele>655.2758789</ele>
        <time>2014-07-25T06:19:48Z</time>
      </trkpt>
      <trkpt lat="44.31366" lon="2.63423">
        <ele>655.2758789</ele>
        <time>2014-07-25T06:19:52Z</time>
      </trkpt>
      <trkpt lat="44.31357" lon="2.63412">
        <ele>655.7565918</ele>
        <time>2014-07-25T06:19:57Z</time>
      </trkpt>
      <trkpt lat="44.3135" lon="2.63401">
        <ele>655.2758789</ele>
        <time>2014-07-25T06:20:02Z</time>
      </trkpt>
      <trkpt lat="44.31346" lon="2.63386">
        <ele>654.795166</ele>
        <time>2014-07-25T06:20:06Z</time>
      </trkpt>
      <trkpt lat="44.31345" lon="2.6337">
        <ele>654.3146973</ele>
        <time>2014-07-25T06:20:10Z</time>
      </trkpt>
      <trkpt lat="44.31344" lon="2.63353">
        <ele>652.3918457</ele>
        <time>2014-07-25T06:20:15Z</time>
      </trkpt>
      <trkpt lat="44.31344" lon="2.63339">
        <ele>650.949707</ele>
        <time>2014-07-25T06:20:19Z</time>
      </trkpt>
      <trkpt lat="44.31342" lon="2.63321">
        <ele>648.5463867</ele>
        <time>2014-07-25T06:20:24Z</time>
      </trkpt>
      <trkpt lat="44.31341" lon="2.63302">
        <ele>646.6240234</ele>
        <time>2014-07-25T06:20:29Z</time>
      </trkpt>
      <trkpt lat="44.31345" lon="2.63285">
        <ele>645.6625977</ele>
        <time>2014-07-25T06:20:34Z</time>
      </trkpt>
      <trkpt lat="44.31346" lon="2.63282">
        <ele>645.1818848</ele>
        <time>2014-07-25T06:20:35Z</time>
      </trkpt>
      <trkpt lat="44.31357" lon="2.63266">
        <ele>644.2207031</ele>
        <time>2014-07-25T06:20:41Z</time>
      </trkpt>
      <trkpt lat="44.31363" lon="2.63253">
        <ele>643.2592773</ele>
        <time>2014-07-25T06:20:45Z</time>
      </trkpt>
      <trkpt lat="44.31366" lon="2.63247">
        <ele>642.7788086</ele>
        <time>2014-07-25T06:20:47Z</time>
      </trkpt>
      <trkpt lat="44.31368" lon="2.6324">
        <ele>642.2980957</ele>
        <time>2014-07-25T06:20:49Z</time>
      </trkpt>
      <trkpt lat="44.31372" lon="2.63222">
        <ele>640.855957</ele>
        <time>2014-07-25T06:20:54Z</time>
      </trkpt>
      <trkpt lat="44.31375" lon="2.63204">
        <ele>638.9335938</ele>
        <time>2014-07-25T06:20:59Z</time>
      </trkpt>
      <trkpt lat="44.31376" lon="2.63184">
        <ele>637.0107422</ele>
        <time>2014-07-25T06:21:05Z</time>
      </trkpt>
      <trkpt lat="44.31374" lon="2.63168">
        <ele>636.0495605</ele>
        <time>2014-07-25T06:21:09Z</time>
      </trkpt>
      <trkpt lat="44.31374" lon="2.63149">
        <ele>632.6848145</ele>
        <time>2014-07-25T06:21:14Z</time>
      </trkpt>
      <trkpt lat="44.31375" lon="2.63141">
        <ele>632.2041016</ele>
        <time>2014-07-25T06:21:16Z</time>
      </trkpt>
      <trkpt lat="44.31375" lon="2.63121">
        <ele>630.762207</ele>
        <time>2014-07-25T06:21:22Z</time>
      </trkpt>
      <trkpt lat="44.31377" lon="2.63102">
        <ele>629.3200684</ele>
        <time>2014-07-25T06:21:27Z</time>
      </trkpt>
      <trkpt lat="44.31376" lon="2.63086">
        <ele>627.3977051</ele>
        <time>2014-07-25T06:21:31Z</time>
      </trkpt>
      <trkpt lat="44.31375" lon="2.63083">
        <ele>626.9169922</ele>
        <time>2014-07-25T06:21:32Z</time>
      </trkpt>
      <trkpt lat="44.31367" lon="2.63073">
        <ele>625.9555664</ele>
        <time>2014-07-25T06:21:36Z</time>
      </trkpt>
      <trkpt lat="44.31355" lon="2.63062">
        <ele>624.9943848</ele>
        <time>2014-07-25T06:21:41Z</time>
      </trkpt>
      <trkpt lat="44.31342" lon="2.6306">
        <ele>623.0717773</ele>
        <time>2014-07-25T06:21:46Z</time>
      </trkpt>
      <trkpt lat="44.31332" lon="2.63064">
        <ele>622.1103516</ele>
        <time>2014-07-25T06:21:50Z</time>
      </trkpt>
      <trkpt lat="44.31329" lon="2.63063">
        <ele>622.1103516</ele>
        <time>2014-07-25T06:21:52Z</time>
      </trkpt>
      <trkpt lat="44.31326" lon="2.63045">
        <ele>620.668457</ele>
        <time>2014-07-25T06:21:57Z</time>
      </trkpt>
      <trkpt lat="44.31327" lon="2.63037">
        <ele>619.7070313</ele>
        <time>2014-07-25T06:21:59Z</time>
      </trkpt>
      <trkpt lat="44.31325" lon="2.63018">
        <ele>616.822998</ele>
        <time>2014-07-25T06:22:04Z</time>
      </trkpt>
      <trkpt lat="44.31326" lon="2.62996">
        <ele>613.4584961</ele>
        <time>2014-07-25T06:22:10Z</time>
      </trkpt>
      <trkpt lat="44.31327" lon="2.62992">
        <ele>612.9777832</ele>
        <time>2014-07-25T06:22:11Z</time>
      </trkpt>
      <trkpt lat="44.3133" lon="2.62979">
        <ele>611.0551758</ele>
        <time>2014-07-25T06:22:15Z</time>
      </trkpt>
      <trkpt lat="44.31334" lon="2.62968">
        <ele>609.6132813</ele>
        <time>2014-07-25T06:22:18Z</time>
      </trkpt>
      <trkpt lat="44.31336" lon="2.62956">
        <ele>608.6518555</ele>
        <time>2014-07-25T06:22:22Z</time>
      </trkpt>
      <trkpt lat="44.31338" lon="2.6294">
        <ele>606.2485352</ele>
        <time>2014-07-25T06:22:27Z</time>
      </trkpt>
      <trkpt lat="44.31344" lon="2.62921">
        <ele>601.9226074</ele>
        <time>2014-07-25T06:22:33Z</time>
      </trkpt>
      <trkpt lat="44.31349" lon="2.62912">
        <ele>600.4807129</ele>
        <time>2014-07-25T06:22:36Z</time>
      </trkpt>
      <trkpt lat="44.31352" lon="2.62902">
        <ele>598.5578613</ele>
        <time>2014-07-25T06:22:39Z</time>
      </trkpt>
      <trkpt lat="44.31356" lon="2.6289">
        <ele>596.635498</ele>
        <time>2014-07-25T06:22:43Z</time>
      </trkpt>
      <trkpt lat="44.31362" lon="2.62872">
        <ele>595.6740723</ele>
        <time>2014-07-25T06:22:49Z</time>
      </trkpt>
      <trkpt lat="44.31364" lon="2.62868">
        <ele>595.1933594</ele>
        <time>2014-07-25T06:22:50Z</time>
      </trkpt>
      <trkpt lat="44.31372" lon="2.62851">
        <ele>595.1933594</ele>
        <time>2014-07-25T06:22:55Z</time>
      </trkpt>
      <trkpt lat="44.31375" lon="2.62833">
        <ele>593.7514648</ele>
        <time>2014-07-25T06:23:00Z</time>
      </trkpt>
      <trkpt lat="44.31369" lon="2.62819">
        <ele>593.270752</ele>
        <time>2014-07-25T06:23:04Z</time>
      </trkpt>
      <trkpt lat="44.31364" lon="2.62808">
        <ele>593.7514648</ele>
        <time>2014-07-25T06:23:10Z</time>
      </trkpt>
      <trkpt lat="44.31362" lon="2.62807">
        <ele>594.2321777</ele>
        <time>2014-07-25T06:23:16Z</time>
      </trkpt>
      <trkpt lat="44.3136" lon="2.62802">
        <ele>595.1933594</ele>
        <time>2014-07-25T06:23:22Z</time>
      </trkpt>
      <trkpt lat="44.31353" lon="2.62785">
        <ele>596.635498</ele>
        <time>2014-07-25T06:23:28Z</time>
      </trkpt>
      <trkpt lat="44.31347" lon="2.62775">
        <ele>598.5578613</ele>
        <time>2014-07-25T06:23:33Z</time>
      </trkpt>
      <trkpt lat="44.31343" lon="2.62766">
        <ele>600.4807129</ele>
        <time>2014-07-25T06:23:37Z</time>
      </trkpt>
      <trkpt lat="44.31344" lon="2.62753">
        <ele>602.4030762</ele>
        <time>2014-07-25T06:23:42Z</time>
      </trkpt>
      <trkpt lat="44.31344" lon="2.62739">
        <ele>604.3261719</ele>
        <time>2014-07-25T06:23:47Z</time>
      </trkpt>
      <trkpt lat="44.31344" lon="2.6273">
        <ele>604.8066406</ele>
        <time>2014-07-25T06:23:50Z</time>
      </trkpt>
      <trkpt lat="44.31347" lon="2.62712">
        <ele>605.7680664</ele>
        <time>2014-07-25T06:23:56Z</time>
      </trkpt>
      <trkpt lat="44.31347" lon="2.62701">
        <ele>606.2485352</ele>
        <time>2014-07-25T06:24:00Z</time>
      </trkpt>
      <trkpt lat="44.31346" lon="2.62688">
        <ele>606.2485352</ele>
        <time>2014-07-25T06:24:04Z</time>
      </trkpt>
      <trkpt lat="44.31346" lon="2.62682">
        <ele>605.7680664</ele>
        <time>2014-07-25T06:24:06Z</time>
      </trkpt>
      <trkpt lat="44.31347" lon="2.62676">
        <ele>605.2873535</ele>
        <time>2014-07-25T06:24:08Z</time>
      </trkpt>
      <trkpt lat="44.31343" lon="2.62661">
        <ele>603.8452148</ele>
        <time>2014-07-25T06:24:13Z</time>
      </trkpt>
      <trkpt lat="44.31337" lon="2.6265">
        <ele>601.9226074</ele>
        <time>2014-07-25T06:24:17Z</time>
      </trkpt>
      <trkpt lat="44.31323" lon="2.62627">
        <ele>601.9226074</ele>
        <time>2014-07-25T06:24:25Z</time>
      </trkpt>
      <trkpt lat="44.31313" lon="2.62612">
        <ele>601.9226074</ele>
        <time>2014-07-25T06:24:31Z</time>
      </trkpt>
      <trkpt lat="44.31302" lon="2.626">
        <ele>602.8837891</ele>
        <time>2014-07-25T06:24:36Z</time>
      </trkpt>
      <trkpt lat="44.31293" lon="2.62591">
        <ele>602.8837891</ele>
        <time>2014-07-25T06:24:41Z</time>
      </trkpt>
      <trkpt lat="44.31288" lon="2.62585">
        <ele>603.364502</ele>
        <time>2014-07-25T06:24:45Z</time>
      </trkpt>
      <trkpt lat="44.31283" lon="2.6258">
        <ele>602.8837891</ele>
        <time>2014-07-25T06:24:51Z</time>
      </trkpt>
      <trkpt lat="44.31281" lon="2.62578">
        <ele>603.364502</ele>
        <time>2014-07-25T06:24:53Z</time>
      </trkpt>
      <trkpt lat="44.31278" lon="2.62572">
        <ele>602.8837891</ele>
        <time>2014-07-25T06:24:59Z</time>
      </trkpt>
      <trkpt lat="44.31276" lon="2.62571">
        <ele>602.4030762</ele>
        <time>2014-07-25T06:25:04Z</time>
      </trkpt>
      <trkpt lat="44.31269" lon="2.62565">
        <ele>602.8837891</ele>
        <time>2014-07-25T06:25:13Z</time>
      </trkpt>
      <trkpt lat="44.31266" lon="2.62562">
        <ele>601.4418945</ele>
        <time>2014-07-25T06:25:16Z</time>
      </trkpt>
      <trkpt lat="44.31257" lon="2.62555">
        <ele>600.4807129</ele>
        <time>2014-07-25T06:25:22Z</time>
      </trkpt>
      <trkpt lat="44.31256" lon="2.62554">
        <ele>600</ele>
        <time>2014-07-25T06:25:23Z</time>
      </trkpt>
      <trkpt lat="44.31252" lon="2.62548">
        <ele>600.9611816</ele>
        <time>2014-07-25T06:25:30Z</time>
      </trkpt>
      <trkpt lat="44.31251" lon="2.62548">
        <ele>600.9611816</ele>
        <time>2014-07-25T06:25:31Z</time>
      </trkpt>
      <trkpt lat="44.31248" lon="2.62545">
        <ele>599.5192871</ele>
        <time>2014-07-25T06:25:37Z</time>
      </trkpt>
      <trkpt lat="44.31244" lon="2.6254">
        <ele>601.4418945</ele>
        <time>2014-07-25T06:25:43Z</time>
      </trkpt>
      <trkpt lat="44.3124" lon="2.62536">
        <ele>602.4030762</ele>
        <time>2014-07-25T06:25:49Z</time>
      </trkpt>
      <trkpt lat="44.31236" lon="2.62531">
        <ele>601.9226074</ele>
        <time>2014-07-25T06:25:55Z</time>
      </trkpt>
      <trkpt lat="44.31234" lon="2.62526">
        <ele>600.9611816</ele>
        <time>2014-07-25T06:26:02Z</time>
      </trkpt>
      <trkpt lat="44.31233" lon="2.62523">
        <ele>600.4807129</ele>
        <time>2014-07-25T06:26:09Z</time>
      </trkpt>
      <trkpt lat="44.3123" lon="2.6252">
        <ele>601.9226074</ele>
        <time>2014-07-25T06:26:18Z</time>
      </trkpt>
      <trkpt lat="44.31227" lon="2.62518">
        <ele>601.4418945</ele>
        <time>2014-07-25T06:26:23Z</time>
      </trkpt>
      <trkpt lat="44.31226" lon="2.62517">
        <ele>601.9226074</ele>
        <time>2014-07-25T06:26:24Z</time>
      </trkpt>
      <trkpt lat="44.31219" lon="2.62508">
        <ele>603.364502</ele>
        <time>2014-07-25T06:26:30Z</time>
      </trkpt>
      <trkpt lat="44.3121" lon="2.62503">
        <ele>603.8452148</ele>
        <time>2014-07-25T06:26:35Z</time>
      </trkpt>
      <trkpt lat="44.31201" lon="2.62502">
        <ele>602.4030762</ele>
        <time>2014-07-25T06:26:39Z</time>
      </trkpt>
      <trkpt lat="44.31191" lon="2.62505">
        <ele>601.9226074</ele>
        <time>2014-07-25T06:26:44Z</time>
      </trkpt>
      <trkpt lat="44.31183" lon="2.62506">
        <ele>602.4030762</ele>
        <time>2014-07-25T06:26:49Z</time>
      </trkpt>
      <trkpt lat="44.3118" lon="2.62506">
        <ele>603.364502</ele>
        <time>2014-07-25T06:26:56Z</time>
      </trkpt>
      <trkpt lat="44.31179" lon="2.62507">
        <ele>603.8452148</ele>
        <time>2014-07-25T06:26:57Z</time>
      </trkpt>
      <trkpt lat="44.31171" lon="2.62513">
        <ele>603.8452148</ele>
        <time>2014-07-25T06:27:02Z</time>
      </trkpt>
      <trkpt lat="44.3116" lon="2.62517">
        <ele>603.8452148</ele>
        <time>2014-07-25T06:27:07Z</time>
      </trkpt>
      <trkpt lat="44.31145" lon="2.62519">
        <ele>604.8066406</ele>
        <time>2014-07-25T06:27:13Z</time>
      </trkpt>
      <trkpt lat="44.31142" lon="2.6252">
        <ele>604.8066406</ele>
        <time>2014-07-25T06:27:15Z</time>
      </trkpt>
      <trkpt lat="44.31141" lon="2.62522">
        <ele>603.8452148</ele>
        <time>2014-07-25T06:27:18Z</time>
      </trkpt>
      <trkpt lat="44.31133" lon="2.62525">
        <ele>602.8837891</ele>
        <time>2014-07-25T06:27:25Z</time>
      </trkpt>
      <trkpt lat="44.3113" lon="2.62526">
        <ele>603.364502</ele>
        <time>2014-07-25T06:27:27Z</time>
      </trkpt>
      <trkpt lat="44.31127" lon="2.62525">
        <ele>604.3261719</ele>
        <time>2014-07-25T06:27:33Z</time>
      </trkpt>
      <trkpt lat="44.31122" lon="2.62522">
        <ele>603.8452148</ele>
        <time>2014-07-25T06:27:40Z</time>
      </trkpt>
      <trkpt lat="44.31119" lon="2.6252">
        <ele>602.4030762</ele>
        <time>2014-07-25T06:27:45Z</time>
      </trkpt>
      <trkpt lat="44.31113" lon="2.62517">
        <ele>600.4807129</ele>
        <time>2014-07-25T06:27:50Z</time>
      </trkpt>
      <trkpt lat="44.31111" lon="2.62515">
        <ele>600.4807129</ele>
        <time>2014-07-25T06:27:51Z</time>
      </trkpt>
      <trkpt lat="44.311" lon="2.62506">
        <ele>600.9611816</ele>
        <time>2014-07-25T06:27:57Z</time>
      </trkpt>
      <trkpt lat="44.31091" lon="2.62494">
        <ele>602.8837891</ele>
        <time>2014-07-25T06:28:02Z</time>
      </trkpt>
      <trkpt lat="44.31088" lon="2.62483">
        <ele>604.8066406</ele>
        <time>2014-07-25T06:28:06Z</time>
      </trkpt>
      <trkpt lat="44.3109" lon="2.62476">
        <ele>603.364502</ele>
        <time>2014-07-25T06:28:10Z</time>
      </trkpt>
      <trkpt lat="44.31086" lon="2.62466">
        <ele>604.8066406</ele>
        <time>2014-07-25T06:28:15Z</time>
      </trkpt>
      <trkpt lat="44.31082" lon="2.62446">
        <ele>605.7680664</ele>
        <time>2014-07-25T06:28:22Z</time>
      </trkpt>
      <trkpt lat="44.31083" lon="2.62428">
        <ele>604.3261719</ele>
        <time>2014-07-25T06:28:28Z</time>
      </trkpt>
      <trkpt lat="44.31084" lon="2.62423">
        <ele>603.364502</ele>
        <time>2014-07-25T06:28:30Z</time>
      </trkpt>
      <trkpt lat="44.31088" lon="2.62412">
        <ele>602.4030762</ele>
        <time>2014-07-25T06:28:35Z</time>
      </trkpt>
      <trkpt lat="44.31093" lon="2.62407">
        <ele>602.4030762</ele>
        <time>2014-07-25T06:28:39Z</time>
      </trkpt>
      <trkpt lat="44.31098" lon="2.62395">
        <ele>603.364502</ele>
        <time>2014-07-25T06:28:46Z</time>
      </trkpt>
      <trkpt lat="44.31099" lon="2.62388">
        <ele>605.7680664</ele>
        <time>2014-07-25T06:28:49Z</time>
      </trkpt>
      <trkpt lat="44.31097" lon="2.62374">
        <ele>611.0551758</ele>
        <time>2014-07-25T06:28:56Z</time>
      </trkpt>
      <trkpt lat="44.31095" lon="2.62366">
        <ele>612.4970703</ele>
        <time>2014-07-25T06:29:00Z</time>
      </trkpt>
      <trkpt lat="44.31096" lon="2.62353">
        <ele>617.7841797</ele>
        <time>2014-07-25T06:29:06Z</time>
      </trkpt>
      <trkpt lat="44.31096" lon="2.62344">
        <ele>619.7070313</ele>
        <time>2014-07-25T06:29:10Z</time>
      </trkpt>
      <trkpt lat="44.31094" lon="2.62333">
        <ele>620.668457</ele>
        <time>2014-07-25T06:29:15Z</time>
      </trkpt>
      <trkpt lat="44.3109" lon="2.62319">
        <ele>622.5910645</ele>
        <time>2014-07-25T06:29:22Z</time>
      </trkpt>
      <trkpt lat="44.31089" lon="2.62314">
        <ele>623.0717773</ele>
        <time>2014-07-25T06:29:24Z</time>
      </trkpt>
      <trkpt lat="44.31086" lon="2.62302">
        <ele>622.5910645</ele>
        <time>2014-07-25T06:29:30Z</time>
      </trkpt>
      <trkpt lat="44.31083" lon="2.62292">
        <ele>623.5524902</ele>
        <time>2014-07-25T06:29:35Z</time>
      </trkpt>
      <trkpt lat="44.31083" lon="2.62287">
        <ele>624.032959</ele>
        <time>2014-07-25T06:29:37Z</time>
      </trkpt>
      <trkpt lat="44.31081" lon="2.62272">
        <ele>625.9555664</ele>
        <time>2014-07-25T06:29:43Z</time>
      </trkpt>
      <trkpt lat="44.3108" lon="2.62261">
        <ele>625.4748535</ele>
        <time>2014-07-25T06:29:47Z</time>
      </trkpt>
      <trkpt lat="44.31082" lon="2.62248">
        <ele>624.9943848</ele>
        <time>2014-07-25T06:29:52Z</time>
      </trkpt>
      <trkpt lat="44.31084" lon="2.62241">
        <ele>624.032959</ele>
        <time>2014-07-25T06:29:55Z</time>
      </trkpt>
      <trkpt lat="44.31088" lon="2.62231">
        <ele>623.5524902</ele>
        <time>2014-07-25T06:30:00Z</time>
      </trkpt>
      <trkpt lat="44.31089" lon="2.62228">
        <ele>623.5524902</ele>
        <time>2014-07-25T06:30:01Z</time>
      </trkpt>
      <trkpt lat="44.31095" lon="2.62218">
        <ele>624.032959</ele>
        <time>2014-07-25T06:30:06Z</time>
      </trkpt>
      <trkpt lat="44.311" lon="2.62208">
        <ele>624.9943848</ele>
        <time>2014-07-25T06:30:10Z</time>
      </trkpt>
      <trkpt lat="44.31108" lon="2.62197">
        <ele>625.4748535</ele>
        <time>2014-07-25T06:30:15Z</time>
      </trkpt>
      <trkpt lat="44.31111" lon="2.62184">
        <ele>625.9555664</ele>
        <time>2014-07-25T06:30:20Z</time>
      </trkpt>
      <trkpt lat="44.31112" lon="2.62178">
        <ele>626.9169922</ele>
        <time>2014-07-25T06:30:22Z</time>
      </trkpt>
      <trkpt lat="44.31114" lon="2.62165">
        <ele>629.3200684</ele>
        <time>2014-07-25T06:30:27Z</time>
      </trkpt>
      <trkpt lat="44.31118" lon="2.6215">
        <ele>630.762207</ele>
        <time>2014-07-25T06:30:32Z</time>
      </trkpt>
      <trkpt lat="44.3112" lon="2.6214">
        <ele>630.762207</ele>
        <time>2014-07-25T06:30:36Z</time>
      </trkpt>
      <trkpt lat="44.31121" lon="2.6213">
        <ele>631.2429199</ele>
        <time>2014-07-25T06:30:40Z</time>
      </trkpt>
      <trkpt lat="44.31119" lon="2.62113">
        <ele>632.2041016</ele>
        <time>2014-07-25T06:30:45Z</time>
      </trkpt>
      <trkpt lat="44.31119" lon="2.6211">
        <ele>632.6848145</ele>
        <time>2014-07-25T06:30:46Z</time>
      </trkpt>
      <trkpt lat="44.31117" lon="2.62094">
        <ele>634.6074219</ele>
        <time>2014-07-25T06:30:51Z</time>
      </trkpt>
      <trkpt lat="44.31116" lon="2.62084">
        <ele>635.0881348</ele>
        <time>2014-07-25T06:30:54Z</time>
      </trkpt>
      <trkpt lat="44.31116" lon="2.62079">
        <ele>635.0881348</ele>
        <time>2014-07-25T06:30:56Z</time>
      </trkpt>
      <trkpt lat="44.31112" lon="2.62065">
        <ele>636.0495605</ele>
        <time>2014-07-25T06:31:01Z</time>
      </trkpt>
      <trkpt lat="44.3111" lon="2.62055">
        <ele>637.0107422</ele>
        <time>2014-07-25T06:31:05Z</time>
      </trkpt>
      <trkpt lat="44.31109" lon="2.62043">
        <ele>637.972168</ele>
        <time>2014-07-25T06:31:09Z</time>
      </trkpt>
      <trkpt lat="44.31108" lon="2.62025">
        <ele>637.972168</ele>
        <time>2014-07-25T06:31:16Z</time>
      </trkpt>
      <trkpt lat="44.31107" lon="2.6201">
        <ele>638.4528809</ele>
        <time>2014-07-25T06:31:21Z</time>
      </trkpt>
      <trkpt lat="44.31106" lon="2.61997">
        <ele>638.9335938</ele>
        <time>2014-07-25T06:31:25Z</time>
      </trkpt>
      <trkpt lat="44.31105" lon="2.61983">
        <ele>639.4140625</ele>
        <time>2014-07-25T06:31:29Z</time>
      </trkpt>
      <trkpt lat="44.31103" lon="2.61966">
        <ele>640.855957</ele>
        <time>2014-07-25T06:31:35Z</time>
      </trkpt>
      <trkpt lat="44.31103" lon="2.61962">
        <ele>640.855957</ele>
        <time>2014-07-25T06:31:36Z</time>
      </trkpt>
      <trkpt lat="44.31101" lon="2.61949">
        <ele>641.8173828</ele>
        <time>2014-07-25T06:31:41Z</time>
      </trkpt>
      <trkpt lat="44.31099" lon="2.61942">
        <ele>642.7788086</ele>
        <time>2014-07-25T06:31:43Z</time>
      </trkpt>
      <trkpt lat="44.31095" lon="2.6193">
        <ele>643.7399902</ele>
        <time>2014-07-25T06:31:47Z</time>
      </trkpt>
      <trkpt lat="44.3109" lon="2.61918">
        <ele>645.1818848</ele>
        <time>2014-07-25T06:31:52Z</time>
      </trkpt>
      <trkpt lat="44.31086" lon="2.61913">
        <ele>645.1818848</ele>
        <time>2014-07-25T06:31:57Z</time>
      </trkpt>
      <trkpt lat="44.31081" lon="2.61911">
        <ele>643.7399902</ele>
        <time>2014-07-25T06:32:05Z</time>
      </trkpt>
      <trkpt lat="44.31081" lon="2.61909">
        <ele>643.2592773</ele>
        <time>2014-07-25T06:32:09Z</time>
      </trkpt>
      <trkpt lat="44.31076" lon="2.6191">
        <ele>643.2592773</ele>
        <time>2014-07-25T06:32:17Z</time>
      </trkpt>
      <trkpt lat="44.31066" lon="2.61911">
        <ele>643.2592773</ele>
        <time>2014-07-25T06:32:22Z</time>
      </trkpt>
      <trkpt lat="44.31054" lon="2.6191">
        <ele>644.2207031</ele>
        <time>2014-07-25T06:32:27Z</time>
      </trkpt>
      <trkpt lat="44.31042" lon="2.6191">
        <ele>646.1433105</ele>
        <time>2014-07-25T06:32:32Z</time>
      </trkpt>
      <trkpt lat="44.31039" lon="2.6191">
        <ele>646.1433105</ele>
        <time>2014-07-25T06:32:33Z</time>
      </trkpt>
      <trkpt lat="44.31025" lon="2.61911">
        <ele>647.1044922</ele>
        <time>2014-07-25T06:32:39Z</time>
      </trkpt>
      <trkpt lat="44.31016" lon="2.61911">
        <ele>647.1044922</ele>
        <time>2014-07-25T06:32:43Z</time>
      </trkpt>
      <trkpt lat="44.31005" lon="2.61908">
        <ele>648.5463867</ele>
        <time>2014-07-25T06:32:48Z</time>
      </trkpt>
      <trkpt lat="44.30998" lon="2.61907">
        <ele>649.0270996</ele>
        <time>2014-07-25T06:32:51Z</time>
      </trkpt>
      <trkpt lat="44.30986" lon="2.61906">
        <ele>650.4692383</ele>
        <time>2014-07-25T06:32:56Z</time>
      </trkpt>
      <trkpt lat="44.30977" lon="2.61906">
        <ele>651.4304199</ele>
        <time>2014-07-25T06:33:00Z</time>
      </trkpt>
      <trkpt lat="44.30975" lon="2.61906">
        <ele>651.9111328</ele>
        <time>2014-07-25T06:33:01Z</time>
      </trkpt>
      <trkpt lat="44.30961" lon="2.61906">
        <ele>652.3918457</ele>
        <time>2014-07-25T06:33:07Z</time>
      </trkpt>
      <trkpt lat="44.30949" lon="2.61907">
        <ele>652.8725586</ele>
        <time>2014-07-25T06:33:12Z</time>
      </trkpt>
      <trkpt lat="44.30928" lon="2.61908">
        <ele>654.795166</ele>
        <time>2014-07-25T06:33:21Z</time>
      </trkpt>
      <trkpt lat="44.30916" lon="2.61908">
        <ele>655.2758789</ele>
        <time>2014-07-25T06:33:26Z</time>
      </trkpt>
      <trkpt lat="44.30907" lon="2.61909">
        <ele>655.2758789</ele>
        <time>2014-07-25T06:33:30Z</time>
      </trkpt>
      <trkpt lat="44.30895" lon="2.6191">
        <ele>654.3146973</ele>
        <time>2014-07-25T06:33:35Z</time>
      </trkpt>
      <trkpt lat="44.30884" lon="2.61909">
        <ele>654.795166</ele>
        <time>2014-07-25T06:33:40Z</time>
      </trkpt>
      <trkpt lat="44.30865" lon="2.61908">
        <ele>654.3146973</ele>
        <time>2014-07-25T06:33:47Z</time>
      </trkpt>
      <trkpt lat="44.30851" lon="2.61907">
        <ele>653.3532715</ele>
        <time>2014-07-25T06:33:52Z</time>
      </trkpt>
      <trkpt lat="44.30837" lon="2.61907">
        <ele>652.8725586</ele>
        <time>2014-07-25T06:33:57Z</time>
      </trkpt>
      <trkpt lat="44.30825" lon="2.61914">
        <ele>651.9111328</ele>
        <time>2014-07-25T06:34:02Z</time>
      </trkpt>
      <trkpt lat="44.30815" lon="2.61919">
        <ele>651.4304199</ele>
        <time>2014-07-25T06:34:06Z</time>
      </trkpt>
      <trkpt lat="44.30801" lon="2.61924">
        <ele>651.9111328</ele>
        <time>2014-07-25T06:34:11Z</time>
      </trkpt>
      <trkpt lat="44.30787" lon="2.61929">
        <ele>651.9111328</ele>
        <time>2014-07-25T06:34:16Z</time>
      </trkpt>
      <trkpt lat="44.30774" lon="2.61933">
        <ele>651.9111328</ele>
        <time>2014-07-25T06:34:21Z</time>
      </trkpt>
      <trkpt lat="44.30761" lon="2.61937">
        <ele>652.3918457</ele>
        <time>2014-07-25T06:34:26Z</time>
      </trkpt>
      <trkpt lat="44.3075" lon="2.61941">
        <ele>652.8725586</ele>
        <time>2014-07-25T06:34:30Z</time>
      </trkpt>
      <trkpt lat="44.30737" lon="2.61945">
        <ele>652.3918457</ele>
        <time>2014-07-25T06:34:35Z</time>
      </trkpt>
      <trkpt lat="44.30727" lon="2.61949">
        <ele>652.3918457</ele>
        <time>2014-07-25T06:34:39Z</time>
      </trkpt>
      <trkpt lat="44.30725" lon="2.61949">
        <ele>652.8725586</ele>
        <time>2014-07-25T06:34:40Z</time>
      </trkpt>
      <trkpt lat="44.30712" lon="2.61956">
        <ele>651.9111328</ele>
        <time>2014-07-25T06:34:45Z</time>
      </trkpt>
      <trkpt lat="44.30704" lon="2.61961">
        <ele>652.3918457</ele>
        <time>2014-07-25T06:34:48Z</time>
      </trkpt>
      <trkpt lat="44.30689" lon="2.61968">
        <ele>651.9111328</ele>
        <time>2014-07-25T06:34:54Z</time>
      </trkpt>
      <trkpt lat="44.30684" lon="2.6197">
        <ele>651.9111328</ele>
        <time>2014-07-25T06:34:56Z</time>
      </trkpt>
      <trkpt lat="44.30676" lon="2.61974">
        <ele>654.3146973</ele>
        <time>2014-07-25T06:35:00Z</time>
      </trkpt>
      <trkpt lat="44.30662" lon="2.61977">
        <ele>654.3146973</ele>
        <time>2014-07-25T06:35:05Z</time>
      </trkpt>
      <trkpt lat="44.30647" lon="2.61979">
        <ele>653.3532715</ele>
        <time>2014-07-25T06:35:10Z</time>
      </trkpt>
      <trkpt lat="44.30633" lon="2.61978">
        <ele>652.3918457</ele>
        <time>2014-07-25T06:35:15Z</time>
      </trkpt>
      <trkpt lat="44.30624" lon="2.61974">
        <ele>651.9111328</ele>
        <time>2014-07-25T06:35:18Z</time>
      </trkpt>
      <trkpt lat="44.3061" lon="2.61975">
        <ele>651.4304199</ele>
        <time>2014-07-25T06:35:23Z</time>
      </trkpt>
      <trkpt lat="44.30599" lon="2.61976">
        <ele>650.4692383</ele>
        <time>2014-07-25T06:35:27Z</time>
      </trkpt>
      <trkpt lat="44.30582" lon="2.61968">
        <ele>649.0270996</ele>
        <time>2014-07-25T06:35:34Z</time>
      </trkpt>
      <trkpt lat="44.30576" lon="2.6196">
        <ele>648.065918</ele>
        <time>2014-07-25T06:35:37Z</time>
      </trkpt>
      <trkpt lat="44.30572" lon="2.61949">
        <ele>648.065918</ele>
        <time>2014-07-25T06:35:41Z</time>
      </trkpt>
      <trkpt lat="44.30565" lon="2.61933">
        <ele>648.5463867</ele>
        <time>2014-07-25T06:35:46Z</time>
      </trkpt>
      <trkpt lat="44.30559" lon="2.61922">
        <ele>648.5463867</ele>
        <time>2014-07-25T06:35:50Z</time>
      </trkpt>
      <trkpt lat="44.30552" lon="2.61908">
        <ele>649.0270996</ele>
        <time>2014-07-25T06:35:55Z</time>
      </trkpt>
      <trkpt lat="44.30543" lon="2.61889">
        <ele>648.5463867</ele>
        <time>2014-07-25T06:36:01Z</time>
      </trkpt>
      <trkpt lat="44.30537" lon="2.61876">
        <ele>649.5078125</ele>
        <time>2014-07-25T06:36:05Z</time>
      </trkpt>
      <trkpt lat="44.30534" lon="2.61867">
        <ele>649.5078125</ele>
        <time>2014-07-25T06:36:08Z</time>
      </trkpt>
      <trkpt lat="44.3053" lon="2.61853">
        <ele>650.4692383</ele>
        <time>2014-07-25T06:36:12Z</time>
      </trkpt>
      <trkpt lat="44.30532" lon="2.61845">
        <ele>650.4692383</ele>
        <time>2014-07-25T06:36:15Z</time>
      </trkpt>
      <trkpt lat="44.30538" lon="2.61838">
        <ele>649.5078125</ele>
        <time>2014-07-25T06:36:18Z</time>
      </trkpt>
      <trkpt lat="44.30548" lon="2.61826">
        <ele>647.1044922</ele>
        <time>2014-07-25T06:36:23Z</time>
      </trkpt>
      <trkpt lat="44.30558" lon="2.61814">
        <ele>645.1818848</ele>
        <time>2014-07-25T06:36:28Z</time>
      </trkpt>
      <trkpt lat="44.30571" lon="2.618">
        <ele>642.2980957</ele>
        <time>2014-07-25T06:36:34Z</time>
      </trkpt>
      <trkpt lat="44.3058" lon="2.61789">
        <ele>640.3754883</ele>
        <time>2014-07-25T06:36:39Z</time>
      </trkpt>
      <trkpt lat="44.30589" lon="2.6178">
        <ele>638.4528809</ele>
        <time>2014-07-25T06:36:43Z</time>
      </trkpt>
      <trkpt lat="44.30598" lon="2.61768">
        <ele>637.4914551</ele>
        <time>2014-07-25T06:36:48Z</time>
      </trkpt>
      <trkpt lat="44.30609" lon="2.61755">
        <ele>636.0495605</ele>
        <time>2014-07-25T06:36:54Z</time>
      </trkpt>
      <trkpt lat="44.30619" lon="2.61743">
        <ele>635.5686035</ele>
        <time>2014-07-25T06:36:59Z</time>
      </trkpt>
      <trkpt lat="44.30628" lon="2.61731">
        <ele>635.5686035</ele>
        <time>2014-07-25T06:37:04Z</time>
      </trkpt>
      <trkpt lat="44.30638" lon="2.61718">
        <ele>635.0881348</ele>
        <time>2014-07-25T06:37:09Z</time>
      </trkpt>
      <trkpt lat="44.30647" lon="2.61706">
        <ele>635.0881348</ele>
        <time>2014-07-25T06:37:14Z</time>
      </trkpt>
      <trkpt lat="44.30657" lon="2.61692">
        <ele>636.0495605</ele>
        <time>2014-07-25T06:37:20Z</time>
      </trkpt>
      <trkpt lat="44.30665" lon="2.61679">
        <ele>637.972168</ele>
        <time>2014-07-25T06:37:25Z</time>
      </trkpt>
      <trkpt lat="44.30674" lon="2.61665">
        <ele>638.4528809</ele>
        <time>2014-07-25T06:37:30Z</time>
      </trkpt>
      <trkpt lat="44.30683" lon="2.61647">
        <ele>636.0495605</ele>
        <time>2014-07-25T06:37:36Z</time>
      </trkpt>
      <trkpt lat="44.30689" lon="2.61635">
        <ele>634.126709</ele>
        <time>2014-07-25T06:37:40Z</time>
      </trkpt>
      <trkpt lat="44.30696" lon="2.6162">
        <ele>632.6848145</ele>
        <time>2014-07-25T06:37:45Z</time>
      </trkpt>
      <trkpt lat="44.30702" lon="2.61607">
        <ele>632.6848145</ele>
        <time>2014-07-25T06:37:50Z</time>
      </trkpt>
      <trkpt lat="44.3071" lon="2.61599">
        <ele>633.1652832</ele>
        <time>2014-07-25T06:37:54Z</time>
      </trkpt>
      <trkpt lat="44.30721" lon="2.61588">
        <ele>632.6848145</ele>
        <time>2014-07-25T06:38:00Z</time>
      </trkpt>
      <trkpt lat="44.30734" lon="2.61573">
        <ele>632.6848145</ele>
        <time>2014-07-25T06:38:06Z</time>
      </trkpt>
      <trkpt lat="44.30743" lon="2.61558">
        <ele>632.2041016</ele>
        <time>2014-07-25T06:38:12Z</time>
      </trkpt>
      <trkpt lat="44.30746" lon="2.6155">
        <ele>631.7233887</ele>
        <time>2014-07-25T06:38:16Z</time>
      </trkpt>
      <trkpt lat="44.30752" lon="2.61535">
        <ele>631.7233887</ele>
        <time>2014-07-25T06:38:21Z</time>
      </trkpt>
      <trkpt lat="44.30761" lon="2.6152">
        <ele>632.2041016</ele>
        <time>2014-07-25T06:38:27Z</time>
      </trkpt>
      <trkpt lat="44.30772" lon="2.61504">
        <ele>632.2041016</ele>
        <time>2014-07-25T06:38:34Z</time>
      </trkpt>
      <trkpt lat="44.30783" lon="2.61493">
        <ele>632.6848145</ele>
        <time>2014-07-25T06:38:40Z</time>
      </trkpt>
      <trkpt lat="44.30791" lon="2.61484">
        <ele>634.126709</ele>
        <time>2014-07-25T06:38:45Z</time>
      </trkpt>
      <trkpt lat="44.30801" lon="2.61477">
        <ele>635.5686035</ele>
        <time>2014-07-25T06:38:50Z</time>
      </trkpt>
      <trkpt lat="44.3081" lon="2.61469">
        <ele>636.0495605</ele>
        <time>2014-07-25T06:38:55Z</time>
      </trkpt>
      <trkpt lat="44.30821" lon="2.61459">
        <ele>636.0495605</ele>
        <time>2014-07-25T06:39:01Z</time>
      </trkpt>
      <trkpt lat="44.3083" lon="2.61448">
        <ele>637.0107422</ele>
        <time>2014-07-25T06:39:07Z</time>
      </trkpt>
      <trkpt lat="44.30835" lon="2.6144">
        <ele>636.5302734</ele>
        <time>2014-07-25T06:39:13Z</time>
      </trkpt>
      <trkpt lat="44.30842" lon="2.61432">
        <ele>635.5686035</ele>
        <time>2014-07-25T06:39:18Z</time>
      </trkpt>
      <trkpt lat="44.30845" lon="2.61428">
        <ele>635.0881348</ele>
        <time>2014-07-25T06:39:20Z</time>
      </trkpt>
      <trkpt lat="44.30854" lon="2.61419">
        <ele>633.1652832</ele>
        <time>2014-07-25T06:39:25Z</time>
      </trkpt>
      <trkpt lat="44.30861" lon="2.61414">
        <ele>632.2041016</ele>
        <time>2014-07-25T06:39:29Z</time>
      </trkpt>
      <trkpt lat="44.30871" lon="2.61404">
        <ele>631.2429199</ele>
        <time>2014-07-25T06:39:35Z</time>
      </trkpt>
      <trkpt lat="44.30879" lon="2.61393">
        <ele>629.8007813</ele>
        <time>2014-07-25T06:39:41Z</time>
      </trkpt>
      <trkpt lat="44.30888" lon="2.61384">
        <ele>629.8007813</ele>
        <time>2014-07-25T06:39:46Z</time>
      </trkpt>
      <trkpt lat="44.30896" lon="2.61376">
        <ele>630.762207</ele>
        <time>2014-07-25T06:39:51Z</time>
      </trkpt>
      <trkpt lat="44.309" lon="2.61371">
        <ele>630.2814941</ele>
        <time>2014-07-25T06:39:55Z</time>
      </trkpt>
      <trkpt lat="44.30911" lon="2.61357">
        <ele>625.9555664</ele>
        <time>2014-07-25T06:40:02Z</time>
      </trkpt>
      <trkpt lat="44.30922" lon="2.61341">
        <ele>624.032959</ele>
        <time>2014-07-25T06:40:09Z</time>
      </trkpt>
      <trkpt lat="44.30924" lon="2.61339">
        <ele>623.5524902</ele>
        <time>2014-07-25T06:40:10Z</time>
      </trkpt>
      <trkpt lat="44.30941" lon="2.61327">
        <ele>625.4748535</ele>
        <time>2014-07-25T06:40:17Z</time>
      </trkpt>
      <trkpt lat="44.30952" lon="2.61317">
        <ele>626.9169922</ele>
        <time>2014-07-25T06:40:22Z</time>
      </trkpt>
      <trkpt lat="44.30963" lon="2.61308">
        <ele>629.3200684</ele>
        <time>2014-07-25T06:40:27Z</time>
      </trkpt>
      <trkpt lat="44.30975" lon="2.61297">
        <ele>630.762207</ele>
        <time>2014-07-25T06:40:33Z</time>
      </trkpt>
      <trkpt lat="44.30987" lon="2.61285">
        <ele>634.126709</ele>
        <time>2014-07-25T06:40:39Z</time>
      </trkpt>
      <trkpt lat="44.30995" lon="2.61279">
        <ele>634.6074219</ele>
        <time>2014-07-25T06:40:43Z</time>
      </trkpt>
      <trkpt lat="44.31006" lon="2.61271">
        <ele>636.0495605</ele>
        <time>2014-07-25T06:40:48Z</time>
      </trkpt>
      <trkpt lat="44.31018" lon="2.61262">
        <ele>635.5686035</ele>
        <time>2014-07-25T06:40:52Z</time>
      </trkpt>
      <trkpt lat="44.31024" lon="2.61257">
        <ele>634.6074219</ele>
        <time>2014-07-25T06:40:55Z</time>
      </trkpt>
      <trkpt lat="44.31033" lon="2.61251">
        <ele>635.5686035</ele>
        <time>2014-07-25T06:41:00Z</time>
      </trkpt>
      <trkpt lat="44.31041" lon="2.61246">
        <ele>636.0495605</ele>
        <time>2014-07-25T06:41:04Z</time>
      </trkpt>
      <trkpt lat="44.31051" lon="2.6124">
        <ele>636.5302734</ele>
        <time>2014-07-25T06:41:09Z</time>
      </trkpt>
      <trkpt lat="44.31059" lon="2.6123">
        <ele>635.5686035</ele>
        <time>2014-07-25T06:41:13Z</time>
      </trkpt>
      <trkpt lat="44.31068" lon="2.61216">
        <ele>634.126709</ele>
        <time>2014-07-25T06:41:18Z</time>
      </trkpt>
      <trkpt lat="44.3107" lon="2.61213">
        <ele>633.6459961</ele>
        <time>2014-07-25T06:41:19Z</time>
      </trkpt>
      <trkpt lat="44.31075" lon="2.61201">
        <ele>632.6848145</ele>
        <time>2014-07-25T06:41:23Z</time>
      </trkpt>
      <trkpt lat="44.31082" lon="2.61184">
        <ele>631.7233887</ele>
        <time>2014-07-25T06:41:29Z</time>
      </trkpt>
      <trkpt lat="44.31087" lon="2.61175">
        <ele>631.7233887</ele>
        <time>2014-07-25T06:41:32Z</time>
      </trkpt>
      <trkpt lat="44.31092" lon="2.61163">
        <ele>632.2041016</ele>
        <time>2014-07-25T06:41:36Z</time>
      </trkpt>
      <trkpt lat="44.31094" lon="2.61161">
        <ele>632.2041016</ele>
        <time>2014-07-25T06:41:37Z</time>
      </trkpt>
      <trkpt lat="44.31099" lon="2.61153">
        <ele>632.2041016</ele>
        <time>2014-07-25T06:41:40Z</time>
      </trkpt>
      <trkpt lat="44.31113" lon="2.61145">
        <ele>631.7233887</ele>
        <time>2014-07-25T06:41:47Z</time>
      </trkpt>
      <trkpt lat="44.31126" lon="2.61144">
        <ele>632.2041016</ele>
        <time>2014-07-25T06:41:52Z</time>
      </trkpt>
      <trkpt lat="44.31138" lon="2.61144">
        <ele>632.2041016</ele>
        <time>2014-07-25T06:41:56Z</time>
      </trkpt>
      <trkpt lat="44.31149" lon="2.61146">
        <ele>632.6848145</ele>
        <time>2014-07-25T06:42:00Z</time>
      </trkpt>
      <trkpt lat="44.31166" lon="2.61149">
        <ele>631.7233887</ele>
        <time>2014-07-25T06:42:06Z</time>
      </trkpt>
      <trkpt lat="44.3118" lon="2.61148">
        <ele>629.8007813</ele>
        <time>2014-07-25T06:42:11Z</time>
      </trkpt>
      <trkpt lat="44.31182" lon="2.61148">
        <ele>629.8007813</ele>
        <time>2014-07-25T06:42:12Z</time>
      </trkpt>
      <trkpt lat="44.31194" lon="2.6114">
        <ele>627.8781738</ele>
        <time>2014-07-25T06:42:17Z</time>
      </trkpt>
      <trkpt lat="44.31198" lon="2.61139">
        <ele>627.3977051</ele>
        <time>2014-07-25T06:42:19Z</time>
      </trkpt>
      <trkpt lat="44.31214" lon="2.61138">
        <ele>624.032959</ele>
        <time>2014-07-25T06:42:25Z</time>
      </trkpt>
      <trkpt lat="44.31224" lon="2.61135">
        <ele>623.5524902</ele>
        <time>2014-07-25T06:42:29Z</time>
      </trkpt>
      <trkpt lat="44.31242" lon="2.6113">
        <ele>620.1877441</ele>
        <time>2014-07-25T06:42:36Z</time>
      </trkpt>
      <trkpt lat="44.31256" lon="2.61129">
        <ele>618.7456055</ele>
        <time>2014-07-25T06:42:41Z</time>
      </trkpt>
      <trkpt lat="44.31269" lon="2.61127">
        <ele>617.7841797</ele>
        <time>2014-07-25T06:42:46Z</time>
      </trkpt>
      <trkpt lat="44.31282" lon="2.61124">
        <ele>616.3422852</ele>
        <time>2014-07-25T06:42:51Z</time>
      </trkpt>
      <trkpt lat="44.31296" lon="2.61122">
        <ele>616.3422852</ele>
        <time>2014-07-25T06:42:56Z</time>
      </trkpt>
      <trkpt lat="44.3131" lon="2.61118">
        <ele>615.8618164</ele>
        <time>2014-07-25T06:43:01Z</time>
      </trkpt>
      <trkpt lat="44.31323" lon="2.61114">
        <ele>614.4196777</ele>
        <time>2014-07-25T06:43:06Z</time>
      </trkpt>
      <trkpt lat="44.31343" lon="2.61107">
        <ele>610.5744629</ele>
        <time>2014-07-25T06:43:14Z</time>
      </trkpt>
      <trkpt lat="44.31356" lon="2.61102">
        <ele>609.1325684</ele>
        <time>2014-07-25T06:43:19Z</time>
      </trkpt>
      <trkpt lat="44.3137" lon="2.61099">
        <ele>608.1713867</ele>
        <time>2014-07-25T06:43:24Z</time>
      </trkpt>
      <trkpt lat="44.31381" lon="2.61095">
        <ele>607.2099609</ele>
        <time>2014-07-25T06:43:29Z</time>
      </trkpt>
      <trkpt lat="44.31391" lon="2.61091">
        <ele>604.8066406</ele>
        <time>2014-07-25T06:43:34Z</time>
      </trkpt>
      <trkpt lat="44.31393" lon="2.6109">
        <ele>604.3261719</ele>
        <time>2014-07-25T06:43:36Z</time>
      </trkpt>
      <trkpt lat="44.31396" lon="2.61086">
        <ele>603.364502</ele>
        <time>2014-07-25T06:43:40Z</time>
      </trkpt>
      <trkpt lat="44.31397" lon="2.61083">
        <ele>603.364502</ele>
        <time>2014-07-25T06:43:42Z</time>
      </trkpt>
      <trkpt lat="44.31397" lon="2.61074">
        <ele>603.8452148</ele>
        <time>2014-07-25T06:43:46Z</time>
      </trkpt>
      <trkpt lat="44.31396" lon="2.61068">
        <ele>605.2873535</ele>
        <time>2014-07-25T06:43:50Z</time>
      </trkpt>
      <trkpt lat="44.31397" lon="2.61066">
        <ele>606.729248</ele>
        <time>2014-07-25T06:44:00Z</time>
      </trkpt>
      <trkpt lat="44.31397" lon="2.61064">
        <ele>607.6906738</ele>
        <time>2014-07-25T06:44:06Z</time>
      </trkpt>
      <trkpt lat="44.31397" lon="2.61064">
        <ele>607.6906738</ele>
        <time>2014-07-25T06:44:16Z</time>
      </trkpt>
      <trkpt lat="44.31396" lon="2.61064">
        <ele>607.6906738</ele>
        <time>2014-07-25T06:44:29Z</time>
      </trkpt>
      <trkpt lat="44.31395" lon="2.6106">
        <ele>607.6906738</ele>
        <time>2014-07-25T06:44:45Z</time>
      </trkpt>
      <trkpt lat="44.31391" lon="2.6105">
        <ele>607.2099609</ele>
        <time>2014-07-25T06:44:51Z</time>
      </trkpt>
      <trkpt lat="44.31386" lon="2.61033">
        <ele>607.6906738</ele>
        <time>2014-07-25T06:44:57Z</time>
      </trkpt>
      <trkpt lat="44.31381" lon="2.61016">
        <ele>608.6518555</ele>
        <time>2014-07-25T06:45:02Z</time>
      </trkpt>
      <trkpt lat="44.31379" lon="2.61">
        <ele>609.6132813</ele>
        <time>2014-07-25T06:45:07Z</time>
      </trkpt>
      <trkpt lat="44.31374" lon="2.60984">
        <ele>610.5744629</ele>
        <time>2014-07-25T06:45:12Z</time>
      </trkpt>
      <trkpt lat="44.31367" lon="2.6096">
        <ele>612.4970703</ele>
        <time>2014-07-25T06:45:18Z</time>
      </trkpt>
      <trkpt lat="44.31369" lon="2.60949">
        <ele>613.4584961</ele>
        <time>2014-07-25T06:45:21Z</time>
      </trkpt>
      <trkpt lat="44.31368" lon="2.6094">
        <ele>614.4196777</ele>
        <time>2014-07-25T06:45:24Z</time>
      </trkpt>
      <trkpt lat="44.31366" lon="2.60921">
        <ele>614.9003906</ele>
        <time>2014-07-25T06:45:30Z</time>
      </trkpt>
      <trkpt lat="44.31364" lon="2.60909">
        <ele>614.4196777</ele>
        <time>2014-07-25T06:45:34Z</time>
      </trkpt>
      <trkpt lat="44.31362" lon="2.60896">
        <ele>613.9389648</ele>
        <time>2014-07-25T06:45:38Z</time>
      </trkpt>
      <trkpt lat="44.3136" lon="2.60887">
        <ele>613.9389648</ele>
        <time>2014-07-25T06:45:41Z</time>
      </trkpt>
      <trkpt lat="44.31354" lon="2.60865">
        <ele>614.9003906</ele>
        <time>2014-07-25T06:45:46Z</time>
      </trkpt>
      <trkpt lat="44.31354" lon="2.60862">
        <ele>614.9003906</ele>
        <time>2014-07-25T06:45:47Z</time>
      </trkpt>
      <trkpt lat="44.31352" lon="2.60843">
        <ele>615.8618164</ele>
        <time>2014-07-25T06:45:52Z</time>
      </trkpt>
      <trkpt lat="44.31348" lon="2.60827">
        <ele>616.3422852</ele>
        <time>2014-07-25T06:45:56Z</time>
      </trkpt>
      <trkpt lat="44.31348" lon="2.60824">
        <ele>616.3422852</ele>
        <time>2014-07-25T06:45:57Z</time>
      </trkpt>
      <trkpt lat="44.31345" lon="2.60811">
        <ele>617.7841797</ele>
        <time>2014-07-25T06:46:02Z</time>
      </trkpt>
      <trkpt lat="44.31343" lon="2.60803">
        <ele>617.7841797</ele>
        <time>2014-07-25T06:46:05Z</time>
      </trkpt>
      <trkpt lat="44.31353" lon="2.60803">
        <ele>617.3037109</ele>
        <time>2014-07-25T06:46:08Z</time>
      </trkpt>
      <trkpt lat="44.31365" lon="2.60806">
        <ele>617.3037109</ele>
        <time>2014-07-25T06:46:11Z</time>
      </trkpt>
      <trkpt lat="44.31376" lon="2.60805">
        <ele>615.8618164</ele>
        <time>2014-07-25T06:46:16Z</time>
      </trkpt>
      <trkpt lat="44.31384" lon="2.60797">
        <ele>613.4584961</ele>
        <time>2014-07-25T06:46:20Z</time>
      </trkpt>
      <trkpt lat="44.31394" lon="2.60782">
        <ele>609.6132813</ele>
        <time>2014-07-25T06:46:25Z</time>
      </trkpt>
      <trkpt lat="44.31403" lon="2.60767">
        <ele>607.2099609</ele>
        <time>2014-07-25T06:46:30Z</time>
      </trkpt>
      <trkpt lat="44.31413" lon="2.60749">
        <ele>605.7680664</ele>
        <time>2014-07-25T06:46:36Z</time>
      </trkpt>
      <trkpt lat="44.3142" lon="2.60734">
        <ele>604.3261719</ele>
        <time>2014-07-25T06:46:41Z</time>
      </trkpt>
      <trkpt lat="44.31429" lon="2.60718">
        <ele>602.4030762</ele>
        <time>2014-07-25T06:46:46Z</time>
      </trkpt>
      <trkpt lat="44.31437" lon="2.60703">
        <ele>600</ele>
        <time>2014-07-25T06:46:51Z</time>
      </trkpt>
      <trkpt lat="44.31445" lon="2.60689">
        <ele>598.0773926</ele>
        <time>2014-07-25T06:46:56Z</time>
      </trkpt>
      <trkpt lat="44.31454" lon="2.60675">
        <ele>598.5578613</ele>
        <time>2014-07-25T06:47:01Z</time>
      </trkpt>
      <trkpt lat="44.31464" lon="2.60663">
        <ele>597.1159668</ele>
        <time>2014-07-25T06:47:06Z</time>
      </trkpt>
      <trkpt lat="44.31477" lon="2.60645">
        <ele>594.2321777</ele>
        <time>2014-07-25T06:47:12Z</time>
      </trkpt>
      <trkpt lat="44.31482" lon="2.60635">
        <ele>592.3095703</ele>
        <time>2014-07-25T06:47:16Z</time>
      </trkpt>
      <trkpt lat="44.31489" lon="2.60618">
        <ele>590.3869629</ele>
        <time>2014-07-25T06:47:22Z</time>
      </trkpt>
      <trkpt lat="44.3149" lon="2.60615">
        <ele>589.90625</ele>
        <time>2014-07-25T06:47:23Z</time>
      </trkpt>
      <trkpt lat="44.31499" lon="2.60599">
        <ele>587.5026855</ele>
        <time>2014-07-25T06:47:29Z</time>
      </trkpt>
      <trkpt lat="44.31504" lon="2.60588">
        <ele>586.5415039</ele>
        <time>2014-07-25T06:47:33Z</time>
      </trkpt>
      <trkpt lat="44.31508" lon="2.6058">
        <ele>587.0219727</ele>
        <time>2014-07-25T06:47:38Z</time>
      </trkpt>
      <trkpt lat="44.31513" lon="2.60578">
        <ele>585.5800781</ele>
        <time>2014-07-25T06:47:44Z</time>
      </trkpt>
      <trkpt lat="44.31515" lon="2.60579">
        <ele>585.0996094</ele>
        <time>2014-07-25T06:47:46Z</time>
      </trkpt>
      <trkpt lat="44.31517" lon="2.60578">
        <ele>583.1767578</ele>
        <time>2014-07-25T06:47:50Z</time>
      </trkpt>
      <trkpt lat="44.31528" lon="2.60573">
        <ele>582.2155762</ele>
        <time>2014-07-25T06:47:56Z</time>
      </trkpt>
      <trkpt lat="44.31542" lon="2.60565">
        <ele>583.1767578</ele>
        <time>2014-07-25T06:48:02Z</time>
      </trkpt>
      <trkpt lat="44.31544" lon="2.60563">
        <ele>582.6962891</ele>
        <time>2014-07-25T06:48:03Z</time>
      </trkpt>
      <trkpt lat="44.31555" lon="2.60552">
        <ele>583.6574707</ele>
        <time>2014-07-25T06:48:08Z</time>
      </trkpt>
      <trkpt lat="44.3156" lon="2.60543">
        <ele>585.5800781</ele>
        <time>2014-07-25T06:48:12Z</time>
      </trkpt>
      <trkpt lat="44.31571" lon="2.60532">
        <ele>585.0996094</ele>
        <time>2014-07-25T06:48:17Z</time>
      </trkpt>
      <trkpt lat="44.31578" lon="2.6052">
        <ele>584.6188965</ele>
        <time>2014-07-25T06:48:22Z</time>
      </trkpt>
      <trkpt lat="44.31585" lon="2.6051">
        <ele>585.5800781</ele>
        <time>2014-07-25T06:48:26Z</time>
      </trkpt>
      <trkpt lat="44.31592" lon="2.60499">
        <ele>586.5415039</ele>
        <time>2014-07-25T06:48:31Z</time>
      </trkpt>
      <trkpt lat="44.31599" lon="2.60488">
        <ele>587.9833984</ele>
        <time>2014-07-25T06:48:35Z</time>
      </trkpt>
      <trkpt lat="44.31603" lon="2.60481">
        <ele>587.5026855</ele>
        <time>2014-07-25T06:48:39Z</time>
      </trkpt>
      <trkpt lat="44.31608" lon="2.60471">
        <ele>587.5026855</ele>
        <time>2014-07-25T06:48:43Z</time>
      </trkpt>
      <trkpt lat="44.31615" lon="2.6046">
        <ele>587.9833984</ele>
        <time>2014-07-25T06:48:48Z</time>
      </trkpt>
      <trkpt lat="44.31624" lon="2.6045">
        <ele>588.9450684</ele>
        <time>2014-07-25T06:48:53Z</time>
      </trkpt>
      <trkpt lat="44.31636" lon="2.60439">
        <ele>590.8674316</ele>
        <time>2014-07-25T06:48:59Z</time>
      </trkpt>
      <trkpt lat="44.31638" lon="2.60437">
        <ele>590.3869629</ele>
        <time>2014-07-25T06:49:00Z</time>
      </trkpt>
      <trkpt lat="44.31648" lon="2.60426">
        <ele>592.3095703</ele>
        <time>2014-07-25T06:49:06Z</time>
      </trkpt>
      <trkpt lat="44.3165" lon="2.60424">
        <ele>592.3095703</ele>
        <time>2014-07-25T06:49:07Z</time>
      </trkpt>
      <trkpt lat="44.31661" lon="2.60414">
        <ele>591.8288574</ele>
        <time>2014-07-25T06:49:13Z</time>
      </trkpt>
      <trkpt lat="44.31671" lon="2.60408">
        <ele>590.8674316</ele>
        <time>2014-07-25T06:49:18Z</time>
      </trkpt>
      <trkpt lat="44.31673" lon="2.60407">
        <ele>591.3481445</ele>
        <time>2014-07-25T06:49:19Z</time>
      </trkpt>
      <trkpt lat="44.31682" lon="2.60399">
        <ele>590.3869629</ele>
        <time>2014-07-25T06:49:24Z</time>
      </trkpt>
      <trkpt lat="44.31691" lon="2.6039">
        <ele>591.8288574</ele>
        <time>2014-07-25T06:49:29Z</time>
      </trkpt>
      <trkpt lat="44.31697" lon="2.60383">
        <ele>590.3869629</ele>
        <time>2014-07-25T06:49:32Z</time>
      </trkpt>
      <trkpt lat="44.31705" lon="2.60375">
        <ele>590.8674316</ele>
        <time>2014-07-25T06:49:35Z</time>
      </trkpt>
      <trkpt lat="44.31714" lon="2.60363">
        <ele>590.3869629</ele>
        <time>2014-07-25T06:49:41Z</time>
      </trkpt>
      <trkpt lat="44.31721" lon="2.60354">
        <ele>593.270752</ele>
        <time>2014-07-25T06:49:45Z</time>
      </trkpt>
      <trkpt lat="44.31732" lon="2.60342">
        <ele>596.635498</ele>
        <time>2014-07-25T06:49:51Z</time>
      </trkpt>
      <trkpt lat="44.31737" lon="2.60334">
        <ele>595.6740723</ele>
        <time>2014-07-25T06:49:55Z</time>
      </trkpt>
      <trkpt lat="44.31745" lon="2.60324">
        <ele>596.1547852</ele>
        <time>2014-07-25T06:50:00Z</time>
      </trkpt>
      <trkpt lat="44.31746" lon="2.60323">
        <ele>595.6740723</ele>
        <time>2014-07-25T06:50:01Z</time>
      </trkpt>
      <trkpt lat="44.31757" lon="2.60307">
        <ele>593.270752</ele>
        <time>2014-07-25T06:50:08Z</time>
      </trkpt>
      <trkpt lat="44.31763" lon="2.60299">
        <ele>592.7902832</ele>
        <time>2014-07-25T06:50:12Z</time>
      </trkpt>
      <trkpt lat="44.31771" lon="2.60285">
        <ele>592.3095703</ele>
        <time>2014-07-25T06:50:17Z</time>
      </trkpt>
      <trkpt lat="44.31779" lon="2.60275">
        <ele>593.270752</ele>
        <time>2014-07-25T06:50:22Z</time>
      </trkpt>
      <trkpt lat="44.31787" lon="2.60263">
        <ele>595.6740723</ele>
        <time>2014-07-25T06:50:27Z</time>
      </trkpt>
      <trkpt lat="44.31794" lon="2.60253">
        <ele>597.5966797</ele>
        <time>2014-07-25T06:50:31Z</time>
      </trkpt>
      <trkpt lat="44.31802" lon="2.60241">
        <ele>600.9611816</ele>
        <time>2014-07-25T06:50:36Z</time>
      </trkpt>
      <trkpt lat="44.31804" lon="2.60239">
        <ele>601.4418945</ele>
        <time>2014-07-25T06:50:37Z</time>
      </trkpt>
      <trkpt lat="44.31813" lon="2.60224">
        <ele>602.8837891</ele>
        <time>2014-07-25T06:50:43Z</time>
      </trkpt>
      <trkpt lat="44.31824" lon="2.60207">
        <ele>602.4030762</ele>
        <time>2014-07-25T06:50:50Z</time>
      </trkpt>
      <trkpt lat="44.31832" lon="2.60197">
        <ele>601.9226074</ele>
        <time>2014-07-25T06:50:55Z</time>
      </trkpt>
      <trkpt lat="44.31842" lon="2.60186">
        <ele>600.4807129</ele>
        <time>2014-07-25T06:51:01Z</time>
      </trkpt>
      <trkpt lat="44.31852" lon="2.60176">
        <ele>600.9611816</ele>
        <time>2014-07-25T06:51:06Z</time>
      </trkpt>
      <trkpt lat="44.31861" lon="2.60166">
        <ele>600.9611816</ele>
        <time>2014-07-25T06:51:11Z</time>
      </trkpt>
      <trkpt lat="44.31871" lon="2.60157">
        <ele>600.4807129</ele>
        <time>2014-07-25T06:51:16Z</time>
      </trkpt>
      <trkpt lat="44.31882" lon="2.60148">
        <ele>601.9226074</ele>
        <time>2014-07-25T06:51:21Z</time>
      </trkpt>
      <trkpt lat="44.31891" lon="2.6014">
        <ele>603.8452148</ele>
        <time>2014-07-25T06:51:26Z</time>
      </trkpt>
      <trkpt lat="44.31899" lon="2.60133">
        <ele>604.3261719</ele>
        <time>2014-07-25T06:51:31Z</time>
      </trkpt>
      <trkpt lat="44.31902" lon="2.60131">
        <ele>605.2873535</ele>
        <time>2014-07-25T06:51:37Z</time>
      </trkpt>
      <trkpt lat="44.31904" lon="2.60129">
        <ele>605.2873535</ele>
        <time>2014-07-25T06:51:47Z</time>
      </trkpt>
      <trkpt lat="44.31907" lon="2.60126">
        <ele>605.2873535</ele>
        <time>2014-07-25T06:51:53Z</time>
      </trkpt>
      <trkpt lat="44.31916" lon="2.60115">
        <ele>604.3261719</ele>
        <time>2014-07-25T06:51:59Z</time>
      </trkpt>
      <trkpt lat="44.31924" lon="2.60106">
        <ele>602.8837891</ele>
        <time>2014-07-25T06:52:03Z</time>
      </trkpt>
      <trkpt lat="44.31935" lon="2.60095">
        <ele>600.4807129</ele>
        <time>2014-07-25T06:52:08Z</time>
      </trkpt>
      <trkpt lat="44.31944" lon="2.60086">
        <ele>599.5192871</ele>
        <time>2014-07-25T06:52:12Z</time>
      </trkpt>
      <trkpt lat="44.31949" lon="2.60083">
        <ele>599.0385742</ele>
        <time>2014-07-25T06:52:14Z</time>
      </trkpt>
      <trkpt lat="44.31959" lon="2.60073">
        <ele>597.5966797</ele>
        <time>2014-07-25T06:52:19Z</time>
      </trkpt>
      <trkpt lat="44.31969" lon="2.60064">
        <ele>597.1159668</ele>
        <time>2014-07-25T06:52:23Z</time>
      </trkpt>
      <trkpt lat="44.31984" lon="2.60053">
        <ele>597.5966797</ele>
        <time>2014-07-25T06:52:29Z</time>
      </trkpt>
      <trkpt lat="44.31993" lon="2.60045">
        <ele>597.1159668</ele>
        <time>2014-07-25T06:52:33Z</time>
      </trkpt>
      <trkpt lat="44.32007" lon="2.60033">
        <ele>598.0773926</ele>
        <time>2014-07-25T06:52:39Z</time>
      </trkpt>
      <trkpt lat="44.32022" lon="2.60023">
        <ele>598.0773926</ele>
        <time>2014-07-25T06:52:45Z</time>
      </trkpt>
      <trkpt lat="44.32037" lon="2.6001">
        <ele>598.5578613</ele>
        <time>2014-07-25T06:52:51Z</time>
      </trkpt>
      <trkpt lat="44.32049" lon="2.6">
        <ele>598.5578613</ele>
        <time>2014-07-25T06:52:56Z</time>
      </trkpt>
      <trkpt lat="44.32059" lon="2.5999">
        <ele>599.0385742</ele>
        <time>2014-07-25T06:53:01Z</time>
      </trkpt>
      <trkpt lat="44.32076" lon="2.59975">
        <ele>599.5192871</ele>
        <time>2014-07-25T06:53:09Z</time>
      </trkpt>
      <trkpt lat="44.32086" lon="2.59967">
        <ele>600.9611816</ele>
        <time>2014-07-25T06:53:14Z</time>
      </trkpt>
      <trkpt lat="44.32096" lon="2.59958">
        <ele>601.4418945</ele>
        <time>2014-07-25T06:53:19Z</time>
      </trkpt>
      <trkpt lat="44.3211" lon="2.59947">
        <ele>603.364502</ele>
        <time>2014-07-25T06:53:26Z</time>
      </trkpt>
      <trkpt lat="44.32122" lon="2.59937">
        <ele>605.2873535</ele>
        <time>2014-07-25T06:53:32Z</time>
      </trkpt>
      <trkpt lat="44.32132" lon="2.59928">
        <ele>605.7680664</ele>
        <time>2014-07-25T06:53:37Z</time>
      </trkpt>
      <trkpt lat="44.32146" lon="2.59917">
        <ele>605.7680664</ele>
        <time>2014-07-25T06:53:43Z</time>
      </trkpt>
      <trkpt lat="44.32157" lon="2.59906">
        <ele>606.729248</ele>
        <time>2014-07-25T06:53:48Z</time>
      </trkpt>
      <trkpt lat="44.32171" lon="2.59893">
        <ele>606.729248</ele>
        <time>2014-07-25T06:53:55Z</time>
      </trkpt>
      <trkpt lat="44.3218" lon="2.59886">
        <ele>607.2099609</ele>
        <time>2014-07-25T06:53:59Z</time>
      </trkpt>
      <trkpt lat="44.3219" lon="2.59877">
        <ele>607.2099609</ele>
        <time>2014-07-25T06:54:04Z</time>
      </trkpt>
      <trkpt lat="44.32199" lon="2.59869">
        <ele>606.729248</ele>
        <time>2014-07-25T06:54:08Z</time>
      </trkpt>
      <trkpt lat="44.32212" lon="2.59858">
        <ele>607.2099609</ele>
        <time>2014-07-25T06:54:14Z</time>
      </trkpt>
      <trkpt lat="44.32224" lon="2.59847">
        <ele>608.6518555</ele>
        <time>2014-07-25T06:54:19Z</time>
      </trkpt>
      <trkpt lat="44.32234" lon="2.59838">
        <ele>609.1325684</ele>
        <time>2014-07-25T06:54:24Z</time>
      </trkpt>
      <trkpt lat="44.3225" lon="2.59824">
        <ele>610.5744629</ele>
        <time>2014-07-25T06:54:31Z</time>
      </trkpt>
      <trkpt lat="44.3226" lon="2.59812">
        <ele>610.5744629</ele>
        <time>2014-07-25T06:54:36Z</time>
      </trkpt>
      <trkpt lat="44.3227" lon="2.598">
        <ele>610.5744629</ele>
        <time>2014-07-25T06:54:41Z</time>
      </trkpt>
      <trkpt lat="44.3228" lon="2.59785">
        <ele>608.6518555</ele>
        <time>2014-07-25T06:54:47Z</time>
      </trkpt>
      <trkpt lat="44.32289" lon="2.59772">
        <ele>607.2099609</ele>
        <time>2014-07-25T06:54:52Z</time>
      </trkpt>
      <trkpt lat="44.32299" lon="2.59757">
        <ele>606.2485352</ele>
        <time>2014-07-25T06:54:58Z</time>
      </trkpt>
      <trkpt lat="44.32306" lon="2.59747">
        <ele>605.7680664</ele>
        <time>2014-07-25T06:55:02Z</time>
      </trkpt>
      <trkpt lat="44.32314" lon="2.59735">
        <ele>608.6518555</ele>
        <time>2014-07-25T06:55:07Z</time>
      </trkpt>
      <trkpt lat="44.32322" lon="2.59723">
        <ele>609.1325684</ele>
        <time>2014-07-25T06:55:12Z</time>
      </trkpt>
      <trkpt lat="44.32331" lon="2.5971">
        <ele>609.1325684</ele>
        <time>2014-07-25T06:55:18Z</time>
      </trkpt>
      <trkpt lat="44.32339" lon="2.59693">
        <ele>608.6518555</ele>
        <time>2014-07-25T06:55:24Z</time>
      </trkpt>
      <trkpt lat="44.32348" lon="2.59675">
        <ele>608.1713867</ele>
        <time>2014-07-25T06:55:30Z</time>
      </trkpt>
      <trkpt lat="44.32358" lon="2.5966">
        <ele>609.1325684</ele>
        <time>2014-07-25T06:55:35Z</time>
      </trkpt>
      <trkpt lat="44.32368" lon="2.59645">
        <ele>609.6132813</ele>
        <time>2014-07-25T06:55:40Z</time>
      </trkpt>
      <trkpt lat="44.32381" lon="2.59625">
        <ele>607.6906738</ele>
        <time>2014-07-25T06:55:47Z</time>
      </trkpt>
      <trkpt lat="44.32389" lon="2.5961">
        <ele>607.2099609</ele>
        <time>2014-07-25T06:55:52Z</time>
      </trkpt>
      <trkpt lat="44.32393" lon="2.59597">
        <ele>604.3261719</ele>
        <time>2014-07-25T06:55:56Z</time>
      </trkpt>
      <trkpt lat="44.32399" lon="2.59582">
        <ele>604.8066406</ele>
        <time>2014-07-25T06:56:01Z</time>
      </trkpt>
      <trkpt lat="44.32404" lon="2.59567">
        <ele>604.8066406</ele>
        <time>2014-07-25T06:56:05Z</time>
      </trkpt>
      <trkpt lat="44.32406" lon="2.59563">
        <ele>604.3261719</ele>
        <time>2014-07-25T06:56:06Z</time>
      </trkpt>
      <trkpt lat="44.32407" lon="2.59547">
        <ele>603.364502</ele>
        <time>2014-07-25T06:56:11Z</time>
      </trkpt>
      <trkpt lat="44.32409" lon="2.59526">
        <ele>602.8837891</ele>
        <time>2014-07-25T06:56:17Z</time>
      </trkpt>
      <trkpt lat="44.32414" lon="2.59511">
        <ele>603.364502</ele>
        <time>2014-07-25T06:56:22Z</time>
      </trkpt>
      <trkpt lat="44.32418" lon="2.59498">
        <ele>603.8452148</ele>
        <time>2014-07-25T06:56:26Z</time>
      </trkpt>
      <trkpt lat="44.32425" lon="2.59481">
        <ele>606.2485352</ele>
        <time>2014-07-25T06:56:32Z</time>
      </trkpt>
      <trkpt lat="44.32433" lon="2.59467">
        <ele>607.6906738</ele>
        <time>2014-07-25T06:56:37Z</time>
      </trkpt>
      <trkpt lat="44.32443" lon="2.59452">
        <ele>606.729248</ele>
        <time>2014-07-25T06:56:43Z</time>
      </trkpt>
      <trkpt lat="44.32453" lon="2.5944">
        <ele>607.6906738</ele>
        <time>2014-07-25T06:56:49Z</time>
      </trkpt>
      <trkpt lat="44.3246" lon="2.59428">
        <ele>609.1325684</ele>
        <time>2014-07-25T06:56:54Z</time>
      </trkpt>
      <trkpt lat="44.3247" lon="2.59413">
        <ele>610.5744629</ele>
        <time>2014-07-25T06:57:01Z</time>
      </trkpt>
      <trkpt lat="44.32478" lon="2.59403">
        <ele>610.5744629</ele>
        <time>2014-07-25T06:57:06Z</time>
      </trkpt>
      <trkpt lat="44.32487" lon="2.59393">
        <ele>611.0551758</ele>
        <time>2014-07-25T06:57:11Z</time>
      </trkpt>
      <trkpt lat="44.32499" lon="2.59377">
        <ele>612.0166016</ele>
        <time>2014-07-25T06:57:18Z</time>
      </trkpt>
      <trkpt lat="44.32508" lon="2.59362">
        <ele>612.4970703</ele>
        <time>2014-07-25T06:57:24Z</time>
      </trkpt>
      <trkpt lat="44.32517" lon="2.59348">
        <ele>612.9777832</ele>
        <time>2014-07-25T06:57:30Z</time>
      </trkpt>
      <trkpt lat="44.32528" lon="2.59331">
        <ele>612.4970703</ele>
        <time>2014-07-25T06:57:37Z</time>
      </trkpt>
      <trkpt lat="44.32537" lon="2.5932">
        <ele>612.0166016</ele>
        <time>2014-07-25T06:57:42Z</time>
      </trkpt>
      <trkpt lat="44.32546" lon="2.59309">
        <ele>611.5358887</ele>
        <time>2014-07-25T06:57:47Z</time>
      </trkpt>
      <trkpt lat="44.32556" lon="2.593">
        <ele>611.0551758</ele>
        <time>2014-07-25T06:57:52Z</time>
      </trkpt>
      <trkpt lat="44.32565" lon="2.59291">
        <ele>611.5358887</ele>
        <time>2014-07-25T06:57:56Z</time>
      </trkpt>
      <trkpt lat="44.32578" lon="2.59277">
        <ele>612.9777832</ele>
        <time>2014-07-25T06:58:02Z</time>
      </trkpt>
      <trkpt lat="44.32591" lon="2.59264">
        <ele>612.4970703</ele>
        <time>2014-07-25T06:58:08Z</time>
      </trkpt>
      <trkpt lat="44.32604" lon="2.59248">
        <ele>611.5358887</ele>
        <time>2014-07-25T06:58:15Z</time>
      </trkpt>
      <trkpt lat="44.32608" lon="2.59246">
        <ele>611.5358887</ele>
        <time>2014-07-25T06:58:17Z</time>
      </trkpt>
      <trkpt lat="44.32618" lon="2.59256">
        <ele>612.9777832</ele>
        <time>2014-07-25T06:58:22Z</time>
      </trkpt>
      <trkpt lat="44.32621" lon="2.59262">
        <ele>613.4584961</ele>
        <time>2014-07-25T06:58:24Z</time>
      </trkpt>
      <trkpt lat="44.32625" lon="2.59281">
        <ele>613.9389648</ele>
        <time>2014-07-25T06:58:30Z</time>
      </trkpt>
      <trkpt lat="44.32627" lon="2.59294">
        <ele>613.4584961</ele>
        <time>2014-07-25T06:58:34Z</time>
      </trkpt>
      <trkpt lat="44.32627" lon="2.59298">
        <ele>613.4584961</ele>
        <time>2014-07-25T06:58:35Z</time>
      </trkpt>
      <trkpt lat="44.32631" lon="2.59314">
        <ele>613.9389648</ele>
        <time>2014-07-25T06:58:40Z</time>
      </trkpt>
      <trkpt lat="44.32632" lon="2.59329">
        <ele>614.4196777</ele>
        <time>2014-07-25T06:58:44Z</time>
      </trkpt>
      <trkpt lat="44.32634" lon="2.59341">
        <ele>613.4584961</ele>
        <time>2014-07-25T06:58:48Z</time>
      </trkpt>
      <trkpt lat="44.3264" lon="2.59363">
        <ele>613.4584961</ele>
        <time>2014-07-25T06:58:55Z</time>
      </trkpt>
      <trkpt lat="44.32643" lon="2.5938">
        <ele>612.4970703</ele>
        <time>2014-07-25T06:59:00Z</time>
      </trkpt>
      <trkpt lat="44.32645" lon="2.59397">
        <ele>611.5358887</ele>
        <time>2014-07-25T06:59:05Z</time>
      </trkpt>
      <trkpt lat="44.32647" lon="2.59404">
        <ele>611.5358887</ele>
        <time>2014-07-25T06:59:07Z</time>
      </trkpt>
      <trkpt lat="44.32653" lon="2.59419">
        <ele>612.0166016</ele>
        <time>2014-07-25T06:59:12Z</time>
      </trkpt>
      <trkpt lat="44.32659" lon="2.59428">
        <ele>613.4584961</ele>
        <time>2014-07-25T06:59:15Z</time>
      </trkpt>
      <trkpt lat="44.32666" lon="2.59442">
        <ele>614.9003906</ele>
        <time>2014-07-25T06:59:20Z</time>
      </trkpt>
      <trkpt lat="44.32672" lon="2.59459">
        <ele>615.3811035</ele>
        <time>2014-07-25T06:59:25Z</time>
      </trkpt>
      <trkpt lat="44.32678" lon="2.5947">
        <ele>616.3422852</ele>
        <time>2014-07-25T06:59:29Z</time>
      </trkpt>
      <trkpt lat="44.32687" lon="2.5948">
        <ele>617.3037109</ele>
        <time>2014-07-25T06:59:34Z</time>
      </trkpt>
      <trkpt lat="44.32696" lon="2.5949">
        <ele>619.7070313</ele>
        <time>2014-07-25T06:59:39Z</time>
      </trkpt>
      <trkpt lat="44.32698" lon="2.59494">
        <ele>619.7070313</ele>
        <time>2014-07-25T06:59:41Z</time>
      </trkpt>
      <trkpt lat="44.32698" lon="2.595">
        <ele>619.2263184</ele>
        <time>2014-07-25T06:59:46Z</time>
      </trkpt>
      <trkpt lat="44.32697" lon="2.59501">
        <ele>612.9777832</ele>
        <time>2014-07-25T07:00:04Z</time>
      </trkpt>
      <trkpt lat="44.32695" lon="2.595">
        <ele>608.6518555</ele>
        <time>2014-07-25T07:00:20Z</time>
      </trkpt>
      <trkpt lat="44.32699" lon="2.59497">
        <ele>610.09375</ele>
        <time>2014-07-25T07:00:24Z</time>
      </trkpt>
      <trkpt lat="44.32709" lon="2.59503">
        <ele>611.5358887</ele>
        <time>2014-07-25T07:00:29Z</time>
      </trkpt>
      <trkpt lat="44.32717" lon="2.59511">
        <ele>613.4584961</ele>
        <time>2014-07-25T07:00:33Z</time>
      </trkpt>
      <trkpt lat="44.32726" lon="2.59513">
        <ele>614.9003906</ele>
        <time>2014-07-25T07:00:36Z</time>
      </trkpt>
      <trkpt lat="44.32731" lon="2.59515">
        <ele>615.3811035</ele>
        <time>2014-07-25T07:00:38Z</time>
      </trkpt>
      <trkpt lat="44.32741" lon="2.5953">
        <ele>616.3422852</ele>
        <time>2014-07-25T07:00:43Z</time>
      </trkpt>
      <trkpt lat="44.32752" lon="2.59546">
        <ele>618.7456055</ele>
        <time>2014-07-25T07:00:49Z</time>
      </trkpt>
      <trkpt lat="44.32756" lon="2.5955">
        <ele>618.7456055</ele>
        <time>2014-07-25T07:00:51Z</time>
      </trkpt>
      <trkpt lat="44.32764" lon="2.59559">
        <ele>619.2263184</ele>
        <time>2014-07-25T07:00:55Z</time>
      </trkpt>
      <trkpt lat="44.32775" lon="2.59569">
        <ele>621.6296387</ele>
        <time>2014-07-25T07:01:00Z</time>
      </trkpt>
      <trkpt lat="44.32778" lon="2.59575">
        <ele>622.5910645</ele>
        <time>2014-07-25T07:01:02Z</time>
      </trkpt>
      <trkpt lat="44.32787" lon="2.59588">
        <ele>624.032959</ele>
        <time>2014-07-25T07:01:07Z</time>
      </trkpt>
      <trkpt lat="44.32795" lon="2.59599">
        <ele>625.4748535</ele>
        <time>2014-07-25T07:01:11Z</time>
      </trkpt>
      <trkpt lat="44.32812" lon="2.59616">
        <ele>628.3588867</ele>
        <time>2014-07-25T07:01:19Z</time>
      </trkpt>
      <trkpt lat="44.32826" lon="2.59624">
        <ele>628.8395996</ele>
        <time>2014-07-25T07:01:25Z</time>
      </trkpt>
      <trkpt lat="44.32837" lon="2.59632">
        <ele>628.8395996</ele>
        <time>2014-07-25T07:01:30Z</time>
      </trkpt>
      <trkpt lat="44.3285" lon="2.59646">
        <ele>628.3588867</ele>
        <time>2014-07-25T07:01:37Z</time>
      </trkpt>
      <trkpt lat="44.32857" lon="2.59656">
        <ele>629.3200684</ele>
        <time>2014-07-25T07:01:41Z</time>
      </trkpt>
      <trkpt lat="44.32866" lon="2.59668">
        <ele>628.3588867</ele>
        <time>2014-07-25T07:01:46Z</time>
      </trkpt>
      <trkpt lat="44.32875" lon="2.5968">
        <ele>628.3588867</ele>
        <time>2014-07-25T07:01:51Z</time>
      </trkpt>
      <trkpt lat="44.32883" lon="2.59689">
        <ele>628.8395996</ele>
        <time>2014-07-25T07:01:55Z</time>
      </trkpt>
      <trkpt lat="44.32888" lon="2.59697">
        <ele>629.8007813</ele>
        <time>2014-07-25T07:01:58Z</time>
      </trkpt>
      <trkpt lat="44.32896" lon="2.59705">
        <ele>630.2814941</ele>
        <time>2014-07-25T07:02:02Z</time>
      </trkpt>
      <trkpt lat="44.32904" lon="2.59714">
        <ele>630.2814941</ele>
        <time>2014-07-25T07:02:06Z</time>
      </trkpt>
      <trkpt lat="44.32906" lon="2.59717">
        <ele>630.2814941</ele>
        <time>2014-07-25T07:02:07Z</time>
      </trkpt>
      <trkpt lat="44.32917" lon="2.59727">
        <ele>631.7233887</ele>
        <time>2014-07-25T07:02:12Z</time>
      </trkpt>
      <trkpt lat="44.32925" lon="2.59734">
        <ele>631.2429199</ele>
        <time>2014-07-25T07:02:16Z</time>
      </trkpt>
      <trkpt lat="44.32935" lon="2.59749">
        <ele>630.762207</ele>
        <time>2014-07-25T07:02:22Z</time>
      </trkpt>
      <trkpt lat="44.32943" lon="2.59764">
        <ele>631.2429199</ele>
        <time>2014-07-25T07:02:27Z</time>
      </trkpt>
      <trkpt lat="44.32952" lon="2.59778">
        <ele>632.2041016</ele>
        <time>2014-07-25T07:02:32Z</time>
      </trkpt>
      <trkpt lat="44.32961" lon="2.59792">
        <ele>633.6459961</ele>
        <time>2014-07-25T07:02:37Z</time>
      </trkpt>
      <trkpt lat="44.32975" lon="2.59808">
        <ele>635.0881348</ele>
        <time>2014-07-25T07:02:43Z</time>
      </trkpt>
      <trkpt lat="44.32991" lon="2.59823">
        <ele>637.0107422</ele>
        <time>2014-07-25T07:02:50Z</time>
      </trkpt>
      <trkpt lat="44.33004" lon="2.59833">
        <ele>636.0495605</ele>
        <time>2014-07-25T07:02:55Z</time>
      </trkpt>
      <trkpt lat="44.33014" lon="2.5984">
        <ele>636.0495605</ele>
        <time>2014-07-25T07:02:59Z</time>
      </trkpt>
      <trkpt lat="44.33026" lon="2.59851">
        <ele>636.5302734</ele>
        <time>2014-07-25T07:03:05Z</time>
      </trkpt>
      <trkpt lat="44.33035" lon="2.59863">
        <ele>636.0495605</ele>
        <time>2014-07-25T07:03:10Z</time>
      </trkpt>
      <trkpt lat="44.33045" lon="2.59877">
        <ele>635.5686035</ele>
        <time>2014-07-25T07:03:16Z</time>
      </trkpt>
      <trkpt lat="44.33055" lon="2.59888">
        <ele>635.5686035</ele>
        <time>2014-07-25T07:03:21Z</time>
      </trkpt>
      <trkpt lat="44.33066" lon="2.599">
        <ele>635.0881348</ele>
        <time>2014-07-25T07:03:27Z</time>
      </trkpt>
      <trkpt lat="44.33073" lon="2.59908">
        <ele>634.6074219</ele>
        <time>2014-07-25T07:03:31Z</time>
      </trkpt>
      <trkpt lat="44.33081" lon="2.59911">
        <ele>632.6848145</ele>
        <time>2014-07-25T07:03:36Z</time>
      </trkpt>
      <trkpt lat="44.33083" lon="2.59914">
        <ele>631.7233887</ele>
        <time>2014-07-25T07:03:42Z</time>
      </trkpt>
      <trkpt lat="44.33084" lon="2.59917">
        <ele>630.762207</ele>
        <time>2014-07-25T07:03:45Z</time>
      </trkpt>
      <trkpt lat="44.33099" lon="2.59925">
        <ele>628.8395996</ele>
        <time>2014-07-25T07:03:51Z</time>
      </trkpt>
      <trkpt lat="44.33108" lon="2.59932">
        <ele>627.8781738</ele>
        <time>2014-07-25T07:03:55Z</time>
      </trkpt>
      <trkpt lat="44.33118" lon="2.59939">
        <ele>625.9555664</ele>
        <time>2014-07-25T07:03:59Z</time>
      </trkpt>
      <trkpt lat="44.33128" lon="2.59945">
        <ele>624.5136719</ele>
        <time>2014-07-25T07:04:03Z</time>
      </trkpt>
      <trkpt lat="44.33134" lon="2.59957">
        <ele>624.9943848</ele>
        <time>2014-07-25T07:04:07Z</time>
      </trkpt>
      <trkpt lat="44.33143" lon="2.59958">
        <ele>624.5136719</ele>
        <time>2014-07-25T07:04:11Z</time>
      </trkpt>
      <trkpt lat="44.3315" lon="2.59954">
        <ele>624.032959</ele>
        <time>2014-07-25T07:04:14Z</time>
      </trkpt>
      <trkpt lat="44.33155" lon="2.59957">
        <ele>623.0717773</ele>
        <time>2014-07-25T07:04:19Z</time>
      </trkpt>
      <trkpt lat="44.33159" lon="2.59975">
        <ele>622.5910645</ele>
        <time>2014-07-25T07:04:26Z</time>
      </trkpt>
      <trkpt lat="44.33161" lon="2.59992">
        <ele>622.5910645</ele>
        <time>2014-07-25T07:04:31Z</time>
      </trkpt>
      <trkpt lat="44.33166" lon="2.60011">
        <ele>622.1103516</ele>
        <time>2014-07-25T07:04:37Z</time>
      </trkpt>
      <trkpt lat="44.33167" lon="2.60023">
        <ele>622.5910645</ele>
        <time>2014-07-25T07:04:41Z</time>
      </trkpt>
      <trkpt lat="44.33176" lon="2.6003">
        <ele>622.5910645</ele>
        <time>2014-07-25T07:04:46Z</time>
      </trkpt>
      <trkpt lat="44.33186" lon="2.60026">
        <ele>622.5910645</ele>
        <time>2014-07-25T07:04:50Z</time>
      </trkpt>
      <trkpt lat="44.33191" lon="2.60022">
        <ele>622.1103516</ele>
        <time>2014-07-25T07:04:52Z</time>
      </trkpt>
      <trkpt lat="44.33205" lon="2.60011">
        <ele>619.2263184</ele>
        <time>2014-07-25T07:04:58Z</time>
      </trkpt>
      <trkpt lat="44.33211" lon="2.60005">
        <ele>616.3422852</ele>
        <time>2014-07-25T07:05:02Z</time>
      </trkpt>
      <trkpt lat="44.33222" lon="2.59994">
        <ele>614.4196777</ele>
        <time>2014-07-25T07:05:07Z</time>
      </trkpt>
      <trkpt lat="44.33226" lon="2.59986">
        <ele>612.9777832</ele>
        <time>2014-07-25T07:05:10Z</time>
      </trkpt>
      <trkpt lat="44.33231" lon="2.59977">
        <ele>611.0551758</ele>
        <time>2014-07-25T07:05:15Z</time>
      </trkpt>
      <trkpt lat="44.3323" lon="2.59976">
        <ele>609.1325684</ele>
        <time>2014-07-25T07:05:26Z</time>
      </trkpt>
      <trkpt lat="44.33236" lon="2.5997">
        <ele>609.6132813</ele>
        <time>2014-07-25T07:05:31Z</time>
      </trkpt>
      <trkpt lat="44.33242" lon="2.59961">
        <ele>609.1325684</ele>
        <time>2014-07-25T07:05:34Z</time>
      </trkpt>
      <trkpt lat="44.33251" lon="2.5995">
        <ele>608.6518555</ele>
        <time>2014-07-25T07:05:38Z</time>
      </trkpt>
      <trkpt lat="44.33263" lon="2.5994">
        <ele>608.1713867</ele>
        <time>2014-07-25T07:05:43Z</time>
      </trkpt>
      <trkpt lat="44.33271" lon="2.59932">
        <ele>607.2099609</ele>
        <time>2014-07-25T07:05:47Z</time>
      </trkpt>
      <trkpt lat="44.33278" lon="2.59922">
        <ele>605.7680664</ele>
        <time>2014-07-25T07:05:51Z</time>
      </trkpt>
      <trkpt lat="44.33289" lon="2.59911">
        <ele>605.7680664</ele>
        <time>2014-07-25T07:05:56Z</time>
      </trkpt>
      <trkpt lat="44.33296" lon="2.59908">
        <ele>606.2485352</ele>
        <time>2014-07-25T07:06:00Z</time>
      </trkpt>
      <trkpt lat="44.333" lon="2.59904">
        <ele>605.7680664</ele>
        <time>2014-07-25T07:06:03Z</time>
      </trkpt>
      <trkpt lat="44.33308" lon="2.5991">
        <ele>603.8452148</ele>
        <time>2014-07-25T07:06:08Z</time>
      </trkpt>
      <trkpt lat="44.3331" lon="2.59913">
        <ele>603.8452148</ele>
        <time>2014-07-25T07:06:09Z</time>
      </trkpt>
      <trkpt lat="44.33319" lon="2.59927">
        <ele>605.2873535</ele>
        <time>2014-07-25T07:06:15Z</time>
      </trkpt>
      <trkpt lat="44.33331" lon="2.59932">
        <ele>608.6518555</ele>
        <time>2014-07-25T07:06:20Z</time>
      </trkpt>
      <trkpt lat="44.33338" lon="2.59925">
        <ele>608.6518555</ele>
        <time>2014-07-25T07:06:24Z</time>
      </trkpt>
      <trkpt lat="44.33343" lon="2.59916">
        <ele>608.1713867</ele>
        <time>2014-07-25T07:06:28Z</time>
      </trkpt>
      <trkpt lat="44.33348" lon="2.59904">
        <ele>606.2485352</ele>
        <time>2014-07-25T07:06:32Z</time>
      </trkpt>
      <trkpt lat="44.33356" lon="2.59891">
        <ele>605.2873535</ele>
        <time>2014-07-25T07:06:37Z</time>
      </trkpt>
      <trkpt lat="44.33363" lon="2.59877">
        <ele>604.3261719</ele>
        <time>2014-07-25T07:06:42Z</time>
      </trkpt>
      <trkpt lat="44.33367" lon="2.59872">
        <ele>604.3261719</ele>
        <time>2014-07-25T07:06:44Z</time>
      </trkpt>
      <trkpt lat="44.33373" lon="2.59852">
        <ele>601.9226074</ele>
        <time>2014-07-25T07:06:50Z</time>
      </trkpt>
      <trkpt lat="44.33381" lon="2.59836">
        <ele>600</ele>
        <time>2014-07-25T07:06:55Z</time>
      </trkpt>
      <trkpt lat="44.33383" lon="2.59829">
        <ele>600</ele>
        <time>2014-07-25T07:06:57Z</time>
      </trkpt>
      <trkpt lat="44.33388" lon="2.59816">
        <ele>600.4807129</ele>
        <time>2014-07-25T07:07:01Z</time>
      </trkpt>
      <trkpt lat="44.33392" lon="2.5981">
        <ele>600.9611816</ele>
        <time>2014-07-25T07:07:04Z</time>
      </trkpt>
      <trkpt lat="44.334" lon="2.59795">
        <ele>601.9226074</ele>
        <time>2014-07-25T07:07:10Z</time>
      </trkpt>
      <trkpt lat="44.33401" lon="2.5979">
        <ele>602.4030762</ele>
        <time>2014-07-25T07:07:12Z</time>
      </trkpt>
      <trkpt lat="44.33401" lon="2.59774">
        <ele>599.5192871</ele>
        <time>2014-07-25T07:07:17Z</time>
      </trkpt>
      <trkpt lat="44.334" lon="2.59767">
        <ele>598.0773926</ele>
        <time>2014-07-25T07:07:19Z</time>
      </trkpt>
      <trkpt lat="44.33395" lon="2.59757">
        <ele>597.1159668</ele>
        <time>2014-07-25T07:07:25Z</time>
      </trkpt>
      <trkpt lat="44.33398" lon="2.59747">
        <ele>598.0773926</ele>
        <time>2014-07-25T07:07:31Z</time>
      </trkpt>
      <trkpt lat="44.334" lon="2.59744">
        <ele>597.1159668</ele>
        <time>2014-07-25T07:07:37Z</time>
      </trkpt>
      <trkpt lat="44.33402" lon="2.59741">
        <ele>597.1159668</ele>
        <time>2014-07-25T07:07:42Z</time>
      </trkpt>
      <trkpt lat="44.33398" lon="2.59743">
        <ele>597.5966797</ele>
        <time>2014-07-25T07:07:47Z</time>
      </trkpt>
      <trkpt lat="44.33401" lon="2.59734">
        <ele>598.5578613</ele>
        <time>2014-07-25T07:07:53Z</time>
      </trkpt>
      <trkpt lat="44.33404" lon="2.59725">
        <ele>599.0385742</ele>
        <time>2014-07-25T07:07:59Z</time>
      </trkpt>
      <trkpt lat="44.33404" lon="2.59724">
        <ele>599.0385742</ele>
        <time>2014-07-25T07:08:00Z</time>
      </trkpt>
      <trkpt lat="44.33404" lon="2.59718">
        <ele>599.0385742</ele>
        <time>2014-07-25T07:08:05Z</time>
      </trkpt>
      <trkpt lat="44.33408" lon="2.59719">
        <ele>600</ele>
        <time>2014-07-25T07:08:11Z</time>
      </trkpt>
      <trkpt lat="44.33411" lon="2.59727">
        <ele>598.0773926</ele>
        <time>2014-07-25T07:08:17Z</time>
      </trkpt>
      <trkpt lat="44.33411" lon="2.59729">
        <ele>597.1159668</ele>
        <time>2014-07-25T07:08:18Z</time>
      </trkpt>
      <trkpt lat="44.33417" lon="2.59736">
        <ele>593.7514648</ele>
        <time>2014-07-25T07:08:24Z</time>
      </trkpt>
      <trkpt lat="44.33419" lon="2.59737">
        <ele>592.3095703</ele>
        <time>2014-07-25T07:08:27Z</time>
      </trkpt>
      <trkpt lat="44.33425" lon="2.59744">
        <ele>591.3481445</ele>
        <time>2014-07-25T07:08:32Z</time>
      </trkpt>
      <trkpt lat="44.33427" lon="2.59745">
        <ele>590.8674316</ele>
        <time>2014-07-25T07:08:34Z</time>
      </trkpt>
      <trkpt lat="44.33434" lon="2.59736">
        <ele>589.4255371</ele>
        <time>2014-07-25T07:08:40Z</time>
      </trkpt>
      <trkpt lat="44.33437" lon="2.59733">
        <ele>589.4255371</ele>
        <time>2014-07-25T07:08:42Z</time>
      </trkpt>
      <trkpt lat="44.3344" lon="2.5973">
        <ele>589.90625</ele>
        <time>2014-07-25T07:08:44Z</time>
      </trkpt>
      <trkpt lat="44.3345" lon="2.59724">
        <ele>590.3869629</ele>
        <time>2014-07-25T07:08:49Z</time>
      </trkpt>
      <trkpt lat="44.33461" lon="2.59716">
        <ele>590.3869629</ele>
        <time>2014-07-25T07:08:53Z</time>
      </trkpt>
      <trkpt lat="44.33467" lon="2.59711">
        <ele>589.4255371</ele>
        <time>2014-07-25T07:08:56Z</time>
      </trkpt>
      <trkpt lat="44.33474" lon="2.59703">
        <ele>588.9450684</ele>
        <time>2014-07-25T07:09:00Z</time>
      </trkpt>
      <trkpt lat="44.33472" lon="2.59702">
        <ele>586.060791</ele>
        <time>2014-07-25T07:09:03Z</time>
      </trkpt>
      <trkpt lat="44.33471" lon="2.59688">
        <ele>581.7348633</ele>
        <time>2014-07-25T07:09:08Z</time>
      </trkpt>
      <trkpt lat="44.33478" lon="2.5968">
        <ele>581.7348633</ele>
        <time>2014-07-25T07:09:12Z</time>
      </trkpt>
      <trkpt lat="44.33483" lon="2.59676">
        <ele>581.7348633</ele>
        <time>2014-07-25T07:09:14Z</time>
      </trkpt>
      <trkpt lat="44.33489" lon="2.59661">
        <ele>580.7736816</ele>
        <time>2014-07-25T07:09:19Z</time>
      </trkpt>
      <trkpt lat="44.3349" lon="2.5964">
        <ele>582.2155762</ele>
        <time>2014-07-25T07:09:25Z</time>
      </trkpt>
      <trkpt lat="44.3349" lon="2.59634">
        <ele>582.6962891</ele>
        <time>2014-07-25T07:09:27Z</time>
      </trkpt>
      <trkpt lat="44.33483" lon="2.5962">
        <ele>581.2543945</ele>
        <time>2014-07-25T07:09:32Z</time>
      </trkpt>
      <trkpt lat="44.33486" lon="2.59602">
        <ele>584.1381836</ele>
        <time>2014-07-25T07:09:37Z</time>
      </trkpt>
      <trkpt lat="44.33486" lon="2.59599">
        <ele>585.0996094</ele>
        <time>2014-07-25T07:09:38Z</time>
      </trkpt>
      <trkpt lat="44.3348" lon="2.59583">
        <ele>582.6962891</ele>
        <time>2014-07-25T07:09:44Z</time>
      </trkpt>
      <trkpt lat="44.33478" lon="2.59574">
        <ele>580.7736816</ele>
        <time>2014-07-25T07:09:49Z</time>
      </trkpt>
      <trkpt lat="44.33471" lon="2.59567">
        <ele>575.0058594</ele>
        <time>2014-07-25T07:09:56Z</time>
      </trkpt>
      <trkpt lat="44.33465" lon="2.59557">
        <ele>569.7185059</ele>
        <time>2014-07-25T07:10:00Z</time>
      </trkpt>
      <trkpt lat="44.33459" lon="2.59549">
        <ele>564.4311523</ele>
        <time>2014-07-25T07:10:04Z</time>
      </trkpt>
      <trkpt lat="44.33457" lon="2.5954">
        <ele>561.0666504</ele>
        <time>2014-07-25T07:10:07Z</time>
      </trkpt>
      <trkpt lat="44.33455" lon="2.59517">
        <ele>555.7792969</ele>
        <time>2014-07-25T07:10:13Z</time>
      </trkpt>
      <trkpt lat="44.33454" lon="2.59496">
        <ele>553.3759766</ele>
        <time>2014-07-25T07:10:18Z</time>
      </trkpt>
      <trkpt lat="44.33453" lon="2.59492">
        <ele>553.3759766</ele>
        <time>2014-07-25T07:10:19Z</time>
      </trkpt>
      <trkpt lat="44.33446" lon="2.59474">
        <ele>550.9726563</ele>
        <time>2014-07-25T07:10:24Z</time>
      </trkpt>
      <trkpt lat="44.33443" lon="2.59465">
        <ele>546.1662598</ele>
        <time>2014-07-25T07:10:27Z</time>
      </trkpt>
      <trkpt lat="44.33435" lon="2.59453">
        <ele>540.8789063</ele>
        <time>2014-07-25T07:10:31Z</time>
      </trkpt>
      <trkpt lat="44.3343" lon="2.5943">
        <ele>535.5915527</ele>
        <time>2014-07-25T07:10:37Z</time>
      </trkpt>
      <trkpt lat="44.33431" lon="2.59405">
        <ele>539.9176025</ele>
        <time>2014-07-25T07:10:43Z</time>
      </trkpt>
      <trkpt lat="44.33433" lon="2.59395">
        <ele>540.3983154</ele>
        <time>2014-07-25T07:10:45Z</time>
      </trkpt>
      <trkpt lat="44.33432" lon="2.59372">
        <ele>540.3983154</ele>
        <time>2014-07-25T07:10:50Z</time>
      </trkpt>
      <trkpt lat="44.33432" lon="2.59352">
        <ele>540.8789063</ele>
        <time>2014-07-25T07:10:55Z</time>
      </trkpt>
      <trkpt lat="44.33434" lon="2.59331">
        <ele>549.5307617</ele>
        <time>2014-07-25T07:10:59Z</time>
      </trkpt>
      <trkpt lat="44.33435" lon="2.59312">
        <ele>550.9726563</ele>
        <time>2014-07-25T07:11:03Z</time>
      </trkpt>
      <trkpt lat="44.33436" lon="2.59299">
        <ele>550.0114746</ele>
        <time>2014-07-25T07:11:07Z</time>
      </trkpt>
      <trkpt lat="44.33439" lon="2.5929">
        <ele>552.8952637</ele>
        <time>2014-07-25T07:11:09Z</time>
      </trkpt>
      <trkpt lat="44.33441" lon="2.59277">
        <ele>556.7407227</ele>
        <time>2014-07-25T07:11:12Z</time>
      </trkpt>
      <trkpt lat="44.33437" lon="2.59246">
        <ele>564.9118652</ele>
        <time>2014-07-25T07:11:18Z</time>
      </trkpt>
      <trkpt lat="44.33437" lon="2.59242">
        <ele>565.873291</ele>
        <time>2014-07-25T07:11:19Z</time>
      </trkpt>
      <trkpt lat="44.33448" lon="2.59213">
        <ele>569.7185059</ele>
        <time>2014-07-25T07:11:25Z</time>
      </trkpt>
      <trkpt lat="44.33452" lon="2.59187">
        <ele>567.3151855</ele>
        <time>2014-07-25T07:11:30Z</time>
      </trkpt>
      <trkpt lat="44.33452" lon="2.59174">
        <ele>568.2763672</ele>
        <time>2014-07-25T07:11:33Z</time>
      </trkpt>
      <trkpt lat="44.33444" lon="2.5916">
        <ele>562.5085449</ele>
        <time>2014-07-25T07:11:38Z</time>
      </trkpt>
      <trkpt lat="44.33443" lon="2.59151">
        <ele>560.1052246</ele>
        <time>2014-07-25T07:11:41Z</time>
      </trkpt>
      <trkpt lat="44.33445" lon="2.59134">
        <ele>562.9892578</ele>
        <time>2014-07-25T07:11:46Z</time>
      </trkpt>
      <trkpt lat="44.33443" lon="2.59116">
        <ele>561.5473633</ele>
        <time>2014-07-25T07:11:50Z</time>
      </trkpt>
      <trkpt lat="44.33456" lon="2.59086">
        <ele>566.8344727</ele>
        <time>2014-07-25T07:11:57Z</time>
      </trkpt>
      <trkpt lat="44.33456" lon="2.59069">
        <ele>567.7956543</ele>
        <time>2014-07-25T07:12:01Z</time>
      </trkpt>
      <trkpt lat="44.33453" lon="2.59047">
        <ele>568.2763672</ele>
        <time>2014-07-25T07:12:06Z</time>
      </trkpt>
      <trkpt lat="44.33448" lon="2.59032">
        <ele>569.7185059</ele>
        <time>2014-07-25T07:12:09Z</time>
      </trkpt>
      <trkpt lat="44.33456" lon="2.59005">
        <ele>573.5639648</ele>
        <time>2014-07-25T07:12:16Z</time>
      </trkpt>
      <trkpt lat="44.33464" lon="2.58993">
        <ele>572.6025391</ele>
        <time>2014-07-25T07:12:20Z</time>
      </trkpt>
      <trkpt lat="44.33475" lon="2.58974">
        <ele>568.2763672</ele>
        <time>2014-07-25T07:12:26Z</time>
      </trkpt>
      <trkpt lat="44.33483" lon="2.58965">
        <ele>565.3925781</ele>
        <time>2014-07-25T07:12:30Z</time>
      </trkpt>
      <trkpt lat="44.33493" lon="2.58949">
        <ele>563.4699707</ele>
        <time>2014-07-25T07:12:35Z</time>
      </trkpt>
      <trkpt lat="44.33503" lon="2.58932">
        <ele>561.5473633</ele>
        <time>2014-07-25T07:12:39Z</time>
      </trkpt>
      <trkpt lat="44.33512" lon="2.58913">
        <ele>559.6247559</ele>
        <time>2014-07-25T07:12:44Z</time>
      </trkpt>
      <trkpt lat="44.33522" lon="2.5889">
        <ele>565.3925781</ele>
        <time>2014-07-25T07:12:50Z</time>
      </trkpt>
      <trkpt lat="44.33524" lon="2.58883">
        <ele>565.873291</ele>
        <time>2014-07-25T07:12:52Z</time>
      </trkpt>
      <trkpt lat="44.33529" lon="2.58872">
        <ele>566.8344727</ele>
        <time>2014-07-25T07:12:57Z</time>
      </trkpt>
      <trkpt lat="44.33532" lon="2.58874">
        <ele>566.3537598</ele>
        <time>2014-07-25T07:13:01Z</time>
      </trkpt>
      <trkpt lat="44.3354" lon="2.58871">
        <ele>562.9892578</ele>
        <time>2014-07-25T07:13:05Z</time>
      </trkpt>
      <trkpt lat="44.33543" lon="2.58866">
        <ele>562.0280762</ele>
        <time>2014-07-25T07:13:09Z</time>
      </trkpt>
      <trkpt lat="44.33546" lon="2.5886">
        <ele>560.5859375</ele>
        <time>2014-07-25T07:13:13Z</time>
      </trkpt>
      <trkpt lat="44.33551" lon="2.58854">
        <ele>560.5859375</ele>
        <time>2014-07-25T07:13:20Z</time>
      </trkpt>
      <trkpt lat="44.33553" lon="2.58859">
        <ele>561.5473633</ele>
        <time>2014-07-25T07:13:27Z</time>
      </trkpt>
      <trkpt lat="44.33553" lon="2.58859">
        <ele>561.5473633</ele>
        <time>2014-07-25T07:13:32Z</time>
      </trkpt>
      <trkpt lat="44.33552" lon="2.5886">
        <ele>561.0666504</ele>
        <time>2014-07-25T07:13:46Z</time>
      </trkpt>
      <trkpt lat="44.33551" lon="2.58862">
        <ele>560.5859375</ele>
        <time>2014-07-25T07:13:47Z</time>
      </trkpt>
      <trkpt lat="44.33543" lon="2.58878">
        <ele>561.0666504</ele>
        <time>2014-07-25T07:13:54Z</time>
      </trkpt>
      <trkpt lat="44.33538" lon="2.58888">
        <ele>561.5473633</ele>
        <time>2014-07-25T07:13:58Z</time>
      </trkpt>
      <trkpt lat="44.33534" lon="2.58903">
        <ele>563.4699707</ele>
        <time>2014-07-25T07:14:03Z</time>
      </trkpt>
      <trkpt lat="44.33529" lon="2.58918">
        <ele>564.9118652</ele>
        <time>2014-07-25T07:14:08Z</time>
      </trkpt>
      <trkpt lat="44.33527" lon="2.58924">
        <ele>564.9118652</ele>
        <time>2014-07-25T07:14:10Z</time>
      </trkpt>
      <trkpt lat="44.33522" lon="2.58939">
        <ele>566.3537598</ele>
        <time>2014-07-25T07:14:15Z</time>
      </trkpt>
      <trkpt lat="44.33517" lon="2.58954">
        <ele>566.8344727</ele>
        <time>2014-07-25T07:14:20Z</time>
      </trkpt>
      <trkpt lat="44.33512" lon="2.58966">
        <ele>568.7570801</ele>
        <time>2014-07-25T07:14:24Z</time>
      </trkpt>
      <trkpt lat="44.3351" lon="2.58969">
        <ele>569.237793</ele>
        <time>2014-07-25T07:14:25Z</time>
      </trkpt>
      <trkpt lat="44.33502" lon="2.58985">
        <ele>569.237793</ele>
        <time>2014-07-25T07:14:30Z</time>
      </trkpt>
      <trkpt lat="44.33495" lon="2.58996">
        <ele>568.7570801</ele>
        <time>2014-07-25T07:14:34Z</time>
      </trkpt>
      <trkpt lat="44.33493" lon="2.58999">
        <ele>568.2763672</ele>
        <time>2014-07-25T07:14:35Z</time>
      </trkpt>
      <trkpt lat="44.33488" lon="2.59018">
        <ele>566.8344727</ele>
        <time>2014-07-25T07:14:41Z</time>
      </trkpt>
      <trkpt lat="44.33484" lon="2.59031">
        <ele>566.8344727</ele>
        <time>2014-07-25T07:14:45Z</time>
      </trkpt>
      <trkpt lat="44.33482" lon="2.59047">
        <ele>568.7570801</ele>
        <time>2014-07-25T07:14:50Z</time>
      </trkpt>
      <trkpt lat="44.3348" lon="2.59065">
        <ele>571.1604004</ele>
        <time>2014-07-25T07:14:55Z</time>
      </trkpt>
      <trkpt lat="44.33481" lon="2.59074">
        <ele>572.1218262</ele>
        <time>2014-07-25T07:14:58Z</time>
      </trkpt>
      <trkpt lat="44.3348" lon="2.5909">
        <ele>572.6025391</ele>
        <time>2014-07-25T07:15:03Z</time>
      </trkpt>
      <trkpt lat="44.33481" lon="2.59102">
        <ele>573.083252</ele>
        <time>2014-07-25T07:15:06Z</time>
      </trkpt>
      <trkpt lat="44.33481" lon="2.59117">
        <ele>572.1218262</ele>
        <time>2014-07-25T07:15:10Z</time>
      </trkpt>
      <trkpt lat="44.33482" lon="2.59132">
        <ele>570.6796875</ele>
        <time>2014-07-25T07:15:14Z</time>
      </trkpt>
      <trkpt lat="44.33479" lon="2.59145">
        <ele>569.237793</ele>
        <time>2014-07-25T07:15:18Z</time>
      </trkpt>
      <trkpt lat="44.33479" lon="2.59158">
        <ele>568.2763672</ele>
        <time>2014-07-25T07:15:22Z</time>
      </trkpt>
      <trkpt lat="44.33479" lon="2.59178">
        <ele>567.3151855</ele>
        <time>2014-07-25T07:15:28Z</time>
      </trkpt>
      <trkpt lat="44.33479" lon="2.59198">
        <ele>565.873291</ele>
        <time>2014-07-25T07:15:34Z</time>
      </trkpt>
      <trkpt lat="44.3348" lon="2.59212">
        <ele>564.4311523</ele>
        <time>2014-07-25T07:15:39Z</time>
      </trkpt>
      <trkpt lat="44.3348" lon="2.59215">
        <ele>564.4311523</ele>
        <time>2014-07-25T07:15:40Z</time>
      </trkpt>
      <trkpt lat="44.33481" lon="2.59226">
        <ele>564.4311523</ele>
        <time>2014-07-25T07:15:44Z</time>
      </trkpt>
      <trkpt lat="44.33481" lon="2.59234">
        <ele>564.9118652</ele>
        <time>2014-07-25T07:15:46Z</time>
      </trkpt>
      <trkpt lat="44.33484" lon="2.59251">
        <ele>565.873291</ele>
        <time>2014-07-25T07:15:51Z</time>
      </trkpt>
      <trkpt lat="44.33486" lon="2.59269">
        <ele>566.3537598</ele>
        <time>2014-07-25T07:15:56Z</time>
      </trkpt>
      <trkpt lat="44.33486" lon="2.59278">
        <ele>566.8344727</ele>
        <time>2014-07-25T07:15:59Z</time>
      </trkpt>
      <trkpt lat="44.33487" lon="2.59299">
        <ele>567.7956543</ele>
        <time>2014-07-25T07:16:06Z</time>
      </trkpt>
      <trkpt lat="44.33488" lon="2.59312">
        <ele>569.7185059</ele>
        <time>2014-07-25T07:16:10Z</time>
      </trkpt>
      <trkpt lat="44.33489" lon="2.59327">
        <ele>570.1989746</ele>
        <time>2014-07-25T07:16:15Z</time>
      </trkpt>
      <trkpt lat="44.33491" lon="2.59344">
        <ele>569.7185059</ele>
        <time>2014-07-25T07:16:20Z</time>
      </trkpt>
      <trkpt lat="44.33493" lon="2.59357">
        <ele>569.237793</ele>
        <time>2014-07-25T07:16:24Z</time>
      </trkpt>
      <trkpt lat="44.33493" lon="2.59368">
        <ele>569.7185059</ele>
        <time>2014-07-25T07:16:28Z</time>
      </trkpt>
      <trkpt lat="44.33494" lon="2.59382">
        <ele>570.1989746</ele>
        <time>2014-07-25T07:16:32Z</time>
      </trkpt>
      <trkpt lat="44.33493" lon="2.59394">
        <ele>569.237793</ele>
        <time>2014-07-25T07:16:36Z</time>
      </trkpt>
      <trkpt lat="44.33494" lon="2.59407">
        <ele>568.2763672</ele>
        <time>2014-07-25T07:16:40Z</time>
      </trkpt>
      <trkpt lat="44.33493" lon="2.59421">
        <ele>567.3151855</ele>
        <time>2014-07-25T07:16:44Z</time>
      </trkpt>
      <trkpt lat="44.33493" lon="2.59434">
        <ele>566.3537598</ele>
        <time>2014-07-25T07:16:48Z</time>
      </trkpt>
      <trkpt lat="44.33495" lon="2.59449">
        <ele>567.7956543</ele>
        <time>2014-07-25T07:16:53Z</time>
      </trkpt>
      <trkpt lat="44.33495" lon="2.59452">
        <ele>568.7570801</ele>
        <time>2014-07-25T07:16:54Z</time>
      </trkpt>
      <trkpt lat="44.33495" lon="2.59451">
        <ele>569.237793</ele>
        <time>2014-07-25T07:16:59Z</time>
      </trkpt>
      <trkpt lat="44.33495" lon="2.59452">
        <ele>569.7185059</ele>
        <time>2014-07-25T07:17:06Z</time>
      </trkpt>
      <trkpt lat="44.33496" lon="2.59452">
        <ele>570.6796875</ele>
        <time>2014-07-25T07:17:13Z</time>
      </trkpt>
      <trkpt lat="44.33499" lon="2.59467">
        <ele>571.1604004</ele>
        <time>2014-07-25T07:17:20Z</time>
      </trkpt>
      <trkpt lat="44.33504" lon="2.59483">
        <ele>572.1218262</ele>
        <time>2014-07-25T07:17:25Z</time>
      </trkpt>
      <trkpt lat="44.33511" lon="2.595">
        <ele>573.083252</ele>
        <time>2014-07-25T07:17:31Z</time>
      </trkpt>
      <trkpt lat="44.33515" lon="2.59511">
        <ele>572.6025391</ele>
        <time>2014-07-25T07:17:35Z</time>
      </trkpt>
      <trkpt lat="44.3352" lon="2.59527">
        <ele>573.5639648</ele>
        <time>2014-07-25T07:17:40Z</time>
      </trkpt>
      <trkpt lat="44.33523" lon="2.59543">
        <ele>575.0058594</ele>
        <time>2014-07-25T07:17:45Z</time>
      </trkpt>
      <trkpt lat="44.33524" lon="2.59563">
        <ele>575.967041</ele>
        <time>2014-07-25T07:17:51Z</time>
      </trkpt>
      <trkpt lat="44.33525" lon="2.59579">
        <ele>576.4477539</ele>
        <time>2014-07-25T07:17:56Z</time>
      </trkpt>
      <trkpt lat="44.33527" lon="2.59595">
        <ele>577.4091797</ele>
        <time>2014-07-25T07:18:01Z</time>
      </trkpt>
      <trkpt lat="44.33529" lon="2.59618">
        <ele>578.3703613</ele>
        <time>2014-07-25T07:18:08Z</time>
      </trkpt>
      <trkpt lat="44.33533" lon="2.59637">
        <ele>578.8510742</ele>
        <time>2014-07-25T07:18:14Z</time>
      </trkpt>
      <trkpt lat="44.33538" lon="2.59656">
        <ele>579.8122559</ele>
        <time>2014-07-25T07:18:20Z</time>
      </trkpt>
      <trkpt lat="44.33545" lon="2.59673">
        <ele>581.7348633</ele>
        <time>2014-07-25T07:18:26Z</time>
      </trkpt>
      <trkpt lat="44.33554" lon="2.5969">
        <ele>582.6962891</ele>
        <time>2014-07-25T07:18:32Z</time>
      </trkpt>
      <trkpt lat="44.33561" lon="2.59703">
        <ele>583.1767578</ele>
        <time>2014-07-25T07:18:37Z</time>
      </trkpt>
      <trkpt lat="44.33572" lon="2.59719">
        <ele>583.1767578</ele>
        <time>2014-07-25T07:18:43Z</time>
      </trkpt>
      <trkpt lat="44.33578" lon="2.5973">
        <ele>583.1767578</ele>
        <time>2014-07-25T07:18:47Z</time>
      </trkpt>
      <trkpt lat="44.33585" lon="2.59744">
        <ele>583.1767578</ele>
        <time>2014-07-25T07:18:52Z</time>
      </trkpt>
      <trkpt lat="44.33592" lon="2.59761">
        <ele>581.7348633</ele>
        <time>2014-07-25T07:18:58Z</time>
      </trkpt>
      <trkpt lat="44.33597" lon="2.59777">
        <ele>581.7348633</ele>
        <time>2014-07-25T07:19:03Z</time>
      </trkpt>
      <trkpt lat="44.336" lon="2.59797">
        <ele>582.6962891</ele>
        <time>2014-07-25T07:19:10Z</time>
      </trkpt>
      <trkpt lat="44.33601" lon="2.5981">
        <ele>583.6574707</ele>
        <time>2014-07-25T07:19:14Z</time>
      </trkpt>
      <trkpt lat="44.33601" lon="2.59825">
        <ele>583.6574707</ele>
        <time>2014-07-25T07:19:18Z</time>
      </trkpt>
      <trkpt lat="44.33602" lon="2.59841">
        <ele>583.1767578</ele>
        <time>2014-07-25T07:19:23Z</time>
      </trkpt>
      <trkpt lat="44.33602" lon="2.59845">
        <ele>583.1767578</ele>
        <time>2014-07-25T07:19:24Z</time>
      </trkpt>
      <trkpt lat="44.33603" lon="2.59858">
        <ele>582.6962891</ele>
        <time>2014-07-25T07:19:28Z</time>
      </trkpt>
      <trkpt lat="44.33603" lon="2.59878">
        <ele>584.1381836</ele>
        <time>2014-07-25T07:19:34Z</time>
      </trkpt>
      <trkpt lat="44.33601" lon="2.59899">
        <ele>583.6574707</ele>
        <time>2014-07-25T07:19:40Z</time>
      </trkpt>
      <trkpt lat="44.33601" lon="2.59905">
        <ele>582.6962891</ele>
        <time>2014-07-25T07:19:42Z</time>
      </trkpt>
      <trkpt lat="44.33599" lon="2.5992">
        <ele>584.6188965</ele>
        <time>2014-07-25T07:19:46Z</time>
      </trkpt>
      <trkpt lat="44.33599" lon="2.59932">
        <ele>586.060791</ele>
        <time>2014-07-25T07:19:50Z</time>
      </trkpt>
      <trkpt lat="44.33596" lon="2.59953">
        <ele>587.5026855</ele>
        <time>2014-07-25T07:19:56Z</time>
      </trkpt>
      <trkpt lat="44.33595" lon="2.59969">
        <ele>586.060791</ele>
        <time>2014-07-25T07:20:01Z</time>
      </trkpt>
      <trkpt lat="44.33594" lon="2.59981">
        <ele>584.6188965</ele>
        <time>2014-07-25T07:20:05Z</time>
      </trkpt>
      <trkpt lat="44.33592" lon="2.59998">
        <ele>582.6962891</ele>
        <time>2014-07-25T07:20:10Z</time>
      </trkpt>
      <trkpt lat="44.33593" lon="2.60011">
        <ele>580.2929688</ele>
        <time>2014-07-25T07:20:14Z</time>
      </trkpt>
      <trkpt lat="44.33593" lon="2.60017">
        <ele>579.8122559</ele>
        <time>2014-07-25T07:20:16Z</time>
      </trkpt>
      <trkpt lat="44.33595" lon="2.60036">
        <ele>578.8510742</ele>
        <time>2014-07-25T07:20:23Z</time>
      </trkpt>
      <trkpt lat="44.33599" lon="2.60053">
        <ele>580.7736816</ele>
        <time>2014-07-25T07:20:28Z</time>
      </trkpt>
      <trkpt lat="44.336" lon="2.60059">
        <ele>580.7736816</ele>
        <time>2014-07-25T07:20:30Z</time>
      </trkpt>
      <trkpt lat="44.33607" lon="2.60072">
        <ele>582.2155762</ele>
        <time>2014-07-25T07:20:35Z</time>
      </trkpt>
      <trkpt lat="44.33612" lon="2.60084">
        <ele>584.1381836</ele>
        <time>2014-07-25T07:20:39Z</time>
      </trkpt>
      <trkpt lat="44.33614" lon="2.60087">
        <ele>584.1381836</ele>
        <time>2014-07-25T07:20:40Z</time>
      </trkpt>
      <trkpt lat="44.33622" lon="2.60106">
        <ele>586.060791</ele>
        <time>2014-07-25T07:20:46Z</time>
      </trkpt>
      <trkpt lat="44.33631" lon="2.60119">
        <ele>586.5415039</ele>
        <time>2014-07-25T07:20:51Z</time>
      </trkpt>
      <trkpt lat="44.33635" lon="2.60127">
        <ele>587.0219727</ele>
        <time>2014-07-25T07:20:54Z</time>
      </trkpt>
      <trkpt lat="44.33642" lon="2.60141">
        <ele>587.0219727</ele>
        <time>2014-07-25T07:20:59Z</time>
      </trkpt>
      <trkpt lat="44.33647" lon="2.60156">
        <ele>588.4643555</ele>
        <time>2014-07-25T07:21:04Z</time>
      </trkpt>
      <trkpt lat="44.33651" lon="2.60176">
        <ele>589.90625</ele>
        <time>2014-07-25T07:21:10Z</time>
      </trkpt>
      <trkpt lat="44.33655" lon="2.60197">
        <ele>589.90625</ele>
        <time>2014-07-25T07:21:16Z</time>
      </trkpt>
      <trkpt lat="44.33658" lon="2.60217">
        <ele>591.3481445</ele>
        <time>2014-07-25T07:21:22Z</time>
      </trkpt>
      <trkpt lat="44.3366" lon="2.60233">
        <ele>592.7902832</ele>
        <time>2014-07-25T07:21:27Z</time>
      </trkpt>
      <trkpt lat="44.33663" lon="2.60253">
        <ele>595.1933594</ele>
        <time>2014-07-25T07:21:33Z</time>
      </trkpt>
      <trkpt lat="44.33667" lon="2.60272">
        <ele>597.1159668</ele>
        <time>2014-07-25T07:21:39Z</time>
      </trkpt>
      <trkpt lat="44.3367" lon="2.60289">
        <ele>597.1159668</ele>
        <time>2014-07-25T07:21:44Z</time>
      </trkpt>
      <trkpt lat="44.3367" lon="2.60306">
        <ele>596.635498</ele>
        <time>2014-07-25T07:21:49Z</time>
      </trkpt>
      <trkpt lat="44.3367" lon="2.6031">
        <ele>596.1547852</ele>
        <time>2014-07-25T07:21:51Z</time>
      </trkpt>
      <trkpt lat="44.33676" lon="2.60317">
        <ele>595.1933594</ele>
        <time>2014-07-25T07:21:56Z</time>
      </trkpt>
      <trkpt lat="44.33679" lon="2.60326">
        <ele>595.6740723</ele>
        <time>2014-07-25T07:21:59Z</time>
      </trkpt>
      <trkpt lat="44.3368" lon="2.60333">
        <ele>595.1933594</ele>
        <time>2014-07-25T07:22:01Z</time>
      </trkpt>
      <trkpt lat="44.33679" lon="2.60353">
        <ele>593.7514648</ele>
        <time>2014-07-25T07:22:06Z</time>
      </trkpt>
      <trkpt lat="44.33678" lon="2.60366">
        <ele>592.7902832</ele>
        <time>2014-07-25T07:22:10Z</time>
      </trkpt>
      <trkpt lat="44.33676" lon="2.60376">
        <ele>591.8288574</ele>
        <time>2014-07-25T07:22:13Z</time>
      </trkpt>
      <trkpt lat="44.33673" lon="2.60396">
        <ele>591.8288574</ele>
        <time>2014-07-25T07:22:19Z</time>
      </trkpt>
      <trkpt lat="44.33669" lon="2.6041">
        <ele>592.7902832</ele>
        <time>2014-07-25T07:22:23Z</time>
      </trkpt>
      <trkpt lat="44.33666" lon="2.60427">
        <ele>592.7902832</ele>
        <time>2014-07-25T07:22:28Z</time>
      </trkpt>
      <trkpt lat="44.33664" lon="2.60444">
        <ele>592.7902832</ele>
        <time>2014-07-25T07:22:33Z</time>
      </trkpt>
      <trkpt lat="44.33662" lon="2.60464">
        <ele>593.7514648</ele>
        <time>2014-07-25T07:22:39Z</time>
      </trkpt>
      <trkpt lat="44.33661" lon="2.60479">
        <ele>592.3095703</ele>
        <time>2014-07-25T07:22:44Z</time>
      </trkpt>
      <trkpt lat="44.33658" lon="2.60494">
        <ele>591.8288574</ele>
        <time>2014-07-25T07:22:49Z</time>
      </trkpt>
      <trkpt lat="44.33652" lon="2.60507">
        <ele>591.3481445</ele>
        <time>2014-07-25T07:22:54Z</time>
      </trkpt>
      <trkpt lat="44.33643" lon="2.60519">
        <ele>591.8288574</ele>
        <time>2014-07-25T07:22:59Z</time>
      </trkpt>
      <trkpt lat="44.33636" lon="2.60533">
        <ele>592.7902832</ele>
        <time>2014-07-25T07:23:04Z</time>
      </trkpt>
      <trkpt lat="44.33628" lon="2.60546">
        <ele>593.270752</ele>
        <time>2014-07-25T07:23:09Z</time>
      </trkpt>
      <trkpt lat="44.33619" lon="2.60559">
        <ele>594.7126465</ele>
        <time>2014-07-25T07:23:14Z</time>
      </trkpt>
      <trkpt lat="44.33611" lon="2.60573">
        <ele>595.1933594</ele>
        <time>2014-07-25T07:23:19Z</time>
      </trkpt>
      <trkpt lat="44.33602" lon="2.60594">
        <ele>595.1933594</ele>
        <time>2014-07-25T07:23:26Z</time>
      </trkpt>
      <trkpt lat="44.336" lon="2.60611">
        <ele>594.7126465</ele>
        <time>2014-07-25T07:23:31Z</time>
      </trkpt>
      <trkpt lat="44.33597" lon="2.60625">
        <ele>594.2321777</ele>
        <time>2014-07-25T07:23:35Z</time>
      </trkpt>
      <trkpt lat="44.33597" lon="2.60635">
        <ele>594.2321777</ele>
        <time>2014-07-25T07:23:38Z</time>
      </trkpt>
      <trkpt lat="44.33596" lon="2.60651">
        <ele>594.7126465</ele>
        <time>2014-07-25T07:23:43Z</time>
      </trkpt>
      <trkpt lat="44.33595" lon="2.60658">
        <ele>594.7126465</ele>
        <time>2014-07-25T07:23:45Z</time>
      </trkpt>
      <trkpt lat="44.33593" lon="2.60675">
        <ele>596.1547852</ele>
        <time>2014-07-25T07:23:50Z</time>
      </trkpt>
      <trkpt lat="44.33592" lon="2.60691">
        <ele>596.1547852</ele>
        <time>2014-07-25T07:23:55Z</time>
      </trkpt>
      <trkpt lat="44.3359" lon="2.60711">
        <ele>596.635498</ele>
        <time>2014-07-25T07:24:01Z</time>
      </trkpt>
      <trkpt lat="44.3359" lon="2.60731">
        <ele>597.5966797</ele>
        <time>2014-07-25T07:24:07Z</time>
      </trkpt>
      <trkpt lat="44.33589" lon="2.60747">
        <ele>598.0773926</ele>
        <time>2014-07-25T07:24:12Z</time>
      </trkpt>
      <trkpt lat="44.33591" lon="2.60763">
        <ele>598.0773926</ele>
        <time>2014-07-25T07:24:17Z</time>
      </trkpt>
      <trkpt lat="44.33593" lon="2.60779">
        <ele>598.0773926</ele>
        <time>2014-07-25T07:24:22Z</time>
      </trkpt>
      <trkpt lat="44.33595" lon="2.60795">
        <ele>598.0773926</ele>
        <time>2014-07-25T07:24:27Z</time>
      </trkpt>
      <trkpt lat="44.336" lon="2.6081">
        <ele>596.635498</ele>
        <time>2014-07-25T07:24:32Z</time>
      </trkpt>
      <trkpt lat="44.33605" lon="2.60824">
        <ele>596.1547852</ele>
        <time>2014-07-25T07:24:37Z</time>
      </trkpt>
      <trkpt lat="44.33611" lon="2.60842">
        <ele>596.1547852</ele>
        <time>2014-07-25T07:24:43Z</time>
      </trkpt>
      <trkpt lat="44.33615" lon="2.60858">
        <ele>595.1933594</ele>
        <time>2014-07-25T07:24:48Z</time>
      </trkpt>
      <trkpt lat="44.33618" lon="2.60876">
        <ele>594.7126465</ele>
        <time>2014-07-25T07:24:54Z</time>
      </trkpt>
      <trkpt lat="44.33618" lon="2.60891">
        <ele>595.1933594</ele>
        <time>2014-07-25T07:24:59Z</time>
      </trkpt>
      <trkpt lat="44.33615" lon="2.60911">
        <ele>597.1159668</ele>
        <time>2014-07-25T07:25:05Z</time>
      </trkpt>
      <trkpt lat="44.33612" lon="2.60927">
        <ele>597.5966797</ele>
        <time>2014-07-25T07:25:10Z</time>
      </trkpt>
      <trkpt lat="44.33606" lon="2.60946">
        <ele>597.1159668</ele>
        <time>2014-07-25T07:25:16Z</time>
      </trkpt>
      <trkpt lat="44.33601" lon="2.60958">
        <ele>597.5966797</ele>
        <time>2014-07-25T07:25:20Z</time>
      </trkpt>
      <trkpt lat="44.33595" lon="2.60973">
        <ele>598.5578613</ele>
        <time>2014-07-25T07:25:25Z</time>
      </trkpt>
      <trkpt lat="44.33589" lon="2.6099">
        <ele>598.5578613</ele>
        <time>2014-07-25T07:25:31Z</time>
      </trkpt>
      <trkpt lat="44.33583" lon="2.61008">
        <ele>600.4807129</ele>
        <time>2014-07-25T07:25:37Z</time>
      </trkpt>
      <trkpt lat="44.33582" lon="2.61011">
        <ele>600.4807129</ele>
        <time>2014-07-25T07:25:38Z</time>
      </trkpt>
      <trkpt lat="44.33585" lon="2.61023">
        <ele>601.9226074</ele>
        <time>2014-07-25T07:25:42Z</time>
      </trkpt>
      <trkpt lat="44.33593" lon="2.61031">
        <ele>602.4030762</ele>
        <time>2014-07-25T07:25:46Z</time>
      </trkpt>
      <trkpt lat="44.33607" lon="2.61039">
        <ele>603.364502</ele>
        <time>2014-07-25T07:25:52Z</time>
      </trkpt>
      <trkpt lat="44.33613" lon="2.61044">
        <ele>603.364502</ele>
        <time>2014-07-25T07:25:55Z</time>
      </trkpt>
      <trkpt lat="44.33622" lon="2.6106">
        <ele>601.9226074</ele>
        <time>2014-07-25T07:26:01Z</time>
      </trkpt>
      <trkpt lat="44.3363" lon="2.61073">
        <ele>601.9226074</ele>
        <time>2014-07-25T07:26:06Z</time>
      </trkpt>
      <trkpt lat="44.33636" lon="2.61089">
        <ele>600.4807129</ele>
        <time>2014-07-25T07:26:12Z</time>
      </trkpt>
      <trkpt lat="44.33638" lon="2.61104">
        <ele>600.4807129</ele>
        <time>2014-07-25T07:26:17Z</time>
      </trkpt>
      <trkpt lat="44.33637" lon="2.61121">
        <ele>599.0385742</ele>
        <time>2014-07-25T07:26:22Z</time>
      </trkpt>
      <trkpt lat="44.33641" lon="2.61141">
        <ele>600</ele>
        <time>2014-07-25T07:26:28Z</time>
      </trkpt>
      <trkpt lat="44.33645" lon="2.61156">
        <ele>600.4807129</ele>
        <time>2014-07-25T07:26:33Z</time>
      </trkpt>
      <trkpt lat="44.33653" lon="2.61172">
        <ele>601.9226074</ele>
        <time>2014-07-25T07:26:39Z</time>
      </trkpt>
      <trkpt lat="44.3366" lon="2.61183">
        <ele>601.4418945</ele>
        <time>2014-07-25T07:26:44Z</time>
      </trkpt>
      <trkpt lat="44.33669" lon="2.61194">
        <ele>601.4418945</ele>
        <time>2014-07-25T07:26:50Z</time>
      </trkpt>
      <trkpt lat="44.33675" lon="2.612">
        <ele>602.4030762</ele>
        <time>2014-07-25T07:26:53Z</time>
      </trkpt>
      <trkpt lat="44.33677" lon="2.61217">
        <ele>602.4030762</ele>
        <time>2014-07-25T07:26:59Z</time>
      </trkpt>
      <trkpt lat="44.33675" lon="2.61237">
        <ele>605.7680664</ele>
        <time>2014-07-25T07:27:05Z</time>
      </trkpt>
      <trkpt lat="44.33671" lon="2.6125">
        <ele>607.6906738</ele>
        <time>2014-07-25T07:27:09Z</time>
      </trkpt>
      <trkpt lat="44.33666" lon="2.61263">
        <ele>607.6906738</ele>
        <time>2014-07-25T07:27:13Z</time>
      </trkpt>
      <trkpt lat="44.3366" lon="2.61279">
        <ele>608.6518555</ele>
        <time>2014-07-25T07:27:18Z</time>
      </trkpt>
      <trkpt lat="44.33657" lon="2.61291">
        <ele>610.09375</ele>
        <time>2014-07-25T07:27:22Z</time>
      </trkpt>
      <trkpt lat="44.33655" lon="2.61297">
        <ele>611.0551758</ele>
        <time>2014-07-25T07:27:24Z</time>
      </trkpt>
      <trkpt lat="44.33646" lon="2.6132">
        <ele>612.9777832</ele>
        <time>2014-07-25T07:27:31Z</time>
      </trkpt>
      <trkpt lat="44.33643" lon="2.61328">
        <ele>612.9777832</ele>
        <time>2014-07-25T07:27:34Z</time>
      </trkpt>
      <trkpt lat="44.33641" lon="2.61339">
        <ele>614.9003906</ele>
        <time>2014-07-25T07:27:38Z</time>
      </trkpt>
      <trkpt lat="44.33636" lon="2.61349">
        <ele>615.3811035</ele>
        <time>2014-07-25T07:27:41Z</time>
      </trkpt>
      <trkpt lat="44.33631" lon="2.61364">
        <ele>614.9003906</ele>
        <time>2014-07-25T07:27:46Z</time>
      </trkpt>
      <trkpt lat="44.33628" lon="2.61378">
        <ele>615.8618164</ele>
        <time>2014-07-25T07:27:51Z</time>
      </trkpt>
      <trkpt lat="44.33627" lon="2.61381">
        <ele>615.8618164</ele>
        <time>2014-07-25T07:27:52Z</time>
      </trkpt>
      <trkpt lat="44.33623" lon="2.61389">
        <ele>616.3422852</ele>
        <time>2014-07-25T07:27:55Z</time>
      </trkpt>
      <trkpt lat="44.33616" lon="2.61411">
        <ele>617.3037109</ele>
        <time>2014-07-25T07:28:02Z</time>
      </trkpt>
      <trkpt lat="44.33613" lon="2.61427">
        <ele>619.2263184</ele>
        <time>2014-07-25T07:28:07Z</time>
      </trkpt>
      <trkpt lat="44.33609" lon="2.61439">
        <ele>620.1877441</ele>
        <time>2014-07-25T07:28:11Z</time>
      </trkpt>
      <trkpt lat="44.33602" lon="2.61453">
        <ele>620.1877441</ele>
        <time>2014-07-25T07:28:16Z</time>
      </trkpt>
      <trkpt lat="44.33598" lon="2.61468">
        <ele>621.1491699</ele>
        <time>2014-07-25T07:28:21Z</time>
      </trkpt>
      <trkpt lat="44.33597" lon="2.61471">
        <ele>621.6296387</ele>
        <time>2014-07-25T07:28:22Z</time>
      </trkpt>
      <trkpt lat="44.33591" lon="2.61489">
        <ele>623.0717773</ele>
        <time>2014-07-25T07:28:28Z</time>
      </trkpt>
      <trkpt lat="44.33587" lon="2.61503">
        <ele>623.5524902</ele>
        <time>2014-07-25T07:28:33Z</time>
      </trkpt>
      <trkpt lat="44.33583" lon="2.61516">
        <ele>623.5524902</ele>
        <time>2014-07-25T07:28:38Z</time>
      </trkpt>
      <trkpt lat="44.33579" lon="2.61528">
        <ele>624.032959</ele>
        <time>2014-07-25T07:28:42Z</time>
      </trkpt>
      <trkpt lat="44.33575" lon="2.61545">
        <ele>625.9555664</ele>
        <time>2014-07-25T07:28:48Z</time>
      </trkpt>
      <trkpt lat="44.33572" lon="2.61557">
        <ele>626.9169922</ele>
        <time>2014-07-25T07:28:52Z</time>
      </trkpt>
      <trkpt lat="44.3357" lon="2.61565">
        <ele>626.9169922</ele>
        <time>2014-07-25T07:28:55Z</time>
      </trkpt>
      <trkpt lat="44.33566" lon="2.61579">
        <ele>627.3977051</ele>
        <time>2014-07-25T07:29:00Z</time>
      </trkpt>
      <trkpt lat="44.33563" lon="2.61594">
        <ele>628.8395996</ele>
        <time>2014-07-25T07:29:05Z</time>
      </trkpt>
      <trkpt lat="44.33559" lon="2.61609">
        <ele>628.3588867</ele>
        <time>2014-07-25T07:29:10Z</time>
      </trkpt>
      <trkpt lat="44.33557" lon="2.61621">
        <ele>628.8395996</ele>
        <time>2014-07-25T07:29:14Z</time>
      </trkpt>
      <trkpt lat="44.33556" lon="2.61623">
        <ele>628.8395996</ele>
        <time>2014-07-25T07:29:15Z</time>
      </trkpt>
      <trkpt lat="44.3355" lon="2.6164">
        <ele>629.3200684</ele>
        <time>2014-07-25T07:29:21Z</time>
      </trkpt>
      <trkpt lat="44.33548" lon="2.61653">
        <ele>629.3200684</ele>
        <time>2014-07-25T07:29:25Z</time>
      </trkpt>
      <trkpt lat="44.33545" lon="2.61672">
        <ele>632.2041016</ele>
        <time>2014-07-25T07:29:31Z</time>
      </trkpt>
      <trkpt lat="44.33545" lon="2.61675">
        <ele>632.2041016</ele>
        <time>2014-07-25T07:29:32Z</time>
      </trkpt>
      <trkpt lat="44.33545" lon="2.61686">
        <ele>632.2041016</ele>
        <time>2014-07-25T07:29:36Z</time>
      </trkpt>
      <trkpt lat="44.33543" lon="2.61706">
        <ele>631.2429199</ele>
        <time>2014-07-25T07:29:42Z</time>
      </trkpt>
      <trkpt lat="44.3354" lon="2.61722">
        <ele>631.7233887</ele>
        <time>2014-07-25T07:29:47Z</time>
      </trkpt>
      <trkpt lat="44.33537" lon="2.61739">
        <ele>633.1652832</ele>
        <time>2014-07-25T07:29:52Z</time>
      </trkpt>
      <trkpt lat="44.33536" lon="2.61747">
        <ele>633.1652832</ele>
        <time>2014-07-25T07:29:55Z</time>
      </trkpt>
      <trkpt lat="44.33535" lon="2.61768">
        <ele>633.6459961</ele>
        <time>2014-07-25T07:30:02Z</time>
      </trkpt>
      <trkpt lat="44.33535" lon="2.61777">
        <ele>633.1652832</ele>
        <time>2014-07-25T07:30:05Z</time>
      </trkpt>
      <trkpt lat="44.33534" lon="2.6179">
        <ele>636.5302734</ele>
        <time>2014-07-25T07:30:09Z</time>
      </trkpt>
      <trkpt lat="44.33536" lon="2.61807">
        <ele>638.9335938</ele>
        <time>2014-07-25T07:30:14Z</time>
      </trkpt>
      <trkpt lat="44.33538" lon="2.6182">
        <ele>641.3366699</ele>
        <time>2014-07-25T07:30:18Z</time>
      </trkpt>
      <trkpt lat="44.33541" lon="2.6183">
        <ele>642.2980957</ele>
        <time>2014-07-25T07:30:22Z</time>
      </trkpt>
      <trkpt lat="44.33546" lon="2.61846">
        <ele>645.1818848</ele>
        <time>2014-07-25T07:30:27Z</time>
      </trkpt>
      <trkpt lat="44.33553" lon="2.6186">
        <ele>646.6240234</ele>
        <time>2014-07-25T07:30:33Z</time>
      </trkpt>
      <trkpt lat="44.3356" lon="2.61871">
        <ele>646.1433105</ele>
        <time>2014-07-25T07:30:38Z</time>
      </trkpt>
      <trkpt lat="44.3357" lon="2.6188">
        <ele>645.1818848</ele>
        <time>2014-07-25T07:30:43Z</time>
      </trkpt>
      <trkpt lat="44.33582" lon="2.61887">
        <ele>643.7399902</ele>
        <time>2014-07-25T07:30:48Z</time>
      </trkpt>
      <trkpt lat="44.33595" lon="2.61894">
        <ele>641.8173828</ele>
        <time>2014-07-25T07:30:54Z</time>
      </trkpt>
      <trkpt lat="44.33605" lon="2.619">
        <ele>641.8173828</ele>
        <time>2014-07-25T07:30:59Z</time>
      </trkpt>
      <trkpt lat="44.33617" lon="2.61906">
        <ele>641.8173828</ele>
        <time>2014-07-25T07:31:04Z</time>
      </trkpt>
      <trkpt lat="44.3363" lon="2.61914">
        <ele>641.8173828</ele>
        <time>2014-07-25T07:31:10Z</time>
      </trkpt>
      <trkpt lat="44.33644" lon="2.61923">
        <ele>641.3366699</ele>
        <time>2014-07-25T07:31:17Z</time>
      </trkpt>
      <trkpt lat="44.33657" lon="2.61933">
        <ele>640.3754883</ele>
        <time>2014-07-25T07:31:23Z</time>
      </trkpt>
      <trkpt lat="44.33668" lon="2.61944">
        <ele>639.8947754</ele>
        <time>2014-07-25T07:31:29Z</time>
      </trkpt>
      <trkpt lat="44.33675" lon="2.61957">
        <ele>640.3754883</ele>
        <time>2014-07-25T07:31:34Z</time>
      </trkpt>
      <trkpt lat="44.3368" lon="2.61969">
        <ele>640.855957</ele>
        <time>2014-07-25T07:31:38Z</time>
      </trkpt>
      <trkpt lat="44.33687" lon="2.61987">
        <ele>642.2980957</ele>
        <time>2014-07-25T07:31:44Z</time>
      </trkpt>
      <trkpt lat="44.33693" lon="2.62006">
        <ele>643.7399902</ele>
        <time>2014-07-25T07:31:50Z</time>
      </trkpt>
      <trkpt lat="44.33696" lon="2.62018">
        <ele>645.1818848</ele>
        <time>2014-07-25T07:31:54Z</time>
      </trkpt>
      <trkpt lat="44.337" lon="2.62033">
        <ele>646.6240234</ele>
        <time>2014-07-25T07:31:59Z</time>
      </trkpt>
      <trkpt lat="44.33703" lon="2.62055">
        <ele>647.1044922</ele>
        <time>2014-07-25T07:32:06Z</time>
      </trkpt>
      <trkpt lat="44.33707" lon="2.62078">
        <ele>647.1044922</ele>
        <time>2014-07-25T07:32:13Z</time>
      </trkpt>
      <trkpt lat="44.33708" lon="2.6209">
        <ele>647.1044922</ele>
        <time>2014-07-25T07:32:17Z</time>
      </trkpt>
      <trkpt lat="44.33711" lon="2.62107">
        <ele>647.1044922</ele>
        <time>2014-07-25T07:32:22Z</time>
      </trkpt>
      <trkpt lat="44.33713" lon="2.62119">
        <ele>648.065918</ele>
        <time>2014-07-25T07:32:26Z</time>
      </trkpt>
      <trkpt lat="44.33712" lon="2.6214">
        <ele>649.0270996</ele>
        <time>2014-07-25T07:32:33Z</time>
      </trkpt>
      <trkpt lat="44.33708" lon="2.6216">
        <ele>649.9885254</ele>
        <time>2014-07-25T07:32:40Z</time>
      </trkpt>
      <trkpt lat="44.33704" lon="2.62177">
        <ele>650.4692383</ele>
        <time>2014-07-25T07:32:46Z</time>
      </trkpt>
      <trkpt lat="44.337" lon="2.62193">
        <ele>650.4692383</ele>
        <time>2014-07-25T07:32:52Z</time>
      </trkpt>
      <trkpt lat="44.33698" lon="2.62199">
        <ele>649.9885254</ele>
        <time>2014-07-25T07:32:54Z</time>
      </trkpt>
      <trkpt lat="44.33693" lon="2.62215">
        <ele>650.4692383</ele>
        <time>2014-07-25T07:33:00Z</time>
      </trkpt>
      <trkpt lat="44.33692" lon="2.62218">
        <ele>650.4692383</ele>
        <time>2014-07-25T07:33:01Z</time>
      </trkpt>
      <trkpt lat="44.33686" lon="2.62234">
        <ele>651.4304199</ele>
        <time>2014-07-25T07:33:07Z</time>
      </trkpt>
      <trkpt lat="44.33682" lon="2.62248">
        <ele>652.3918457</ele>
        <time>2014-07-25T07:33:12Z</time>
      </trkpt>
      <trkpt lat="44.33678" lon="2.62262">
        <ele>653.8339844</ele>
        <time>2014-07-25T07:33:17Z</time>
      </trkpt>
      <trkpt lat="44.33674" lon="2.62275">
        <ele>655.7565918</ele>
        <time>2014-07-25T07:33:22Z</time>
      </trkpt>
      <trkpt lat="44.33669" lon="2.62292">
        <ele>656.2370605</ele>
        <time>2014-07-25T07:33:28Z</time>
      </trkpt>
      <trkpt lat="44.33666" lon="2.62303">
        <ele>656.7177734</ele>
        <time>2014-07-25T07:33:32Z</time>
      </trkpt>
      <trkpt lat="44.33661" lon="2.62318">
        <ele>658.1599121</ele>
        <time>2014-07-25T07:33:38Z</time>
      </trkpt>
      <trkpt lat="44.33656" lon="2.62332">
        <ele>659.1210938</ele>
        <time>2014-07-25T07:33:43Z</time>
      </trkpt>
      <trkpt lat="44.33652" lon="2.62349">
        <ele>660.0822754</ele>
        <time>2014-07-25T07:33:49Z</time>
      </trkpt>
      <trkpt lat="44.33651" lon="2.62365">
        <ele>660.5629883</ele>
        <time>2014-07-25T07:33:54Z</time>
      </trkpt>
      <trkpt lat="44.33652" lon="2.62384">
        <ele>662.4855957</ele>
        <time>2014-07-25T07:34:00Z</time>
      </trkpt>
      <trkpt lat="44.33654" lon="2.62403">
        <ele>663.4470215</ele>
        <time>2014-07-25T07:34:06Z</time>
      </trkpt>
      <trkpt lat="44.33655" lon="2.62424">
        <ele>663.9274902</ele>
        <time>2014-07-25T07:34:13Z</time>
      </trkpt>
      <trkpt lat="44.33657" lon="2.62439">
        <ele>663.4470215</ele>
        <time>2014-07-25T07:34:18Z</time>
      </trkpt>
      <trkpt lat="44.33658" lon="2.62455">
        <ele>662.4855957</ele>
        <time>2014-07-25T07:34:24Z</time>
      </trkpt>
      <trkpt lat="44.33659" lon="2.62468">
        <ele>661.5244141</ele>
        <time>2014-07-25T07:34:29Z</time>
      </trkpt>
      <trkpt lat="44.33659" lon="2.6248">
        <ele>661.5244141</ele>
        <time>2014-07-25T07:34:33Z</time>
      </trkpt>
      <trkpt lat="44.33659" lon="2.62492">
        <ele>661.5244141</ele>
        <time>2014-07-25T07:34:37Z</time>
      </trkpt>
      <trkpt lat="44.3366" lon="2.62504">
        <ele>661.0437012</ele>
        <time>2014-07-25T07:34:41Z</time>
      </trkpt>
      <trkpt lat="44.33663" lon="2.62521">
        <ele>660.0822754</ele>
        <time>2014-07-25T07:34:47Z</time>
      </trkpt>
      <trkpt lat="44.33666" lon="2.62541">
        <ele>660.5629883</ele>
        <time>2014-07-25T07:34:53Z</time>
      </trkpt>
      <trkpt lat="44.3367" lon="2.62559">
        <ele>661.0437012</ele>
        <time>2014-07-25T07:34:59Z</time>
      </trkpt>
      <trkpt lat="44.33672" lon="2.62574">
        <ele>660.5629883</ele>
        <time>2014-07-25T07:35:04Z</time>
      </trkpt>
      <trkpt lat="44.33672" lon="2.6258">
        <ele>660.5629883</ele>
        <time>2014-07-25T07:35:06Z</time>
      </trkpt>
      <trkpt lat="44.33673" lon="2.62598">
        <ele>659.1210938</ele>
        <time>2014-07-25T07:35:12Z</time>
      </trkpt>
      <trkpt lat="44.33671" lon="2.6261">
        <ele>658.6403809</ele>
        <time>2014-07-25T07:35:16Z</time>
      </trkpt>
      <trkpt lat="44.3367" lon="2.62616">
        <ele>658.6403809</ele>
        <time>2014-07-25T07:35:18Z</time>
      </trkpt>
      <trkpt lat="44.33666" lon="2.62634">
        <ele>659.6018066</ele>
        <time>2014-07-25T07:35:24Z</time>
      </trkpt>
      <trkpt lat="44.33665" lon="2.62637">
        <ele>660.5629883</ele>
        <time>2014-07-25T07:35:25Z</time>
      </trkpt>
      <trkpt lat="44.33658" lon="2.62649">
        <ele>662.4855957</ele>
        <time>2014-07-25T07:35:30Z</time>
      </trkpt>
      <trkpt lat="44.33653" lon="2.62651">
        <ele>663.4470215</ele>
        <time>2014-07-25T07:35:32Z</time>
      </trkpt>
      <trkpt lat="44.33639" lon="2.62651">
        <ele>665.3696289</ele>
        <time>2014-07-25T07:35:37Z</time>
      </trkpt>
      <trkpt lat="44.33627" lon="2.62649">
        <ele>668.2536621</ele>
        <time>2014-07-25T07:35:42Z</time>
      </trkpt>
      <trkpt lat="44.33623" lon="2.62649">
        <ele>668.734375</ele>
        <time>2014-07-25T07:35:44Z</time>
      </trkpt>
      <trkpt lat="44.33619" lon="2.62663">
        <ele>669.6958008</ele>
        <time>2014-07-25T07:35:48Z</time>
      </trkpt>
      <trkpt lat="44.3362" lon="2.62684">
        <ele>670.6569824</ele>
        <time>2014-07-25T07:35:54Z</time>
      </trkpt>
      <trkpt lat="44.3362" lon="2.62698">
        <ele>670.1762695</ele>
        <time>2014-07-25T07:35:58Z</time>
      </trkpt>
      <trkpt lat="44.3362" lon="2.62716">
        <ele>669.2150879</ele>
        <time>2014-07-25T07:36:03Z</time>
      </trkpt>
      <trkpt lat="44.33617" lon="2.62733">
        <ele>667.7727051</ele>
        <time>2014-07-25T07:36:08Z</time>
      </trkpt>
      <trkpt lat="44.33617" lon="2.62736">
        <ele>668.2536621</ele>
        <time>2014-07-25T07:36:09Z</time>
      </trkpt>
      <trkpt lat="44.3361" lon="2.62751">
        <ele>667.2922363</ele>
        <time>2014-07-25T07:36:14Z</time>
      </trkpt>
      <trkpt lat="44.33603" lon="2.62764">
        <ele>665.8503418</ele>
        <time>2014-07-25T07:36:19Z</time>
      </trkpt>
      <trkpt lat="44.3359" lon="2.6278">
        <ele>662.4855957</ele>
        <time>2014-07-25T07:36:25Z</time>
      </trkpt>
      <trkpt lat="44.33583" lon="2.62794">
        <ele>659.6018066</ele>
        <time>2014-07-25T07:36:30Z</time>
      </trkpt>
      <trkpt lat="44.33578" lon="2.62811">
        <ele>657.6791992</ele>
        <time>2014-07-25T07:36:35Z</time>
      </trkpt>
      <trkpt lat="44.33578" lon="2.62815">
        <ele>657.1984863</ele>
        <time>2014-07-25T07:36:36Z</time>
      </trkpt>
      <trkpt lat="44.33568" lon="2.62832">
        <ele>654.3146973</ele>
        <time>2014-07-25T07:36:42Z</time>
      </trkpt>
      <trkpt lat="44.33558" lon="2.62846">
        <ele>652.8725586</ele>
        <time>2014-07-25T07:36:48Z</time>
      </trkpt>
      <trkpt lat="44.33548" lon="2.62862">
        <ele>650.4692383</ele>
        <time>2014-07-25T07:36:54Z</time>
      </trkpt>
      <trkpt lat="44.33542" lon="2.6288">
        <ele>649.0270996</ele>
        <time>2014-07-25T07:37:00Z</time>
      </trkpt>
      <trkpt lat="44.3355" lon="2.62899">
        <ele>649.0270996</ele>
        <time>2014-07-25T07:37:06Z</time>
      </trkpt>
      <trkpt lat="44.33558" lon="2.62905">
        <ele>648.5463867</ele>
        <time>2014-07-25T07:37:11Z</time>
      </trkpt>
      <trkpt lat="44.33562" lon="2.62909">
        <ele>648.065918</ele>
        <time>2014-07-25T07:37:15Z</time>
      </trkpt>
    </trkseg>
  </trk>
</gpx>